db 

Weather

Daily Weather Data

The below form allows a user to list weather stations stored in the database for each US State. If ALL is chosen in the drop down box, additional weather stations outside of the continental US will be listed. Weather stations are listed by State and then City. Clicking on the name of a Location will open up a new browser window and attempt to find that location using Google Maps.

Station Data

SAVANNAH/HILTON HEAD INTL AIRPORT
SAVANNAH, GA

WBAN: 03822
CALLSIGN: SAV
LATITUDE: 32.11      LONGITUDE: -81.2
GMAP: SAVANNAH/HILTON HEAD INTL AIRPORT


BACK to Previous Screen

CALL WBAN Date MaxT MinT AvgT CDD HDD Precip Avg Wind Max Wind Wet Bulb Dew Point
SAV 03822 01-01-00 72 47 60 0 5 0.01 2.8 11 55 53
SAV 03822 01-02-00 78 48 63 0 2 0 3.8 14 57 55
SAV 03822 01-03-00 78 48 63 0 2 0 3.9 15 57 55
SAV 03822 01-04-00 57 0.11 9.1 21 62 60
SAV 03822 01-05-00 57 40 49 0 16 0 7.6 18 41 32
SAV 03822 01-06-00 59 39 49 0 16 0 8.2 13 45 40
SAV 03822 01-07-00 65 40 53 0 12 0.04 5 16 50 47
SAV 03822 01-08-00 62 36 49 0 16 0 5 15 48 45
SAV 03822 01-09-00 74 46 60 0 5 4.6 11 56 54
SAV 03822 01-10-00 71 44 58 0 7 0.66 7.8 16 58 55
SAV 03822 01-11-00 74 36 55 0 10 0 3.6 15 47 40
SAV 03822 01-12-00 76 37 57 0 8 0 2.8 11 49 44
SAV 03822 01-13-00 74 42 58 0 7 0 8.2 20 53 47
SAV 03822 01-14-00 63 27 45 0 20 0 8.2 21 34 20
SAV 03822 01-15-00 55 24 40 0 25 0 2.7 11 33 25
SAV 03822 01-16-00 66 29 48 0 17 0 4.9 17 44 38
SAV 03822 01-17-00 62 39 51 0 14 0 5.8 16 49 44
SAV 03822 01-18-00 67 40 54 0 11 0.02 5.6 13 52 51
SAV 03822 01-19-00 52 41 47 0 18 0.04 4.2 11 45 43
SAV 03822 01-20-00 62 39 51 0 14 0.05 14.3 29 46 37
SAV 03822 01-21-00 48 25 37 0 28 0 6.3 17 29 17
SAV 03822 01-22-00 49 23 36 0 29 0 2.2 8 33 25
SAV 03822 01-23-00 58 43 51 0 14 0.46 3.5 11 50 50
SAV 03822 01-24-00 54 34 44 0 21 0.27 13 22 40 40
SAV 03822 01-25-00 48 33 41 0 24 8.9 18 35 28
SAV 03822 01-26-00 40 27 34 0 31 0 9.7 20 28 17
SAV 03822 01-27-00 46 20 33 0 32 0 2.8 9 27 18
SAV 03822 01-28-00 39 23 0 9.2 14 30 19
SAV 03822 01-29-00 44 33 39 0 26 0.85 10.6 18 40 39
SAV 03822 01-30-00 42 36 39 0 26 0.21 6.8 17 38 38
SAV 03822 01-31-00 50 30 40 0 25 0 5.9 15 35 31
SAV 03822 02-01-00 56 24 40 0 25 0 5.5 16 35 28
SAV 03822 02-02-00 53 26 40 0 25 0 3.6 16 33 26
SAV 03822 02-03-00 61 21 41 0 24 0 3.7 13 35 26
SAV 03822 02-04-00 65 32 49 0 16 0 8.5 17 40 28
SAV 03822 02-05-00 51 26 0 5.8 16 33 23
SAV 03822 02-06-00 58 22 40 0 25 0 3.1 14 33 26
SAV 03822 02-07-00 62 25 44 0 21 0 3.5 14 37 29
SAV 03822 02-08-00 62 35 49 0 16 0 4.3 13 42 35
SAV 03822 02-09-00 66 42 54 0 11 0 8.1 21 46 40
SAV 03822 02-10-00 72 31 52 0 13 0 3.7 11 44 37
SAV 03822 02-11-00 71 39 55 0 10 0 5.3 16 53 50
SAV 03822 02-12-00 73 50 62 0 3 0 5.8 14 59 57
SAV 03822 02-13-00 61 49 55 0 10 0 6.6 13 54 53
SAV 03822 02-14-00 75 59 67 2 0 0.59 6.8 15 62 59
SAV 03822 02-15-00 67 41 54 0 11 0 5.5 13 47 42
SAV 03822 02-16-00 76 37 57 0 8 0 3.5 10 50 45
SAV 03822 02-17-00 70 46 58 0 7 0 8.8 23 52 48
SAV 03822 02-18-00 76 52 64 0 1 0 7.7 20 58 56
SAV 03822 02-19-00 57 0 7.3 16 63 60
SAV 03822 02-20-00 63 39 51 0 14 0 6.8 18 44 37
SAV 03822 02-21-00 61 32 47 0 18 0 4.1 16 41 35
SAV 03822 02-22-00 63 32 48 0 17 0 5.3 15 43 36
SAV 03822 02-23-00 68 39 54 0 11 7.1 16 52 49
SAV 03822 02-24-00 75 50 63 0 2 0 5.3 14 57 54
SAV 03822 02-25-00 77 45 61 0 4 0 3.7 15 56 53
SAV 03822 02-26-00 76 46 61 0 4 0 4.4 18 56 54
SAV 03822 02-27-00 76 48 62 0 3 0.97 6 17 58 56
SAV 03822 02-28-00 72 47 60 0 5 0 4.6 15 54 51
SAV 03822 02-29-00 72 38 55 0 10 0 4.1 13 49 44
SAV 03822 03-01-00 76 43 60 0 5 0 4.6 17 54 51
SAV 03822 03-02-00 79 47 63 0 2 0 6.8 18 55 45
SAV 03822 03-03-00 71 38 55 0 10 0 3.8 13 50 46
SAV 03822 03-04-00 73 52 63 0 2 0.69 8.2 22 57 53
SAV 03822 03-05-00 73 43 58 0 7 0 2.6 14 51 47
SAV 03822 03-06-00 79 45 62 0 3 0 3.5 15 53 47
SAV 03822 03-07-00 77 43 60 0 5 0 3.6 13 53 47
SAV 03822 03-08-00 80 46 63 0 2 0 4.4 15 56 51
SAV 03822 03-09-00 82 56 69 4 0 0 6.2 15 60 54
SAV 03822 03-10-00 80 54 67 2 0 0 5.8 15 62 58
SAV 03822 03-11-00 82 59 71 6 0 0.08 6.6 20 64 61
SAV 03822 03-12-00 65 43 54 0 11 10.4 21 46 37
SAV 03822 03-13-00 63 38 0 6 16 43 36
SAV 03822 03-14-00 68 40 54 0 11 0 5.4 16 46 39
SAV 03822 03-15-00 74 39 57 0 8 0 6.5 16 52 46
SAV 03822 03-16-00 76 58 67 2 0 0.48 8.5 28 65 64
SAV 03822 03-17-00 78 60 69 4 0 0 7.2 20 62 58
SAV 03822 03-18-00 63 52 58 0 7 0 14.5 23 48 42
SAV 03822 03-19-00 65 54 60 0 5 0.12 11.6 20 57 56
SAV 03822 03-20-00 78 52 65 0 0 1.97 6.9 21 61 57
SAV 03822 03-21-00 75 46 61 0 4 0 4.7 16 56 52
SAV 03822 03-22-00 74 49 62 0 3 0 6.8 16 55 50
SAV 03822 03-23-00 64 49 57 0 8 0 7.2 17 52 49
SAV 03822 03-24-00 74 45 60 0 5 0 4.8 14 51 46
SAV 03822 03-25-00 80 43 62 0 3 0 3.6 14 55 50
SAV 03822 03-26-00 81 60 6 11 62 57
SAV 03822 03-27-00 74 58 66 1 0 0.13 6.5 16 62 60
SAV 03822 03-28-00 76 45 61 0 4 0 8 17 53 44
SAV 03822 03-29-00 52 67 2 0 0 5.5 14 57 51
SAV 03822 03-30-00 67 60 64 0 1 0.83 3.8 16 62 61
SAV 03822 03-31-00 73 53 63 0 2 0 4.9 15 60 58
SAV 03822 04-01-00 74 50 62 0 3 0 8.5 20 58 54
SAV 03822 04-02-00 77 56 67 2 0 0 9.3 21 64 61
SAV 03822 04-03-00 78 61 70 5 0 0 10.2 22 66 64
SAV 03822 04-04-00 71 51 61 0 4 0.01 10 20 57 51
SAV 03822 04-05-00 66 40 53 0 12 0 6.3 14 44 33
SAV 03822 04-06-00 78 41 60 0 5 0 6.5 14 52 45
SAV 03822 04-07-00 80 47 64 0 1 0 6.3 17 57 52
SAV 03822 04-08-00 78 44 61 0 4 0.18 9.6 29 56 53
SAV 03822 04-09-00 65 36 0 5.6 15 42 33
SAV 03822 04-10-00 71 36 54 0 11 0 4.6 15 48 41
SAV 03822 04-11-00 77 45 61 0 4 0 5.6 18 57 54
SAV 03822 04-12-00 82 56 69 4 0 0 3.5 13 62 59
SAV 03822 04-13-00 67 50 59 0 6 0.81 9.7 20 56 56
SAV 03822 04-14-00 56 47 52 0 13 0.42 8.7 18 51 51
SAV 03822 04-15-00 72 56 64 0 1 0.02 4.4 10 60 59
SAV 03822 04-16-00 83 57 70 5 0 0 5.2 14 63 60
SAV 03822 04-17-00 84 61 0.01 5.1 15 65 61
SAV 03822 04-18-00 76 54 65 0 0 0 7.9 22 57 51
SAV 03822 04-19-00 79 53 66 1 0 0 6.1 16 59 55
SAV 03822 04-20-00 80 51 66 1 0 0 6.9 20 62 60
SAV 03822 04-21-00 59 72 7 0 0 10 21 62 56
SAV 03822 04-22-00 72 49 61 0 4 0 8.1 22 52 45
SAV 03822 04-23-00 73 45 59 0 6 0 3.1 13 55 50
SAV 03822 04-24-00 76 57 67 2 0 1.2 6.5 20 63 62
SAV 03822 04-25-00 70 57 64 0 1 0 9 18 59 56
SAV 03822 04-26-00 70 51 61 0 4 0 4.9 11 55 52
SAV 03822 04-27-00 78 48 63 0 2 0 4.6 15 55 49
SAV 03822 04-28-00 78 56 67 2 0 0.18 7.2 20 59 54
SAV 03822 04-29-00 78 48 63 0 2 0 3.5 15 57 53
SAV 03822 04-30-00 79 50 65 0 0 0 4.9 15 57 51
SAV 03822 05-01-00 79 48 0 5 16 58 54
SAV 03822 05-02-00 82 56 69 4 0 0 4.7 15 64 61
SAV 03822 05-03-00 83 60 72 7 0 0 4.3 13 66 62
SAV 03822 05-04-00 79 63 71 6 0 0 7.7 17 66 62
SAV 03822 05-05-00 81 60 71 6 0 0 4.8 15 65 63
SAV 03822 05-06-00 83 57 70 5 0 0 3.7 15 63 59
SAV 03822 05-07-00 85 53 69 4 0 0 4.3 15 62 58
SAV 03822 05-08-00 84 54 69 4 0 0 4.9 16 63 59
SAV 03822 05-09-00 89 59 74 9 0 0 5.8 16 67 62
SAV 03822 05-10-00 88 66 77 12 0 0 6.3 15 69 64
SAV 03822 05-11-00 91 65 78 13 0 0 5.4 15 69 63
SAV 03822 05-12-00 93 66 80 15 0 0 5.2 13 72 67
SAV 03822 05-13-00 92 68 80 15 0 0 5.7 14 72 68
SAV 03822 05-14-00 87 67 77 12 0 0 4.6 14 70 66
SAV 03822 05-15-00 80 66 73 8 0 0 8.7 22 64 58
SAV 03822 05-16-00 80 60 70 5 0 0 7.2 16 63 58
SAV 03822 05-17-00 86 57 72 7 0 0 5.7 20 65 62
SAV 03822 05-18-00 87 65 76 11 0 0 7 17 69 65
SAV 03822 05-19-00 91 64 78 13 0 0 5.3 18 69 66
SAV 03822 05-20-00 94 64 79 14 0 0 6.6 17 69 64
SAV 03822 05-21-00 88 71 80 15 0 0 6.8 13 70 65
SAV 03822 05-22-00 81 69 75 10 0 0.25 5.2 15 69 67
SAV 03822 05-23-00 91 65 78 13 0 0 4.9 14 69 65
SAV 03822 05-24-00 92 71 82 17 0 0 7.2 15 73 68
SAV 03822 05-25-00 95 74 0 6.9 15 76 72
SAV 03822 05-26-00 91 72 82 17 0 0.71 4 25 75 73
SAV 03822 05-27-00 70 83 18 0 0 4.6 11 75 71
SAV 03822 05-28-00 95 72 84 19 0 6.8 16 75 71
SAV 03822 05-29-00 87 68 78 13 0 9.2 18 67 61
SAV 03822 05-30-00 82 58 70 5 0 0 9.6 20 60 54
SAV 03822 05-31-00 85 61 73 8 0 0 6.9 14 64 59
SAV 03822 06-01-00 91 59 75 10 0 0 3.8 14 67 62
SAV 03822 06-02-00 97 65 81 16 0 0 5.8 14 71 67
SAV 03822 06-03-00 67 0 4.6 15 72 67
SAV 03822 06-04-00 95 69 82 17 0 1.4 5.8 29 73 71
SAV 03822 06-05-00 86 71 79 14 0 1.75 4.3 17 73 72
SAV 03822 06-06-00 87 68 78 13 0 0 8.4 17 69 63
SAV 03822 06-07-00 80 62 0 8.5 18 62 56
SAV 03822 06-08-00 83 60 72 7 0 0 6.8 17 66 62
SAV 03822 06-09-00 86 61 74 9 0 0 4.7 16 66 61
SAV 03822 06-10-00 87 60 74 9 0 0 5.1 17 67 64
SAV 03822 06-11-00 88 62 75 10 0 0 4.7 15 69 65
SAV 03822 06-12-00 90 67 79 14 0 0 5 15 73 71
SAV 03822 06-13-00 93 69 81 16 0 0 4.5 16 75 73
SAV 03822 06-14-00 93 72 83 18 0 0.01 3.9 22 75 74
SAV 03822 06-15-00 91 70 81 16 0 0 5.5 20 75 73
SAV 03822 06-16-00 90 70 80 15 0 0.17 5.5 16 75 73
SAV 03822 06-17-00 91 72 82 17 0 0.02 5.4 17 76 74
SAV 03822 06-18-00 93 73 83 18 0 0 3.7 14 75 73
SAV 03822 06-19-00 93 70 82 17 0 0.87 3.4 15 74 72
SAV 03822 06-20-00 92 73 83 18 0 0.23 2.9 16 75 74
SAV 03822 06-21-00 89 72 81 16 0 0 4.1 17 76 74
SAV 03822 06-22-00 90 72 81 16 0 0.16 4.6 11 74 73
SAV 03822 06-23-00 92 71 82 17 0 0 4.6 15 74 72
SAV 03822 06-24-00 91 68 80 15 0 0 4.1 15 74 71
SAV 03822 06-25-00 91 71 81 16 0 4.9 22 75 73
SAV 03822 06-26-00 91 73 82 17 0 0 7.6 21 75 72
SAV 03822 06-27-00 88 70 79 14 0 0.27 3.2 18 74 73
SAV 03822 06-28-00 91 69 80 15 0 0.44 4.7 18 74 72
SAV 03822 06-29-00 89 72 81 16 0 0.15 5.5 13 75 74
SAV 03822 06-30-00 89 68 79 14 0 0 5.7 15 72 69
SAV 03822 07-01-00 90 66 78 13 0 0 4 11 69 65
SAV 03822 07-02-00 88 66 0 4.6 15 70 66
SAV 03822 07-03-00 90 65 78 13 0 0 4.3 15 69 65
SAV 03822 07-04-00 90 65 78 13 0 0 4.3 15 71 68
SAV 03822 07-05-00 96 71 84 19 0 0 4 11 75 71
SAV 03822 07-06-00 98 75 87 22 0 0.01 4.5 18 76 72
SAV 03822 07-07-00 92 75 84 19 0 0.28 6.9 17 77 75
SAV 03822 07-08-00 90 73 82 17 0 8.9 20 75 72
SAV 03822 07-09-00 91 68 80 15 0 0 0 71 67
SAV 03822 07-11-00 97 74 86 21 0 0.32 5.4 22 75 71
SAV 03822 07-12-00 93 72 83 18 0 0 5.9 17 75 73
SAV 03822 07-13-00 96 72 84 19 0 0.53 3.1 16 75 73
SAV 03822 07-14-00 91 73 82 17 0 0.02 3.6 13 77 75
SAV 03822 07-15-00 97 71 84 19 0 0 4.9 15 73 68
SAV 03822 07-16-00 98 69 84 19 0 0 4.2 13 73 68
SAV 03822 07-17-00 98 73 86 21 0 0 4.8 14 73 68
SAV 03822 07-18-00 94 71 83 18 0 0 3.5 14 75 72
SAV 03822 07-19-00 98 73 86 21 0 0 6.2 17 76 73
SAV 03822 07-20-00 77 0 5.1 14 76 70
SAV 03822 07-21-00 100 71 86 21 0 0 5.9 15 73 67
SAV 03822 07-22-00 99 71 85 20 0 0.19 0 22 74 71
SAV 03822 07-23-00 91 71 81 16 0 0.62 5.7 20 74 72
SAV 03822 07-24-00 89 70 80 15 0 0.53 3.5 18 73 72
SAV 03822 07-25-00 89 70 80 15 0 0 4.1 16 73 71
SAV 03822 07-26-00 90 70 80 15 0 0.3 9 73 71
SAV 03822 07-27-00 90 71 81 16 0 0.03 1.2 7 75 73
SAV 03822 07-28-00 90 69 80 15 0 2.3 11 74 71
SAV 03822 07-29-00 90 69 80 15 0 0.6 2.1 11 73 72
SAV 03822 07-30-00 89 70 80 15 0 0.25 3.8 18 75 73
SAV 03822 07-31-00 90 70 80 15 0 6.6 18 74 71
SAV 03822 08-01-00 89 71 80 15 0 0.11 5.8 20 75 73
SAV 03822 08-02-00 92 71 82 17 0 4.2 17 74 72
SAV 03822 08-03-00 90 71 81 16 0 0.02 3.4 16 75 73
SAV 03822 08-04-00 88 71 80 15 0 0.38 3.8 15 74 73
SAV 03822 08-05-00 93 69 81 16 0 0 3.5 9 75 73
SAV 03822 08-06-00 93 72 83 18 0 0 5.2 14 77 74
SAV 03822 08-07-00 94 73 84 19 0 0 5.3 16 76 74
SAV 03822 08-08-00 96 76 86 21 0 4.8 14 77 74
SAV 03822 08-09-00 97 75 86 21 0 2.8 13 76 74
SAV 03822 08-10-00 95 72 84 19 0 0.58 4.3 36 74 72
SAV 03822 08-11-00 95 71 83 18 0 0.99 3.8 22 74 73
SAV 03822 08-12-00 91 71 81 16 0 0.13 4.4 18 74 71
SAV 03822 08-13-00 91 68 80 15 0 0 3 14 71 68
SAV 03822 08-14-00 89 69 79 14 0 0 2.9 13 72 68
SAV 03822 08-15-00 93 68 81 16 0 0 2.2 10 72 68
SAV 03822 08-16-00 93 69 81 16 0 0 3.2 9 73 69
SAV 03822 08-17-00 97 72 85 20 0 0 5.1 13 75 72
SAV 03822 08-18-00 75 0 6 14 76 72
SAV 03822 08-19-00 93 73 83 18 0 0 4.7 22 76 73
SAV 03822 08-20-00 87 73 80 15 0 0 8 16 73 70
SAV 03822 08-21-00 84 68 76 11 0 0 8.4 17 69 65
SAV 03822 08-22-00 86 66 0 8.2 16 71 68
SAV 03822 08-23-00 89 70 80 15 0 0.06 4.1 11 73 71
SAV 03822 08-24-00 93 68 81 16 0 0 4.4 14 74 71
SAV 03822 08-25-00 88 72 80 15 0 4.2 21 73 71
SAV 03822 08-26-00 91 68 80 15 0 0 3.4 14 74 71
SAV 03822 08-27-00 93 71 82 17 0 0.38 3.6 20 74 72
SAV 03822 08-28-00 92 69 81 16 0 3.2 11 74 72
SAV 03822 08-29-00 88 71 80 15 0 10.1 18 73 71
SAV 03822 08-30-00 85 70 78 13 0 0 10.2 18 72 70
SAV 03822 08-31-00 89 67 78 13 0 0 2.6 14 72 70
SAV 03822 09-01-00 90 71 81 16 0 0.05 3.5 18 75 74
SAV 03822 09-02-00 86 73 80 15 0 0.05 4 15 75 74
SAV 03822 09-03-00 88 72 80 15 0 0.76 3.3 15 74 73
SAV 03822 09-04-00 83 72 78 13 0 2.74 2.1 17 74 73
SAV 03822 09-05-00 80 70 75 10 0 0.7 6.1 20 74 73
SAV 03822 09-06-00 70 67 69 4 0 0.19 12.9 21 67 66
SAV 03822 09-07-00 78 68 73 8 0 0.07 10.8 18 70 69
SAV 03822 09-08-00 86 72 79 14 0 0.12 9.3 17 74 73
SAV 03822 09-09-00 85 70 78 13 0 0 7 14 72 70
SAV 03822 09-10-00 87 68 78 13 0 5.8 16 72 70
SAV 03822 09-11-00 86 67 77 12 0 0 5.3 14 71 68
SAV 03822 09-12-00 88 67 78 13 0 0.01 3.2 13 73 72
SAV 03822 09-13-00 91 71 81 16 0 0 2.4 9 73 71
SAV 03822 09-14-00 91 67 79 14 0 0 2.5 13 73 70
SAV 03822 09-15-00 72 82 17 0 0 5.3 13 73 70
SAV 03822 09-16-00 80 66 73 8 0 0.01 9.4 18 62 56
SAV 03822 09-17-00 72 63 68 3 0 0.43 11.6 18 61 57
SAV 03822 09-18-00 74 64 69 4 0 0.49 10.7 23 67 66
SAV 03822 09-19-00 85 63 74 9 0 0 3.7 11 68 66
SAV 03822 09-20-00 85 66 76 11 0 0.21 3.6 14 74 73
SAV 03822 09-21-00 87 72 80 15 0 0.17 3.5 16 76 75
SAV 03822 09-22-00 84 75 80 15 0 0.84 5.4 25 77 77
SAV 03822 09-23-00 87 74 81 16 0 0.06 7 16 76 75
SAV 03822 09-24-00 91 72 82 17 0 0.55 4.9 25 75 74
SAV 03822 09-25-00 90 73 0 5.8 13 76 74
SAV 03822 09-26-00 78 63 71 6 0 0 8.6 15 64 60
SAV 03822 09-27-00 75 53 0 8.5 16 54 44
SAV 03822 09-28-00 77 53 65 0 0 0 6.9 14 60 56
SAV 03822 09-29-00 80 59 70 5 0 0 12.8 21 64 60
SAV 03822 09-30-00 77 64 71 6 0 0 12.9 23 65 63
SAV 03822 10-01-00 82 58 70 5 0 0 9.9 21 62 58
SAV 03822 10-02-00 80 55 68 3 0 0 3.7 14 62 59
SAV 03822 10-03-00 82 54 68 3 0 0 3.3 13 62 59
SAV 03822 10-04-00 82 59 71 6 0 5.9 15 70 69
SAV 03822 10-05-00 86 68 77 12 0 0 2.8 8 72 71
SAV 03822 10-06-00 66 4.5 22 72 70
SAV 03822 10-07-00 75 68 72 7 0 0 7.3 16 67 64
SAV 03822 10-08-00 68 46 57 0 8 0 9.5 18 53 48
SAV 03822 10-09-00 61 40 51 0 14 0 9.5 21 42 35
SAV 03822 10-10-00 65 36 0 4 14 44 39
SAV 03822 10-11-00 74 40 57 0 8 0 1.7 9 48 43
SAV 03822 10-12-00 77 40 59 0 6 0 3 11 50 45
SAV 03822 10-13-00 78 43 61 0 4 0 3.3 13 52 46
SAV 03822 10-14-00 80 42 61 0 4 0 1.9 9 53 48
SAV 03822 10-15-00 83 43 63 0 2 0 0.7 9 0 0
SAV 03822 10-16-00 83 44 64 0 1 0 1.6 9 54 48
SAV 03822 10-17-00 83 48 66 1 0 0 1.6 10 57 53
SAV 03822 10-18-00 84 50 67 2 0 0 2.4 10 60 56
SAV 03822 10-19-00 79 55 67 2 0 0 6 11 64 61
SAV 03822 10-20-00 79 61 70 5 0 5.6 13 65 63
SAV 03822 10-21-00 80 55 68 3 0 0 4.2 10 62 60
SAV 03822 10-22-00 82 52 67 2 0 0 3.6 14 62 60
SAV 03822 10-23-00 79 54 67 2 0 0 9 20 60 56
SAV 03822 10-24-00 78 51 65 0 0 0 5.8 15 57 53
SAV 03822 10-25-00 78 49 64 0 1 0 5.9 15 57 52
SAV 03822 10-26-00 79 52 66 1 0 0 6.2 15 59 56
SAV 03822 10-27-00 80 51 66 1 0 0 5.3 16 59 56
SAV 03822 10-28-00 85 53 69 4 0 0 2 8 62 59
SAV 03822 10-29-00 73 51 62 0 3 0 5 17 60 58
SAV 03822 10-30-00 77 47 62 0 3 0 2.1 10 56 52
SAV 03822 10-31-00 78 44 61 0 4 0 2.3 9 55 53
SAV 03822 11-01-00 78 42 60 0 5 0 1.8 10 53 49
SAV 03822 11-02-00 81 44 63 0 2 0 1.7 10 57 55
SAV 03822 11-03-00 81 51 66 1 0 0 2 9 61 59
SAV 03822 11-04-00 82 53 68 3 0 3.5 17 63 61
SAV 03822 11-05-00 70 50 60 0 5 0.02 3.9 16 61 60
SAV 03822 11-06-00 74 50 62 0 3 6.9 16 62 61
SAV 03822 11-07-00 83 61 72 7 0 0 5.4 14 68 66
SAV 03822 11-08-00 59 71 6 0 0 5.7 17 67 66
SAV 03822 11-09-00 81 68 9 20 70 68
SAV 03822 11-10-00 71 52 62 0 3 0 7.9 16 57 52
SAV 03822 11-11-00 68 39 54 0 11 0 5.3 17 46 40
SAV 03822 11-12-00 69 34 52 0 13 0 2.1 8 45 41
SAV 03822 11-13-00 68 40 54 0 11 0.01 0.8 7 52 50
SAV 03822 11-14-00 67 45 56 0 9 0.05 7.6 20 53 45
SAV 03822 11-15-00 62 34 48 0 17 0 3.7 10 40 33
SAV 03822 11-16-00 68 34 51 0 14 0.02 3.3 10 49 45
SAV 03822 11-17-00 60 50 55 0 10 0.11 4.4 11 53 51
SAV 03822 11-18-00 56 43 50 0 15 0.21 5.9 15 45 41
SAV 03822 11-19-00 44 41 43 0 22 0.76 9.8 18 43 43
SAV 03822 11-20-00 59 39 49 0 16 0 8.4 16 43 39
SAV 03822 11-21-00 50 28 39 0 26 0 7.6 22 34 24
SAV 03822 11-22-00 55 23 0 3.5 11 32 23
SAV 03822 11-23-00 60 31 46 0 19 0 2.7 11 40 32
SAV 03822 11-24-00 66 33 50 0 15 0.05 7.9 20 49 47
SAV 03822 11-25-00 73 59 66 1 0 0.54 8.4 16 65 65
SAV 03822 11-26-00 65 48 57 0 8 0 5.3 11 53 50
SAV 03822 11-27-00 65 38 52 0 13 0 5.3 13 47 42
SAV 03822 11-28-00 67 33 50 0 15 0 3.4 10 45 39
SAV 03822 11-29-00 68 44 56 0 9 0 3.2 9 49 43
SAV 03822 11-30-00 62 34 48 0 17 0 3.4 11 42 35
SAV 03822 12-01-00 64 30 47 0 18 0 4.9 11 44 41
SAV 03822 12-02-00 58 41 50 0 15 0.03 7.9 16 46 44
SAV 03822 12-03-00 44 31 38 0 27 0.01 11.3 20 38 35
SAV 03822 12-04-00 51 26 39 0 26 0 5.7 14 31 24
SAV 03822 12-05-00 60 21 41 0 24 0 3 14 33 26
SAV 03822 12-06-00 54 24 39 0 26 0 3.1 11 35 30
SAV 03822 12-07-00 61 29 45 0 20 0 3.6 13 38 33
SAV 03822 12-08-00 70 31 51 0 14 0 3.6 16 43 34
SAV 03822 12-09-00 58 47 53 0 12 0.59 6.1 13 48 45
SAV 03822 12-10-00 50 47 49 0 16 0.22 6.9 13 48 48
SAV 03822 12-11-00 57 47 52 0 13 4 10 51 51
SAV 03822 12-12-00 71 46 59 0 6 0 6.6 13 55 51
SAV 03822 12-13-00 50 41 46 0 19 0 9.8 15 42 37
SAV 03822 12-14-00 47 61 0 4 0.07 3.2 17 59 58
SAV 03822 12-15-00 60 50 55 0 10 0.05 7.4 11 52 52
SAV 03822 12-16-00 72 50 7.8 22 60 59
SAV 03822 12-17-00 69 31 50 0 15 0.06 10.9 29 44 35
SAV 03822 12-18-00 53 23 38 0 27 0 2.3 10 31 24
SAV 03822 12-19-00 41 27 34 0 31 0.15 6.6 17 33 31
SAV 03822 12-20-00 40 21 31 0 34 0 5.5 17 24 14
SAV 03822 12-21-00 53 19 36 0 29 0 2 9 31 25
SAV 03822 12-22-00 51 32 42 0 23 0 7.9 16 35 24
SAV 03822 12-23-00 46 27 37 0 28 0 9.6 15 29 17
SAV 03822 12-24-00 56 26 41 0 24 0 5 13 31 19
SAV 03822 12-25-00 50 26 38 0 27 0 9.1 20 30 16
SAV 03822 12-26-00 48 28 38 0 27 0 8.1 16 30 16
SAV 03822 12-27-00 59 34 47 0 18 0.06 4 9 42 36
SAV 03822 12-28-00 47 34 41 0 24 1.58 10.7 29 42 42
SAV 03822 12-29-00 47 28 38 0 27 0 5.9 20 33 29
SAV 03822 12-30-00 38 26 32 0 33 0 9.2 21 28 19
SAV 03822 12-31-00 42 20 0 5.6 14 25 16
SAV 03822 01-01-01 47 19 33 0 32 0 4.3 13 29 22
SAV 03822 01-02-01 45 19 32 0 33 0 4.5 15 27 20
SAV 03822 01-03-01 43 18 0 2.7 9 25 17
SAV 03822 01-04-01 50 17 34 0 31 0 4.9 13 27 18
SAV 03822 01-05-01 59 24 42 0 23 0 7.4 17 36 27
SAV 03822 01-06-01 57 30 44 0 21 0 5.3 11 38 30
SAV 03822 01-07-01 63 25 44 0 21 0 2.4 10 37 31
SAV 03822 01-08-01 63 36 50 0 15 0.3 7 18 48 46
SAV 03822 01-09-01 40 30 35 0 30 7.9 18 31 28
SAV 03822 01-10-01 55 22 39 0 26 0 2.4 7 31 21
SAV 03822 01-11-01 61 24 43 0 22 0.12 2.3 9 39 35
SAV 03822 01-12-01 59 45 52 0 13 0.01 6.8 20 48 48
SAV 03822 01-13-01 63 39 51 0 14 0 7.4 15 48 45
SAV 03822 01-14-01 66 48 57 0 8 0 4.2 11 53 50
SAV 03822 01-15-01 70 44 57 0 8 0 2.9 11 53 51
SAV 03822 01-16-01 67 51 59 0 6 3.7 10 52 46
SAV 03822 01-17-01 57 49 53 0 12 5.8 10 50 48
SAV 03822 01-18-01 72 53 63 0 2 0 4.8 13 58 56
SAV 03822 01-19-01 55 0 8.5 20 61 59
SAV 03822 01-20-01 64 35 50 0 15 0.2 9.9 21 46 41
SAV 03822 01-21-01 50 28 39 0 26 0 4.2 14 32 23
SAV 03822 01-22-01 55 30 43 0 22 0.24 8.7 21 0 0
SAV 03822 01-23-01 57 32 45 0 20 0.72 11 18 38 30
SAV 03822 01-24-01 60 31 46 0 19 0 4.5 16 38 29
SAV 03822 01-25-01 53 26 40 0 25 0 10.2 23 35 23
SAV 03822 01-26-01 53 22 38 0 27 0 3.7 11 32 24
SAV 03822 01-27-01 69 38 54 0 11 0 6.3 17 46 39
SAV 03822 01-28-01 65 29 47 0 18 0 2.6 13 40 34
SAV 03822 01-29-01 67 33 50 0 15 0 5.8 14 47 43
SAV 03822 01-30-01 66 54 60 0 5 0.12 7.8 17 57 54
SAV 03822 01-31-01 67 51 59 0 6 0.01 6.7 15 54 51
SAV 03822 02-01-01 56 49 53 0 12 2.4 8 50 46
SAV 03822 02-02-01 51 45 48 0 17 4.2 13 43 37
SAV 03822 02-03-01 52 35 0 4.6 10 40 33
SAV 03822 02-04-01 49 41 45 0 20 0.28 5.6 14 44 42
SAV 03822 02-05-01 63 41 52 0 13 0 6.2 15 44 37
SAV 03822 02-06-01 65 29 47 0 18 0 2.7 11 40 33
SAV 03822 02-07-01 70 31 51 0 14 0 2.3 14 43 36
SAV 03822 02-08-01 72 37 55 0 10 0 4 16 48 44
SAV 03822 02-09-01 75 42 59 0 6 0 6.6 21 55 52
SAV 03822 02-10-01 65 45 55 0 10 0.06 6.5 16 58 57
SAV 03822 02-11-01 61 40 51 0 14 0 9.5 18 47 42
SAV 03822 02-12-01 51 41 46 0 19 0.02 9.5 18 43 41
SAV 03822 02-13-01 58 42 50 0 15 0 4.4 9 48 46
SAV 03822 02-14-01 72 51 62 0 3 0 3.7 9 58 57
SAV 03822 02-15-01 82 53 68 3 0 0 6.2 17 63 60
SAV 03822 02-16-01 79 57 68 3 0 0 7.2 16 63 61
SAV 03822 02-17-01 70 47 59 0 6 0.03 10.3 20 54 47
SAV 03822 02-18-01 59 38 49 0 16 0 7.7 15 40 29
SAV 03822 02-19-01 63 38 51 0 14 0 6 15 46 42
SAV 03822 02-20-01 74 41 58 0 7 0 4 11 54 50
SAV 03822 02-21-01 78 58 68 3 0 4.6 10 60 56
SAV 03822 02-22-01 70 47 59 0 6 0.11 6.3 14 58 57
SAV 03822 02-23-01 62 43 53 0 12 0 7.6 14 47 44
SAV 03822 02-24-01 72 50 61 0 4 9.6 22 57 53
SAV 03822 02-25-01 80 62 0.27 7.3 17 66 65
SAV 03822 02-26-01 52 67 2 0 0 3.6 14 61 56
SAV 03822 02-27-01 73 50 62 0 3 0 7.3 16 58 55
SAV 03822 02-28-01 71 55 63 0 2 4.1 18 59 55
SAV 03822 03-01-01 75 51 63 0 2 0 3.9 13 55 48
SAV 03822 03-02-01 83 52 68 3 0 0.24 6 20 62 59
SAV 03822 03-03-01 81 63 72 7 0 0.49 7.6 21 66 64
SAV 03822 03-04-01 75 55 65 0 0 0.39 10.4 22 62 59
SAV 03822 03-05-01 59 48 54 0 11 0 12.9 22 44 32
SAV 03822 03-06-01 54 39 47 0 18 0 13.9 31 36 20
SAV 03822 03-07-01 59 27 0 5.9 16 36 24
SAV 03822 03-08-01 64 31 48 0 17 0 5 15 40 33
SAV 03822 03-09-01 65 44 55 0 10 0.02 4.5 11 49 43
SAV 03822 03-10-01 60 36 48 0 17 0 6.9 17 41 33
SAV 03822 03-11-01 71 35 53 0 12 0 4.3 11 51 48
SAV 03822 03-12-01 69 57 63 0 2 0.72 4.8 15 61 60
SAV 03822 03-13-01 80 63 0.13 9.4 20 61 55
SAV 03822 03-14-01 76 47 62 0 3 0.22 5.9 14 51 40
SAV 03822 03-15-01 76 53 65 0 0 1.03 8.6 28 63 62
SAV 03822 03-16-01 82 54 68 3 0 0 6.6 18 61 54
SAV 03822 03-17-01 68 47 58 0 7 0 6.4 13 50 41
SAV 03822 03-18-01 58 49 54 0 11 0.02 8 18 46 40
SAV 03822 03-22-01 71 41 56 0 9 0 15 0 41
SAV 03822 03-23-01 72 43 58 0 7 0 5.6 14 48 39
SAV 03822 03-24-01 41 59 0 6 0 5.3 16 51 44
SAV 03822 03-25-01 61 51 56 0 9 0.13 4.8 13 55 53
SAV 03822 03-26-01 62 36 49 0 16 0 6.9 15 42 30
SAV 03822 03-27-01 61 34 48 0 17 0 5.2 15 41 32
SAV 03822 03-28-01 60 40 50 0 15 0.15 9.8 21 46 41
SAV 03822 03-29-01 73 50 62 0 3 1.17 10.8 43 58 57
SAV 03822 03-30-01 71 58 65 0 0 4.7 10 61 59
SAV 03822 03-31-01 74 52 63 0 2 0 5.1 17 58 55
SAV 03822 04-01-01 69 44 57 0 8 0 10.9 30 49 37
SAV 03822 04-02-01 71 37 54 0 11 0 3.9 16 45 35
SAV 03822 04-03-01 68 45 57 0 8 0.07 3.9 16 55 53
SAV 03822 04-04-01 70 54 62 0 3 0 5.1 18 58 56
SAV 03822 04-05-01 68 52 60 0 5 0 7.4 13 56 53
SAV 03822 04-06-01 79 52 66 1 0 0 6.3 16 62 58
SAV 03822 04-07-01 85 59 72 7 0 0 5.7 14 65 61
SAV 03822 04-08-01 87 59 73 8 0 0 5.2 13 65 61
SAV 03822 04-09-01 88 61 75 10 0 0 5.4 13 66 61
SAV 03822 04-10-01 89 58 74 9 0 0 5.4 18 66 62
SAV 03822 04-11-01 86 64 75 10 0 0 7.7 17 67 62
SAV 03822 04-12-01 88 67 78 13 0 0 6.6 15 69 65
SAV 03822 04-13-01 66 0.04 7.2 24 69 65
SAV 03822 04-14-01 84 61 73 8 0 0 5.2 2 65 60
SAV 03822 04-15-01 80 60 70 5 0 0.02 4.8 14 65 62
SAV 03822 04-16-01 80 55 68 3 0 0 9.3 6 60 53
SAV 03822 04-17-01 71 42 57 0 8 0 9 23 47 35
SAV 03822 04-18-01 64 36 0 6.3 14 41 30
SAV 03822 04-19-01 71 36 54 0 11 0 3.9 15 45 35
SAV 03822 04-20-01 77 42 60 0 5 0 6 16 54 47
SAV 03822 04-21-01 77 53 65 0 0 0 5.3 16 59 54
SAV 03822 04-22-01 79 52 66 1 0 0 4.9 16 60 56
SAV 03822 04-23-01 80 53 67 2 0 0 5.5 15 62 58
SAV 03822 04-24-01 84 57 71 6 0 0 6.1 18 65 62
SAV 03822 04-25-01 70 54 62 0 3 0.58 8.2 22 59 58
SAV 03822 04-26-01 71 46 59 0 6 0 9.8 20 51 44
SAV 03822 04-27-01 78 42 60 0 5 0 3.8 17 52 44
SAV 03822 04-28-01 83 48 66 1 0 0 4.6 15 57 51
SAV 03822 04-29-01 77 54 66 1 0 0 8.4 20 61 58
SAV 03822 04-30-01 76 56 66 1 0 0 8.2 17 60 54
SAV 03822 05-01-01 78 53 66 1 0 0 5.6 15 59 54
SAV 03822 05-02-01 77 54 0 7.2 16 61 56
SAV 03822 05-03-01 78 57 68 3 0 0 6.5 17 61 57
SAV 03822 05-04-01 81 55 68 3 0 0 5.4 14 62 59
SAV 03822 05-05-01 84 56 70 5 0 0 4.3 16 60 54
SAV 03822 05-06-01 85 55 70 5 0 0 7 18 63 58
SAV 03822 05-07-01 77 63 70 5 0 0 11.7 20 61 56
SAV 03822 05-08-01 79 58 69 4 0 0 8 18 61 55
SAV 03822 05-09-01 79 54 67 2 0 0 3.8 14 60 55
SAV 03822 05-10-01 82 54 68 3 0 0 3.7 14 61 56
SAV 03822 05-11-01 85 57 71 6 0 0 4.8 17 64 60
SAV 03822 05-12-01 85 59 72 7 0 5.6 16 66 63
SAV 03822 05-13-01 87 63 75 10 0 0 5.8 18 66 62
SAV 03822 05-14-01 82 59 71 6 0 0 3.8 14 65 62
SAV 03822 05-15-01 90 56 73 8 0 0 5 15 64 57
SAV 03822 05-16-01 94 63 79 14 0 0 7.1 18 66 59
SAV 03822 05-17-01 62 79 14 0 0 5.6 16 69 63
SAV 03822 05-18-01 94 65 80 15 0 0 5 14 70 65
SAV 03822 05-19-01 92 64 78 13 0 0 7.3 17 66 59
SAV 03822 05-20-01 85 67 76 11 0 7.2 17 69 66
SAV 03822 05-21-01 92 69 81 16 0 0 9.1 20 70 65
SAV 03822 05-22-01 91 71 81 16 0 0.03 7.4 17 72 67
SAV 03822 05-23-01 83 56 70 5 0 0.11 6.1 15 60 52
SAV 03822 05-24-01 90 51 71 6 0 0 6.1 21 61 53
SAV 03822 05-25-01 86 58 72 7 0 0.02 4 16 66 63
SAV 03822 05-26-01 86 62 74 9 0 5.5 17 65 60
SAV 03822 05-27-01 88 56 72 7 0 0 7 20 66 62
SAV 03822 05-28-01 91 66 79 14 0 0.06 6.4 21 70 65
SAV 03822 05-29-01 84 68 76 11 0 0.14 5 17 71 70
SAV 03822 05-30-01 86 64 75 10 0 0 5.9 15 70 68
SAV 03822 05-31-01 94 67 0 5.2 15 71 66
SAV 03822 06-01-01 87 72 80 15 0 6.8 18 72 69
SAV 03822 06-02-01 91 68 80 15 0 0 7.4 18 69 62
SAV 03822 06-03-01 67 80 15 0 0.72 7 30 71 68
SAV 03822 06-04-01 92 67 80 15 0 5.3 15 74 72
SAV 03822 06-05-01 93 70 82 17 0 0.01 4.1 18 75 72
SAV 03822 06-06-01 92 70 81 16 0 0.28 4.9 22 74 71
SAV 03822 06-07-01 91 72 82 17 0 0.21 3.9 22 74 72
SAV 03822 06-08-01 87 70 79 14 0 0.68 3.4 20 73 71
SAV 03822 06-09-01 80 70 75 10 0 0.12 4.4 16 72 72
SAV 03822 06-10-01 79 70 0.76 3 14 72 72
SAV 03822 06-11-01 84 71 78 13 0 0.2 4.5 13 73 72
SAV 03822 06-12-01 83 71 77 12 0 0.55 10.3 21 74 73
SAV 03822 06-13-01 90 71 81 16 0 0 7.5 26 73 70
SAV 03822 06-14-01 92 69 81 16 0 0.66 5.1 30 73 71
SAV 03822 06-15-01 89 68 79 14 0 0 4.9 16 73 70
SAV 03822 06-16-01 93 73 0 6.7 15 73 68
SAV 03822 06-17-01 85 71 78 13 0 0.05 5.2 16 73 72
SAV 03822 06-18-01 89 66 78 13 0 9.2 22 70 66
SAV 03822 06-19-01 86 70 78 13 0 0.25 6.9 20 72 71
SAV 03822 06-20-01 88 72 80 15 0 0.43 4.9 25 73 71
SAV 03822 06-21-01 88 69 79 14 0 0.74 2.2 28 72 71
SAV 03822 06-22-01 86 69 78 13 0 0.35 6.3 17 73 71
SAV 03822 06-23-01 85 68 77 12 0 0 2.8 12 72 71
SAV 03822 06-24-01 88 68 78 13 0 0 2.9 13 72 70
SAV 03822 06-25-01 86 69 78 13 0 0.06 4.2 22 74 73
SAV 03822 06-26-01 89 69 79 14 0 0 6.2 20 75 73
SAV 03822 06-27-01 87 71 79 14 0 0.02 3.6 14 76 74
SAV 03822 06-28-01 85 73 79 14 0 0.26 5 15 75 74
SAV 03822 06-29-01 85 72 79 14 0 0.06 4.9 13 75 74
SAV 03822 06-30-01 87 70 79 14 0 0 2.3 12 75 74
SAV 03822 07-01-01 91 71 81 16 0 0.24 2.3 15 75 74
SAV 03822 07-02-01 91 72 82 17 0 2.9 16 76 74
SAV 03822 07-03-01 90 71 81 16 0 0.43 4.6 15 75 73
SAV 03822 07-04-01 89 71 80 15 0 0.88 2.9 22 75 74
SAV 03822 07-05-01 90 73 82 17 0 0.45 5.9 13 76 74
SAV 03822 07-06-01 91 73 82 17 0 0 4.4 13 75 72
SAV 03822 07-07-01 92 72 82 17 0 0 4.8 16 76 73
SAV 03822 07-08-01 91 73 82 17 0 0 3.3 13 76 73
SAV 03822 07-09-01 75 85 20 0 0.31 4.4 35 78 75
SAV 03822 07-10-01 94 75 85 20 0 0 3.7 13 77 74
SAV 03822 07-11-01 93 76 85 20 0 0.03 4.8 13 77 75
SAV 03822 07-12-01 94 75 85 20 0 0.01 3.7 13 77 75
SAV 03822 07-13-01 90 74 82 17 0 0.1 4.6 13 75 74
SAV 03822 07-14-01 86 68 77 12 0 0 7 14 68 63
SAV 03822 07-15-01 85 67 0 3.7 14 68 64
SAV 03822 07-16-01 87 66 77 12 0 0 4 9 69 64
SAV 03822 07-17-01 88 67 78 13 0 0 5 15 70 66
SAV 03822 07-18-01 92 67 80 15 0 0 2.9 14 71 67
SAV 03822 07-19-01 94 71 83 18 0 0 3.3 14 74 71
SAV 03822 07-20-01 84 75 80 15 0 0.49 3.7 18 75 73
SAV 03822 07-21-01 84 73 79 14 0 0 10.6 22 73 71
SAV 03822 07-22-01 89 72 81 16 0 0.01 10.2 17 74 72
SAV 03822 07-23-01 85 74 80 15 0 0.57 6 21 76 76
SAV 03822 07-24-01 84 73 79 14 0 0.61 8 25 75 73
SAV 03822 07-25-01 87 71 79 14 0 0 5 15 76 75
SAV 03822 07-26-01 89 74 82 17 0 0.02 3 15 77 75
SAV 03822 07-27-01 91 72 82 17 0 0.03 3.4 14 76 74
SAV 03822 07-28-01 86 73 80 15 0 0.67 2 16 76 75
SAV 03822 07-29-01 92 72 82 17 0 0 4.1 10 76 74
SAV 03822 07-30-01 93 76 0 5.7 15 76 74
SAV 03822 07-31-01 87 73 80 15 0 0 9.1 18 74 71
SAV 03822 08-01-01 87 71 79 14 0 0 9.4 17 71 68
SAV 03822 08-02-01 87 70 79 14 0 0 8.3 17 70 67
SAV 03822 08-03-01 87 68 78 13 0 0 4.7 14 72 70
SAV 03822 08-04-01 88 67 0 2.7 12 73 70
SAV 03822 08-05-01 87 73 80 15 0 0.09 3.2 15 75 74
SAV 03822 08-06-01 89 72 81 16 0 0 3.4 10 76 75
SAV 03822 08-07-01 94 74 84 19 0 0 3.1 9 77 74
SAV 03822 08-08-01 94 74 84 19 0 0 4.6 13 77 74
SAV 03822 08-09-01 94 75 85 20 0 0.01 4.3 12 77 74
SAV 03822 08-10-01 94 76 85 20 0 0 5.8 13 77 75
SAV 03822 08-11-01 93 72 83 18 0 0.57 5.1 21 75 72
SAV 03822 08-12-01 90 72 81 16 0 0 4.7 20 76 74
SAV 03822 08-13-01 93 74 84 19 0 0 4.6 13 77 74
SAV 03822 08-14-01 85 73 79 14 0 0.04 3 10 76 75
SAV 03822 08-15-01 87 71 79 14 0 0 5.9 18 75 73
SAV 03822 08-16-01 89 74 82 17 0 0 5.8 15 77 75
SAV 03822 08-17-01 73 0.03 4.6 15 78 75
SAV 03822 08-18-01 95 71 83 18 0 1.33 6.7 17 77 75
SAV 03822 08-19-01 91 71 81 16 0 0.23 5.4 12 75 73
SAV 03822 08-20-01 90 73 82 17 0 0 5 17 76 73
SAV 03822 08-21-01 91 73 82 17 0 0 2.3 12 73 70
SAV 03822 08-22-01 90 71 81 16 0 0 6.1 15 73 69
SAV 03822 08-23-01 90 69 80 15 0 0 3.4 10 72 68
SAV 03822 08-24-01 93 69 81 16 0 0.2 3.8 15 73 70
SAV 03822 08-25-01 89 70 80 15 0 0 5.9 16 72 69
SAV 03822 08-26-01 90 69 80 15 0 0 2.5 12 72 69
SAV 03822 08-27-01 93 69 81 16 0 0 4 12 75 72
SAV 03822 08-28-01 94 73 84 19 0 0 4.2 14 75 71
SAV 03822 08-29-01 93 72 83 18 0 0 3.2 12 74 71
SAV 03822 08-30-01 91 74 83 18 0 0.03 2.8 16 76 73
SAV 03822 08-31-01 92 73 83 18 0 2.12 4.5 16 75 73
SAV 03822 09-01-01 88 72 80 15 0 0.04 3.5 13 74 73
SAV 03822 09-02-01 85 72 79 14 0 1.1 8 75 74
SAV 03822 09-03-01 89 70 80 15 0 0.84 3.1 20 74 72
SAV 03822 09-04-01 85 70 78 13 0 2.2 14 74 73
SAV 03822 09-05-01 87 73 80 15 0 0.47 1.7 15 75 74
SAV 03822 09-06-01 85 72 79 14 0 7.2 15 75 73
SAV 03822 09-07-01 86 71 79 14 0 0.11 7.3 15 74 72
SAV 03822 09-08-01 88 72 80 15 0 0.06 6.6 17 74 72
SAV 03822 09-09-01 80 73 77 12 0 1.01 3.5 16 75 74
SAV 03822 09-10-01 85 72 79 14 0 0.47 2.7 14 75 74
SAV 03822 09-11-01 85 72 79 14 0 0.52 4.9 20 74 73
SAV 03822 09-12-01 81 72 77 12 0 0.02 8.4 17 73 71
SAV 03822 09-13-01 83 71 77 12 0 11.2 18 71 69
SAV 03822 09-14-01 78 70 74 9 0 0.01 13.4 24 71 69
SAV 03822 09-15-01 75 62 69 4 0 18.5 31 62 59
SAV 03822 09-16-01 80 54 67 2 0 0 6 10 60 56
SAV 03822 09-17-01 82 56 69 4 0 0 2.3 10 62 59
SAV 03822 09-18-01 82 59 71 6 0 0 1.5 12 65 62
SAV 03822 09-19-01 84 60 72 7 0 0 3.2 14 67 64
SAV 03822 09-20-01 87 68 78 13 0 3.9 13 73 72
SAV 03822 09-21-01 72 0.48 2.9 24 75 74
SAV 03822 09-22-01 88 70 79 14 0 1.9 12 74 73
SAV 03822 09-23-01 83 71 77 12 0 0.05 4.1 14 74 73
SAV 03822 09-24-01 84 68 76 11 0 0.59 3 20 72 72
SAV 03822 09-25-01 77 58 68 3 0 0.05 4.1 13 64 62
SAV 03822 09-26-01 75 54 65 0 0 0 2.3 12 61 58
SAV 03822 09-27-01 80 58 69 4 0 0 3 10 63 60
SAV 03822 09-28-01 81 55 68 3 0 0 5.5 15 61 57
SAV 03822 09-29-01 70 58 64 0 1 0 11.7 22 55 49
SAV 03822 09-30-01 73 50 0 8.9 18 54 48
SAV 03822 10-01-01 74 46 60 0 5 0 3.6 13 53 47
SAV 03822 10-02-01 81 47 64 0 1 0 2.3 8 56 50
SAV 03822 10-03-01 83 51 67 2 0 0 3.2 14 57 50
SAV 03822 10-04-01 82 53 68 3 0 0 2.5 13 62 58
SAV 03822 10-05-01 82 59 71 6 0 3 12 66 64
SAV 03822 10-06-01 83 64 74 9 0 5.5 23 71 69
SAV 03822 10-07-01 72 49 61 0 4 0 9.1 23 53 46
SAV 03822 10-08-01 73 47 60 0 5 0 9.3 18 53 46
SAV 03822 10-09-01 76 54 65 0 0 0 12.3 21 57 52
SAV 03822 10-10-01 79 61 70 5 0 9.2 21 64 60
SAV 03822 10-11-01 81 61 71 6 0 6.8 18 66 63
SAV 03822 10-12-01 81 61 71 6 0 0 5.5 14 67 64
SAV 03822 10-13-01 82 68 75 10 0 0 8.9 17 68 64
SAV 03822 10-14-01 84 66 75 10 0 0.16 9.3 21 72 71
SAV 03822 10-15-01 78 54 66 1 0 0 5.6 16 58 53
SAV 03822 10-16-01 81 51 66 1 0 0 5 21 57 50
SAV 03822 10-17-01 66 41 54 0 11 0 4.7 15 45 36
SAV 03822 10-18-01 70 41 56 0 9 0 7.7 16 47 37
SAV 03822 10-19-01 78 50 64 0 1 0 5.8 13 54 44
SAV 03822 10-20-01 82 56 69 4 0 0 4 14 61 57
SAV 03822 10-21-01 83 55 69 4 0 0 5.6 16 66 64
SAV 03822 10-22-01 82 66 74 9 0 0 5 15 70 68
SAV 03822 10-23-01 85 66 0 1.8 9 70 69
SAV 03822 10-24-01 63 75 10 0 0 3.9 12 71 69
SAV 03822 10-25-01 87 60 74 9 0 0 7.1 18 65 56
SAV 03822 10-26-01 73 49 61 0 4 0 9.8 24 49 36
SAV 03822 10-27-01 61 33 0 8.2 17 39 26
SAV 03822 10-28-01 60 37 49 0 16 0 9.8 18 40 29
SAV 03822 10-29-01 65 36 51 0 14 0 4.1 12 42 33
SAV 03822 10-30-01 70 34 52 0 13 0 2.9 13 44 36
SAV 03822 10-31-01 77 41 59 0 6 0 7.1 17 57 53
SAV 03822 11-01-01 79 56 68 3 0 0 5.7 13 64 61
SAV 03822 11-02-01 78 58 68 3 0 0.11 5.7 17 66 64
SAV 03822 11-03-01 82 60 71 6 0 0 5 14 66 64
SAV 03822 11-04-01 79 60 70 5 0 0 7.1 16 61 57
SAV 03822 11-05-01 72 48 60 0 5 0 10.3 26 50 41
SAV 03822 11-06-01 66 37 0 4.2 14 42 33
SAV 03822 11-07-01 75 33 54 0 11 0 1.8 12 43 34
SAV 03822 11-08-01 78 37 58 0 7 0 3.8 12 51 45
SAV 03822 11-09-01 77 46 62 0 3 0 3.7 16 52 45
SAV 03822 11-10-01 77 43 60 0 5 0 1.7 8 51 46
SAV 03822 11-11-01 78 41 60 0 5 0 2.3 12 50 44
SAV 03822 11-12-01 70 47 59 0 6 0 8.3 18 53 49
SAV 03822 11-13-01 70 50 60 0 5 0 10.3 17 53 49
SAV 03822 11-14-01 66 52 59 0 6 11 16 55 52
SAV 03822 11-15-01 67 59 63 0 2 0.02 13.3 23 58 53
SAV 03822 11-16-01 77 50 64 0 1 0 10.2 21 55 49
SAV 03822 11-17-01 77 48 63 0 2 0 4 15 53 47
SAV 03822 11-18-01 71 46 59 0 6 0 5 14 52 47
SAV 03822 11-19-01 76 46 61 0 4 0 1.9 10 57 55
SAV 03822 11-20-01 77 47 62 0 3 0 4.6 15 56 52
SAV 03822 11-21-01 66 43 55 0 10 0 5.5 14 49 46
SAV 03822 11-22-01 70 42 56 0 9 0 5.1 13 53 51
SAV 03822 11-23-01 72 58 65 0 0 0.03 5.1 14 64 63
SAV 03822 11-24-01 79 58 69 4 0 0 5.8 18 67 65
SAV 03822 11-25-01 80 63 72 7 0 5 14 67 65
SAV 03822 11-26-01 59 71 6 0 0 3 14 66 64
SAV 03822 11-27-01 80 57 69 4 0 0 2.9 13 64 62
SAV 03822 11-28-01 79 52 66 1 0 0 4.6 18 62 60
SAV 03822 11-29-01 79 57 68 3 0 0 7.8 22 65 63
SAV 03822 11-30-01 79 65 0 7.1 17 66 63
SAV 03822 12-01-01 78 58 68 3 0 0 1.3 9 64 62
SAV 03822 12-02-01 76 50 63 0 2 0 2.8 14 55 51
SAV 03822 12-03-01 70 49 60 0 5 0 7 13 54 50
SAV 03822 12-04-01 73 42 58 0 7 0.01 4.2 13 55 52
SAV 03822 12-05-01 76 51 64 0 1 4.9 17 59 56
SAV 03822 12-06-01 77 51 64 0 1 0 3.7 14 60 58
SAV 03822 12-07-01 80 51 66 1 0 0 2.3 10 60 57
SAV 03822 12-08-01 77 53 65 0 0 0.17 2.6 14 64 63
SAV 03822 12-09-01 76 62 69 4 0 0 5 18 65 62
SAV 03822 12-10-01 64 51 58 0 7 0.16 9.7 17 55 54
SAV 03822 12-11-01 58 49 54 0 11 5.3 10 53 52
SAV 03822 12-12-01 65 55 60 0 5 5.1 10 59 58
SAV 03822 12-13-01 73 61 67 2 0 2 8 64 63
SAV 03822 12-14-01 63 0 5.4 13 68 67
SAV 03822 12-15-01 77 57 67 2 0 0 5.9 12 60 54
SAV 03822 12-16-01 70 51 61 0 4 0 9.9 16 57 54
SAV 03822 12-17-01 76 50 63 0 2 0.11 7.3 20 61 60
SAV 03822 12-18-01 68 42 55 0 10 0.01 6.6 16 53 49
SAV 03822 12-19-01 68 37 53 0 12 0 3.7 13 47 42
SAV 03822 12-20-01 60 36 48 0 17 0 7.2 16 44 37
SAV 03822 12-21-01 63 28 46 0 19 0 2.8 12 36 27
SAV 03822 12-22-01 63 30 47 0 18 0 5.2 16 43 39
SAV 03822 12-23-01 70 43 57 0 8 3.9 21 56 53
SAV 03822 12-24-01 64 38 51 0 14 0.04 6.8 17 46 36
SAV 03822 12-25-01 46 36 41 0 24 0 3.9 9 35 25
SAV 03822 12-26-01 49 30 40 0 25 0 6.8 10 31 16
SAV 03822 12-27-01 53 24 0 4.9 16 32 20
SAV 03822 12-28-01 63 27 45 0 20 0 3.2 14 38 28
SAV 03822 12-29-01 69 41 55 0 10 0 4.3 16 48 41
SAV 03822 12-30-01 56 30 43 0 22 0 3.5 12 38 29
SAV 03822 12-31-01 52 30 41 0 24 0 1.9 7 35 26
SAV 03822 01-01-02 54 29 42 0 23 0 4.7 13 35 23
SAV 03822 01-02-02 44 33 39 0 26 0.58 12.8 23 34 32
SAV 03822 01-03-02 34 31 0.01 8.5 18 32 31
SAV 03822 01-04-02 46 24 35 0 30 0 4.7 12 30 24
SAV 03822 01-05-02 55 19 37 0 28 0 1.4 10 32 26
SAV 03822 01-06-02 66 35 51 0 14 0.33 11.6 24 49 45
SAV 03822 01-07-02 50 36 43 0 22 0 9.3 21 37 29
SAV 03822 01-08-02 49 25 37 0 28 0 4.3 14 31 22
SAV 03822 01-09-02 63 28 46 0 19 0 5.2 15 38 27
SAV 03822 01-10-02 69 46 58 0 7 0 5.4 21 51 47
SAV 03822 01-11-02 71 49 60 0 5 0 4.5 17 56 53
SAV 03822 01-12-02 66 41 54 0 11 0.88 3.8 28 49 47
SAV 03822 01-13-02 62 38 50 0 15 0.1 4.9 17 43 37
SAV 03822 01-14-02 53 37 45 0 20 0.3 2 10 45 45
SAV 03822 01-15-02 64 34 49 0 16 0 4.4 14 44 40
SAV 03822 01-16-02 60 28 44 0 21 0 3.3 12 41 37
SAV 03822 01-17-02 64 35 50 0 15 0 2.2 13 43 38
SAV 03822 01-18-02 70 32 51 0 14 0 2.8 14 48 44
SAV 03822 01-19-02 76 53 65 0 0 0.04 8.3 24 58 54
SAV 03822 01-20-02 56 43 50 0 15 0.01 5.5 14 48 46
SAV 03822 01-21-02 66 43 55 0 10 0.05 2.4 21 54 53
SAV 03822 01-22-02 62 35 49 0 16 0 5.9 16 47 43
SAV 03822 01-23-02 52 67 2 0 0 5 14 63 61
SAV 03822 01-24-02 80 60 70 5 0 0 5.7 12 64 62
SAV 03822 01-25-02 69 52 61 0 4 0.07 8.6 22 58 56
SAV 03822 01-26-02 60 50 55 0 10 0 8 14 49 43
SAV 03822 01-27-02 66 55 61 0 4 0 2.3 7 55 52
SAV 03822 01-28-02 76 54 65 0 0 0.01 2.6 12 58 54
SAV 03822 01-29-02 80 51 66 1 0 0 2 13 60 58
SAV 03822 01-30-02 77 57 67 2 0 0 3.5 14 64 63
SAV 03822 01-31-02 80 61 0.01 4.8 16 66 65
SAV 03822 02-01-02 62 0 4.7 16 66 61
SAV 03822 02-02-02 67 46 57 0 8 6.9 16 50 42
SAV 03822 02-03-02 61 39 50 0 15 0 2.3 9 45 41
SAV 03822 02-04-02 58 41 50 0 15 0 11.3 26 40 26
SAV 03822 02-05-02 47 33 40 0 25 6.9 21 31 12
SAV 03822 02-06-02 63 38 51 0 14 0.21 8 18 44 38
SAV 03822 02-07-02 64 42 53 0 12 0.9 7.1 15 52 51
SAV 03822 02-08-02 63 36 50 0 15 0 3.4 10 42 37
SAV 03822 02-09-02 67 35 51 0 14 0 6.8 18 49 45
SAV 03822 02-10-02 74 52 63 0 2 0.17 2.6 13 60 59
SAV 03822 02-11-02 63 39 51 0 14 0 5.2 16 47 41
SAV 03822 02-12-02 66 33 50 0 15 0 0.6 10 43 36
SAV 03822 02-13-02 55 36 46 0 19 0 2.2 9 41 35
SAV 03822 02-14-02 63 39 51 0 14 0 6.4 16 44 37
SAV 03822 02-15-02 61 42 52 0 13 0.01 4.7 12 49 47
SAV 03822 02-16-02 71 42 57 0 8 0 4.4 14 48 41
SAV 03822 02-17-02 66 39 53 0 12 0 9 21 41 24
SAV 03822 02-18-02 58 31 45 0 20 0 7.5 18 36 22
SAV 03822 02-19-02 66 29 48 0 17 0 6 18 45 40
SAV 03822 02-20-02 74 47 61 0 4 0.15 7.8 26 57 54
SAV 03822 02-21-02 74 46 60 0 5 0.01 5.1 17 56 50
SAV 03822 02-22-02 68 42 55 0 10 0 1.5 7 49 44
SAV 03822 02-23-02 56 46 51 0 14 0.09 8.1 16 47 43
SAV 03822 02-24-02 64 36 50 0 15 0 5.6 17 42 33
SAV 03822 02-25-02 67 31 49 0 16 0 4.7 17 45 42
SAV 03822 02-26-02 75 43 59 0 6 6.3 16 54 49
SAV 03822 02-27-02 57 29 43 0 22 0 13.6 24 30 13
SAV 03822 02-28-02 51 20 0 5 14 28 14
SAV 03822 03-01-02 57 23 40 0 25 0 7.8 18 37 30
SAV 03822 03-02-02 68 51 60 0 5 2.56 10.4 28 60 59
SAV 03822 03-03-02 69 48 59 0 6 0.88 7.7 25 59 55
SAV 03822 03-04-02 49 29 0 10.4 23 32 20
SAV 03822 03-05-02 58 25 42 0 23 0 4.3 14 33 21
SAV 03822 03-06-02 65 28 47 0 18 0 4 15 42 36
SAV 03822 03-07-02 71 39 55 0 10 0 5.5 18 50 45
SAV 03822 03-08-02 74 51 63 0 2 9.1 20 59 57
SAV 03822 03-09-02 79 58 69 4 0 6.3 17 64 62
SAV 03822 03-10-02 73 45 59 0 6 0 7.8 17 53 44
SAV 03822 03-11-02 66 36 51 0 14 0 7.6 17 46 39
SAV 03822 03-12-02 73 52 63 0 2 0.18 6.7 22 61 59
SAV 03822 03-13-02 67 51 59 0 6 0.02 5.8 16 56 54
SAV 03822 03-14-02 74 46 60 0 5 0 4 15 57 54
SAV 03822 03-15-02 82 50 66 1 0 0.01 3.5 14 58 55
SAV 03822 03-16-02 87 56 72 7 0 0 4.9 15 65 61
SAV 03822 03-17-02 61 75 10 0 0 6 14 67 62
SAV 03822 03-18-02 87 68 0 5.7 13 67 62
SAV 03822 03-19-02 78 63 71 6 0 0 9.2 16 65 63
SAV 03822 03-20-02 86 62 74 9 0 0 7.6 18 66 63
SAV 03822 03-21-02 72 54 63 0 2 0.6 6.6 18 62 60
SAV 03822 03-22-02 60 39 50 0 15 0 8.1 22 45 36
SAV 03822 03-23-02 62 32 47 0 18 0 4.8 14 43 36
SAV 03822 03-24-02 74 37 56 0 9 0 4.6 15 51 47
SAV 03822 03-25-02 80 50 65 0 0 0 5.4 18 60 56
SAV 03822 03-26-02 83 55 69 4 0 1.06 4.7 18 65 63
SAV 03822 03-27-02 74 52 63 0 2 0 5.3 10 59 54
SAV 03822 03-28-02 69 49 59 0 6 0 6.6 14 57 54
SAV 03822 03-29-02 79 54 67 2 0 0 6.1 17 61 57
SAV 03822 03-30-02 81 64 73 8 0 0 8.8 20 67 65
SAV 03822 03-31-02 83 64 74 9 0 0.23 8.5 24 68 66
SAV 03822 04-01-02 77 57 67 2 0 5.6 14 62 59
SAV 03822 04-02-02 77 53 65 0 0 0 5.1 15 61 58
SAV 03822 04-03-02 87 60 74 9 0 0 4.4 14 64 59
SAV 03822 04-04-02 69 57 63 0 2 8.3 17 57 52
SAV 03822 04-05-02 70 47 59 0 6 0 6.6 17 48 38
SAV 03822 04-06-02 69 43 0 4.6 17 48 41
SAV 03822 04-07-02 69 44 57 0 8 0 9.5 20 53 47
SAV 03822 04-08-02 76 58 67 2 0 0 12.1 26 61 55
SAV 03822 04-09-02 80 56 68 3 0 0 9.7 25 64 60
SAV 03822 04-10-02 69 65 67 2 0 0.28 5.2 13 65 65
SAV 03822 04-11-02 71 64 68 3 0 9 16 64 62
SAV 03822 04-12-02 78 64 71 6 0 7.9 17 65 62
SAV 03822 04-13-02 77 63 70 5 0 6.1 15 65 63
SAV 03822 04-14-02 82 62 72 7 0 6.3 17 66 64
SAV 03822 04-15-02 84 63 74 9 0 0 4.4 16 67 64
SAV 03822 04-16-02 86 62 74 9 0 0 3.7 15 67 65
SAV 03822 04-17-02 87 62 75 10 0 0 3.5 15 68 65
SAV 03822 04-18-02 88 63 76 11 0 0.01 4.6 15 69 66
SAV 03822 04-19-02 89 67 78 13 0 0 6 15 70 67
SAV 03822 04-20-02 93 67 80 15 0 0 5.3 16 69 63
SAV 03822 04-21-02 92 65 79 14 0 0 6 16 69 64
SAV 03822 04-22-02 91 68 80 15 0 0 9 17 67 60
SAV 03822 04-23-02 81 57 69 4 0 0 7.1 14 58 49
SAV 03822 04-24-02 82 53 68 3 0 0 8.1 18 57 47
SAV 03822 04-25-02 89 70 80 15 0 0.09 7.4 14 69 65
SAV 03822 04-26-02 77 59 68 3 0 9.2 20 60 54
SAV 03822 04-27-02 75 63 69 4 0 0.01 6.1 13 66 63
SAV 03822 04-28-02 90 67 79 14 0 0 6.8 18 70 65
SAV 03822 04-29-02 68 0 9.2 22 66 55
SAV 03822 04-30-02 77 56 67 2 0 0.01 5.3 17 61 55
SAV 03822 05-01-02 89 66 78 13 0 5.2 15 70 67
SAV 03822 05-02-02 69 82 17 0 8.5 17 71 67
SAV 03822 05-03-02 91 71 81 16 0 0 6.9 16 73 70
SAV 03822 05-04-02 87 65 76 11 0 0 5.3 15 72 70
SAV 03822 05-05-02 76 59 68 3 0 0 8.1 16 62 59
SAV 03822 05-06-02 82 57 70 5 0 0 6.5 15 64 61
SAV 03822 05-07-02 88 59 74 9 0 0 5.1 15 67 64
SAV 03822 05-08-02 91 67 79 14 0 0 6.2 17 71 68
SAV 03822 05-09-02 92 67 80 15 0 0 6.7 17 72 69
SAV 03822 05-10-02 93 66 80 15 0 5 16 73 70
SAV 03822 05-11-02 88 67 78 13 0 0 6.1 15 72 69
SAV 03822 05-12-02 88 66 77 12 0 0 7.3 18 72 69
SAV 03822 05-13-02 93 71 0.09 8.2 23 73 69
SAV 03822 05-14-02 80 54 67 2 0 8.3 17 58 50
SAV 03822 05-15-02 80 51 66 1 0 0 5.8 16 57 49
SAV 03822 05-16-02 83 55 69 4 0 0 6.8 18 62 57
SAV 03822 05-17-02 87 60 74 9 0 0 8.5 21 70 68
SAV 03822 05-18-02 86 60 73 8 0 0.65 8.2 28 70 69
SAV 03822 05-19-02 65 49 0.25 13 24 52 49
SAV 03822 05-20-02 73 45 59 0 6 0 8.7 20 51 42
SAV 03822 05-21-02 76 46 61 0 4 0 6.3 18 53 43
SAV 03822 05-22-02 74 54 64 0 1 0 11.4 23 53 44
SAV 03822 05-23-02 78 50 64 0 1 0 7 15 57 51
SAV 03822 05-24-02 88 52 70 5 0 0 4.2 16 62 57
SAV 03822 05-25-02 89 60 75 10 0 0 5.1 16 66 61
SAV 03822 05-26-02 84 61 73 8 0 0 4.6 16 66 62
SAV 03822 05-27-02 85 62 74 9 0 0 7.3 20 68 64
SAV 03822 05-28-02 86 66 76 11 0 0 8.1 10 69 65
SAV 03822 05-29-02 86 65 76 11 0 0 9.5 13 70 68
SAV 03822 05-30-02 87 69 78 13 0 0 8 18 72 69
SAV 03822 05-31-02 89 68 79 14 0 0 4.5 17 72 69
SAV 03822 06-01-02 96 63 80 15 0 0 5.8 16 71 66
SAV 03822 06-02-02 71 86 21 0 0 5.9 16 73 66
SAV 03822 06-03-02 100 72 0 6.3 13 75 70
SAV 03822 06-04-02 91 77 84 19 0 0 9.2 15 78 76
SAV 03822 06-05-02 91 74 83 18 0 0 7.6 17 75 73
SAV 03822 06-06-02 92 70 81 16 0 5.4 17 74 71
SAV 03822 06-07-02 90 72 81 16 0 4.04 4.8 32 74 73
SAV 03822 06-08-02 82 70 76 11 0 0.01 10.5 18 70 67
SAV 03822 06-09-02 84 65 75 10 0 0 8.9 17 68 64
SAV 03822 06-10-02 86 63 75 10 0 0 8.2 17 70 67
SAV 03822 06-11-02 88 67 78 13 0 0 7.6 16 73 70
SAV 03822 06-12-02 89 70 80 15 0 0 5.3 13 75 72
SAV 03822 06-13-02 95 70 83 18 0 0 5.7 18 75 71
SAV 03822 06-14-02 96 74 85 20 0 0 6.3 17 75 71
SAV 03822 06-15-02 91 68 80 15 0 0 7 16 67 60
SAV 03822 06-16-02 91 59 75 10 0 0 3.6 14 66 60
SAV 03822 06-17-02 90 69 80 15 0 3.6 13 69 65
SAV 03822 06-18-02 81 70 76 11 0 0.41 4.1 14 72 71
SAV 03822 06-19-02 86 68 77 12 0 0 6.2 15 72 70
SAV 03822 06-20-02 84 69 77 12 0 0.94 7.2 24 72 71
SAV 03822 06-21-02 74 69 0.99 9.9 17 71 71
SAV 03822 06-22-02 79 70 75 10 0 1.64 9.9 23 73 72
SAV 03822 06-23-02 81 71 76 11 0 1.25 5 21 75 74
SAV 03822 06-24-02 84 73 79 14 0 0.6 5.1 14 74 72
SAV 03822 06-25-02 86 74 80 15 0 0.17 3.8 15 76 75
SAV 03822 06-26-02 83 73 78 13 0 0.04 3.1 14 76 75
SAV 03822 06-27-02 91 73 82 17 0 0 5.3 13 76 74
SAV 03822 06-28-02 92 73 83 18 0 4.5 15 75 73
SAV 03822 06-29-02 85 72 79 14 0 2.9 8 75 73
SAV 03822 06-30-02 91 70 81 16 0 0.4 3 31 75 73
SAV 03822 07-01-02 90 71 81 16 0 3.1 14 75 73
SAV 03822 07-02-02 91 69 80 15 0 0 3.5 13 73 71
SAV 03822 07-03-02 91 71 81 16 0 0.07 3.9 18 75 73
SAV 03822 07-04-02 90 70 80 15 0 0 2.4 10 75 73
SAV 03822 07-05-02 94 73 84 19 0 0 4 14 76 74
SAV 03822 07-06-02 93 75 84 19 0 0.01 5.8 13 77 74
SAV 03822 07-07-02 87 75 81 16 0 0.47 5.5 15 77 75
SAV 03822 07-08-02 86 73 80 15 0 0.27 4 16 75 74
SAV 03822 07-09-02 89 72 81 16 0 0.01 3.1 17 76 75
SAV 03822 07-10-02 91 71 81 16 0 0 5.1 15 77 75
SAV 03822 07-11-02 93 73 83 18 0 1.27 4.7 12 77 75
SAV 03822 07-12-02 84 72 0.04 6.2 13 76 75
SAV 03822 07-13-02 87 73 80 15 0 0.35 5.2 17 77 76
SAV 03822 07-14-02 91 75 83 18 0 0 5.3 13 78 77
SAV 03822 07-15-02 94 75 85 20 0 0 4.4 12 79 76
SAV 03822 07-16-02 95 75 85 20 0 0 4 10 78 76
SAV 03822 07-17-02 96 76 86 21 0 0 3.4 9 79 76
SAV 03822 07-18-02 95 76 86 21 0 0 5 16 80 78
SAV 03822 07-19-02 76 87 22 0 0 4.4 13 79 76
SAV 03822 07-20-02 98 75 0.1 4.7 28 78 75
SAV 03822 07-21-02 92 73 83 18 0 0.01 4.5 24 76 75
SAV 03822 07-22-02 90 71 81 16 0 3.1 17 75 74
SAV 03822 07-23-02 87 72 80 15 0 0.85 4.6 16 75 74
SAV 03822 07-24-02 89 72 81 16 0 0.01 3.4 21 75 74
SAV 03822 07-25-02 91 71 81 16 0 3.4 15 76 74
SAV 03822 07-26-02 92 74 83 18 0 0 5.2 17 77 75
SAV 03822 07-27-02 91 72 82 17 0 5.4 12 77 75
SAV 03822 07-28-02 94 74 84 19 0 0 5.2 15 78 76
SAV 03822 07-29-02 94 74 84 19 0 0 4.9 12 78 75
SAV 03822 07-30-02 95 74 85 20 0 0 6.5 15 77 74
SAV 03822 07-31-02 96 74 85 20 0 7 18 75 72
SAV 03822 08-01-02 86 72 79 14 0 0.09 3.1 9 75 74
SAV 03822 08-02-02 91 72 82 17 0 0 8.1 18 75 73
SAV 03822 08-03-02 88 72 80 15 0 0.11 10 21 75 73
SAV 03822 08-04-02 92 72 82 17 0 0.01 6.3 24 76 74
SAV 03822 08-05-02 93 72 83 18 0 0 5 17 75 73
SAV 03822 08-06-02 99 71 85 20 0 4.3 17 77 74
SAV 03822 08-07-02 89 69 79 14 0 10.8 22 71 65
SAV 03822 08-08-02 87 64 76 11 0 0 6.7 20 67 62
SAV 03822 08-09-02 87 64 76 11 0 0 7.5 17 68 63
SAV 03822 08-10-02 87 65 76 11 0 0 6.1 16 70 66
SAV 03822 08-11-02 89 67 78 13 0 0 4.6 14 71 67
SAV 03822 08-12-02 92 63 78 13 0 0 3.5 13 69 64
SAV 03822 08-13-02 82 66 0.14 5.3 14 74 73
SAV 03822 08-14-02 90 72 81 16 0 0.14 4.2 21 76 74
SAV 03822 08-15-02 91 73 82 17 0 0.01 4.9 17 78 76
SAV 03822 08-16-02 92 73 83 18 0 0 5.8 17 78 76
SAV 03822 08-17-02 94 72 83 18 0 0 4.3 16 78 76
SAV 03822 08-18-02 96 76 86 21 0 0 6.3 25 78 76
SAV 03822 08-19-02 97 73 85 20 0 4.9 22 76 74
SAV 03822 08-20-02 93 72 83 18 0 0 3 15 75 73
SAV 03822 08-21-02 93 71 82 17 0 0 3.4 14 76 74
SAV 03822 08-22-02 94 73 84 19 0 0 3.4 13 76 74
SAV 03822 08-23-02 97 72 85 20 0 0 4.5 15 77 74
SAV 03822 08-24-02 75 0 6.3 13 78 75
SAV 03822 08-25-02 96 74 85 20 0 0.46 5.4 28 77 76
SAV 03822 08-26-02 88 73 81 16 0 0.26 3.7 22 75 74
SAV 03822 08-27-02 83 71 77 12 0 0.26 4.1 13 75 75
SAV 03822 08-28-02 85 71 78 13 0 0.47 4.1 13 75 75
SAV 03822 08-29-02 83 73 78 13 0 0.02 7.5 14 76 75
SAV 03822 08-30-02 79 72 76 11 0 1.94 6.5 14 75 74
SAV 03822 08-31-02 83 73 78 13 0 0.41 8.5 17 76 75
SAV 03822 09-01-02 84 73 79 14 0 0.03 10.7 16 76 75
SAV 03822 09-02-02 83 74 79 14 0 0.06 10.6 21 75 75
SAV 03822 09-03-02 88 74 81 16 0 0 9.4 15 75 74
SAV 03822 09-04-02 90 72 81 16 0 0 8.6 20 77 75
SAV 03822 09-05-02 90 74 82 17 0 0 5.3 14 77 76
SAV 03822 09-06-02 88 74 81 16 0 0.04 6.5 16 76 75
SAV 03822 09-07-02 87 72 80 15 0 0 8.9 16 74 72
SAV 03822 09-08-02 89 70 80 15 0 0.11 7.9 17 74 72
SAV 03822 09-09-02 87 70 79 14 0 0 6.2 15 73 71
SAV 03822 09-10-02 92 67 80 15 0 0 6.3 16 70 65
SAV 03822 09-11-02 71 0 4.2 10 72 68
SAV 03822 09-12-02 90 72 81 16 0 0 4.8 14 76 75
SAV 03822 09-13-02 82 72 77 12 0 0.6 4.3 15 75 75
SAV 03822 09-14-02 87 72 80 15 0 0.13 6.5 20 77 76
SAV 03822 09-15-02 84 72 78 13 0 0.64 4.1 13 76 76
SAV 03822 09-16-02 87 73 80 15 0 0 3.2 10 76 75
SAV 03822 09-17-02 90 71 81 16 0 0 2.4 12 75 74
SAV 03822 09-18-02 89 72 81 16 0 0.17 3.1 7 76 75
SAV 03822 09-19-02 85 74 80 15 0 1.04 4.6 16 77 76
SAV 03822 09-20-02 87 71 79 14 0 0.33 4.7 15 74 73
SAV 03822 09-21-02 87 70 79 14 0 0 14 74 72
SAV 03822 09-22-02 88 69 79 14 0 0 4.4 12 73 71
SAV 03822 09-23-02 86 71 79 14 0 0.09 4.9 12 73 71
SAV 03822 09-24-02 81 72 77 12 0 0.15 8.7 16 74 74
SAV 03822 09-25-02 78 73 1.36 9 18 75 75
SAV 03822 09-26-02 87 75 81 16 0 12.7 26 78 77
SAV 03822 09-27-02 88 77 83 18 0 0.15 8.8 22 78 77
SAV 03822 09-28-02 86 73 80 15 0 0 2.1 9 76 74
SAV 03822 09-29-02 80 75 78 13 0 0.03 7.1 13 76 76
SAV 03822 09-30-02 85 71 78 13 0 0 8.4 16 74 73
SAV 03822 10-01-02 85 72 79 14 0 6.6 13 75 73
SAV 03822 10-02-02 87 68 78 13 0 0 4.8 14 69 65
SAV 03822 10-03-02 88 66 77 12 0 0 2.9 13 72 69
SAV 03822 10-04-02 87 68 78 13 0 0 3.5 13 73 71
SAV 03822 10-05-02 71 82 17 0 0 3.4 10 76 74
SAV 03822 10-06-02 92 73 3.1 12 75 72
SAV 03822 10-07-02 91 69 80 15 0 0 3 15 74 72
SAV 03822 10-08-02 81 65 73 8 0 0.15 6.2 15 73 72
SAV 03822 10-09-02 75 62 69 4 0 0.01 8.2 13 67 66
SAV 03822 10-10-02 85 68 77 12 0 2.21 7.8 14 73 72
SAV 03822 10-11-02 82 70 76 11 0 0.03 5.6 13 74 74
SAV 03822 10-12-02 87 67 77 12 0 0.01 2.4 8 68 64
SAV 03822 10-13-02 81 68 75 10 0 0.14 3 14 71 71
SAV 03822 10-14-02 72 62 67 2 0 0.09 10.3 17 67 66
SAV 03822 10-15-02 73 60 67 2 0 0.16 9.6 17 63 62
SAV 03822 10-16-02 70 58 64 0 1 5.9 13 60 59
SAV 03822 10-17-02 74 52 63 0 2 0.01 4.8 13 57 53
SAV 03822 10-18-02 72 47 60 0 5 0 5.5 16 53 48
SAV 03822 10-19-02 75 52 64 0 1 0 4.5 10 60 59
SAV 03822 10-20-02 81 54 68 3 0 0 1 8 63 62
SAV 03822 10-21-02 84 61 73 8 0 0.01 3 12 67 65
SAV 03822 10-22-02 70 61 66 1 0 7.1 14 65 64
SAV 03822 10-23-02 72 59 66 1 0 0 7.5 13 62 61
SAV 03822 10-24-02 72 63 68 3 0 0.12 10.3 17 66 65
SAV 03822 10-25-02 69 63 66 1 0 0.02 8.5 15 65 64
SAV 03822 10-26-02 75 63 69 4 0 0 4 10 65 64
SAV 03822 10-27-02 79 63 71 6 0 0.01 1.8 7 67 66
SAV 03822 10-28-02 84 65 75 10 0 0.56 3.8 16 71 70
SAV 03822 10-29-02 83 69 76 11 0 0.01 3.8 10 73 73
SAV 03822 10-30-02 82 61 72 7 0 0.81 6.9 16 68 66
SAV 03822 10-31-02 66 54 0 4.2 13 56 55
SAV 03822 11-01-02 73 51 62 0 3 0 2.9 9 57 54
SAV 03822 11-02-02 67 45 56 0 9 0.01 4 10 46 35
SAV 03822 11-03-02 68 48 58 0 7 1.5 7 54 50
SAV 03822 11-04-02 62 57 60 0 5 0.08 3.4 10 58 57
SAV 03822 11-05-02 73 57 65 0 0 0.27 7.1 16 65 64
SAV 03822 11-06-02 73 49 61 0 4 0.91 10.3 24 60 56
SAV 03822 11-07-02 64 41 53 0 12 0 3.6 10 47 43
SAV 03822 11-08-02 71 41 56 0 9 0 2.2 9 52 50
SAV 03822 11-09-02 77 49 63 0 2 0 2.6 13 60 58
SAV 03822 11-10-02 82 61 72 7 0 0.41 4.7 13 70 69
SAV 03822 11-11-02 67 0.61 6.4 20 71 70
SAV 03822 11-12-02 73 60 67 2 0 0.63 5.8 23 67 67
SAV 03822 11-13-02 66 46 56 0 9 0.12 7.7 18 54 52
SAV 03822 11-14-02 65 40 53 0 12 0 3.3 10 49 45
SAV 03822 11-15-02 75 48 62 0 3 0.01 3.7 14 58 56
SAV 03822 11-16-02 66 57 62 0 3 1.38 2.4 12 62 62
SAV 03822 11-17-02 58 41 50 0 15 0.11 8.9 20 48 46
SAV 03822 11-18-02 58 34 46 0 19 0 4.6 14 40 35
SAV 03822 11-19-02 67 35 51 0 14 0 1.1 9 45 42
SAV 03822 11-20-02 68 46 57 0 8 0 4.4 12 53 50
SAV 03822 11-21-02 68 52 60 0 5 0.08 4 8 58 57
SAV 03822 11-22-02 58 40 49 0 16 0 8.3 18 48 43
SAV 03822 11-23-02 57 31 44 0 21 0 3.1 10 38 33
SAV 03822 11-24-02 65 32 49 0 16 0 1.8 7 43 39
SAV 03822 11-25-02 71 38 55 0 10 0 1.7 8 50 48
SAV 03822 11-26-02 70 43 57 0 8 0 0.7 7 51 49
SAV 03822 11-27-02 68 42 55 0 10 0 5.5 14 48 43
SAV 03822 11-28-02 54 32 43 0 22 0 5.9 14 38 33
SAV 03822 11-29-02 58 28 0 3.7 13 38 31
SAV 03822 11-30-02 64 40 52 0 13 6.8 17 47 42
SAV 03822 12-01-02 53 31 42 0 23 0 5 16 38 29
SAV 03822 12-02-02 59 29 44 0 21 0 2.6 7 36 28
SAV 03822 12-03-02 67 32 50 0 15 0 3.9 13 44 37
SAV 03822 12-04-02 50 38 44 0 21 12.1 18 42 39
SAV 03822 12-05-02 47 38 43 0 22 0.35 6.3 17 42 42
SAV 03822 12-06-02 54 35 45 0 20 0 5.7 15 42 40
SAV 03822 12-07-02 56 31 44 0 21 0 2 9 38 35
SAV 03822 12-08-02 60 30 45 0 20 0 0.4 6 40 37
SAV 03822 12-09-02 53 43 48 0 17 0.17 9.1 16 46 43
SAV 03822 12-10-02 50 41 46 0 19 0.62 9 16 46 46
SAV 03822 12-11-02 52 48 50 0 15 0.08 5.3 14 48 47
SAV 03822 12-12-02 56 42 49 0 16 0.04 3.6 8 47 45
SAV 03822 12-13-02 71 48 60 0 5 0.61 7.8 16 58 57
SAV 03822 12-14-02 53 38 46 0 19 0 10.7 21 42 37
SAV 03822 12-15-02 55 30 43 0 22 0 4.2 9 38 34
SAV 03822 12-16-02 68 37 53 0 12 0 5.3 14 45 40
SAV 03822 12-17-02 64 36 50 0 15 0 3.8 12 47 46
SAV 03822 12-18-02 61 47 54 0 11 0 9.4 17 52 51
SAV 03822 12-19-02 72 55 0 6.9 16 59 58
SAV 03822 12-20-02 47 58 0 7 0.26 10.2 21 54 49
SAV 03822 12-21-02 60 33 47 0 18 0 5.2 17 40 31
SAV 03822 12-22-02 71 38 55 0 10 0 5.4 14 48 43
SAV 03822 12-23-02 70 42 56 0 9 0 2.1 13 50 45
SAV 03822 12-24-02 66 48 57 0 8 1.35 6.2 23 59 59
SAV 03822 12-25-02 65 37 51 0 14 0.08 12.7 24 46 40
SAV 03822 12-26-02 48 29 0 3.2 10 35 30
SAV 03822 12-27-02 54 29 42 0 23 0 3 10 37 32
SAV 03822 12-28-02 57 29 43 0 22 0 5.7 14 37 30
SAV 03822 12-29-02 69 38 54 0 11 0 4.9 12 43 35
SAV 03822 12-30-02 67 32 50 0 15 0 2.3 12 43 39
SAV 03822 12-31-02 71 42 57 0 8 0.32 7.6 23 56 55
SAV 03822 01-01-03 66 51 59 0 6 7.9 18 58 55
SAV 03822 01-02-03 61 47 54 0 11 0 5.2 13 52 51
SAV 03822 01-03-03 59 40 50 0 15 0 11.2 20 45 40
SAV 03822 01-04-03 51 31 41 0 24 0 5.1 13 35 29
SAV 03822 01-05-03 61 28 45 0 20 0 3.5 10 38 32
SAV 03822 01-06-03 62 36 49 0 16 0 9.4 22 43 36
SAV 03822 01-07-03 52 29 41 0 24 0 5.8 18 35 26
SAV 03822 01-08-03 65 36 51 0 14 0 9.5 20 42 32
SAV 03822 01-09-03 47 60 0 5 0 8.8 17 51 43
SAV 03822 01-10-03 69 45 57 0 8 0 8.8 17 52 42
SAV 03822 01-11-03 55 34 45 0 20 0 5.1 12 37 26
SAV 03822 01-12-03 45 37 41 0 24 0 8.7 20 32 15
SAV 03822 01-13-03 48 37 43 0 22 4.1 9 34 22
SAV 03822 01-14-03 60 28 44 0 21 0 3 9 37 29
SAV 03822 01-15-03 52 30 41 0 24 0 5.6 15 36 28
SAV 03822 01-16-03 56 27 42 0 23 6.1 17 40 36
SAV 03822 01-17-03 52 27 40 0 25 10.1 22 36 28
SAV 03822 01-18-03 43 22 33 0 32 0 5.1 10 25 12
SAV 03822 01-19-03 50 26 38 0 27 0 7.3 16 29 14
SAV 03822 01-20-03 65 29 47 0 18 0 7.6 21 42 31
SAV 03822 01-21-03 72 50 61 0 4 0 7.2 18 54 50
SAV 03822 01-22-03 59 41 50 0 15 0.65 7.9 17 46 44
SAV 03822 01-23-03 63 24 44 0 21 11.7 30 31 23
SAV 03822 01-24-03 38 17 0 7 16 21 9
SAV 03822 01-25-03 48 19 34 0 31 0 2 9 29 19
SAV 03822 01-26-03 56 33 45 0 20 0 5.4 15 37 27
SAV 03822 01-27-03 48 33 41 0 24 0 7.7 18 33 21
SAV 03822 01-28-03 56 25 41 0 24 0 2.9 9 33 23
SAV 03822 01-29-03 71 31 51 0 14 0 5.9 13 43 32
SAV 03822 01-30-03 72 49 3.9 13 55 51
SAV 03822 01-31-03 57 43 50 0 15 5.1 15 46 45
SAV 03822 02-01-03 61 39 50 0 15 0 6.5 17 46 40
SAV 03822 02-02-03 71 33 52 0 13 0 4.3 13 44 37
SAV 03822 02-03-03 72 37 55 0 10 5.7 13 50 45
SAV 03822 02-04-03 71 46 59 0 6 0.13 8.4 15 53 46
SAV 03822 02-05-03 62 35 49 0 16 0 5.2 14 40 29
SAV 03822 02-06-03 55 41 48 0 17 0.24 8 15 46 42
SAV 03822 02-07-03 48 43 46 0 19 0.23 7.1 16 44 43
SAV 03822 02-08-03 52 34 43 0 22 0 5.2 14 37 29
SAV 03822 02-09-03 56 33 45 0 20 0.03 1.7 10 39 32
SAV 03822 02-10-03 64 45 55 0 10 0.24 6.7 22 49 44
SAV 03822 02-11-03 59 30 45 0 20 0 4 12 38 30
SAV 03822 02-12-03 67 32 50 0 15 0 5.9 20 43 33
SAV 03822 02-13-03 66 34 50 0 15 0 5.9 16 39 25
SAV 03822 02-14-03 67 32 50 0 15 0 4.2 17 43 36
SAV 03822 02-15-03 51 65 0 0 0 8.1 16 59 55
SAV 03822 02-16-03 62 45 54 0 11 0.76 7.5 16 55 55
SAV 03822 02-17-03 46 37 0.11 7.5 14 41 40
SAV 03822 02-18-03 57 37 47 0 18 0 4.9 12 43 40
SAV 03822 02-19-03 65 32 49 0 16 0.01 2.9 10 45 43
SAV 03822 02-20-03 69 44 57 0 8 0.01 5 14 53 49
SAV 03822 02-21-03 65 53 59 0 6 0.1 4.7 13 58 58
SAV 03822 02-22-03 71 59 0.73 11.1 24 64 63
SAV 03822 02-23-03 65 40 53 0 12 0.01 9.6 25 47 40
SAV 03822 02-24-03 72 35 54 0 11 0 3.8 12 47 40
SAV 03822 02-25-03 74 46 60 0 5 0 2.7 13 53 48
SAV 03822 02-26-03 57 50 54 0 11 0.11 8.1 15 54 53
SAV 03822 02-27-03 51 41 46 0 19 0.54 8.6 17 47 47
SAV 03822 02-28-03 58 41 50 0 15 0 6.9 14 45 44
SAV 03822 03-01-03 61 50 56 0 9 0.84 5.5 12 56 56
SAV 03822 03-02-03 66 55 61 0 4 0.07 6.4 15 58 56
SAV 03822 03-03-03 60 45 53 0 12 0.03 6.3 17 48 43
SAV 03822 03-04-03 58 49 54 0 11 0.42 6.8 14 54 54
SAV 03822 03-05-03 74 55 65 0 0 0.01 2.4 10 63 62
SAV 03822 03-06-03 79 60 70 5 0 1.63 6.1 22 65 65
SAV 03822 03-07-03 60 49 55 0 10 1.38 8 17 56 56
SAV 03822 03-08-03 62 43 53 0 12 0 6.9 13 50 48
SAV 03822 03-09-03 66 51 59 0 6 0.02 3 10 58 57
SAV 03822 03-10-03 76 48 62 0 3 0.01 6.1 16 55 50
SAV 03822 03-11-03 78 48 63 0 2 0 3.4 15 58 54
SAV 03822 03-12-03 80 50 65 0 0 0 4.5 20 60 57
SAV 03822 03-13-03 73 57 65 0 0 0.32 3.1 12 63 62
SAV 03822 03-14-03 69 53 61 0 4 0.02 9.5 21 58 56
SAV 03822 03-15-03 54 49 52 0 13 0.01 9.3 15 51 50
SAV 03822 03-16-03 65 51 58 0 7 0.01 4.6 9 55 54
SAV 03822 03-17-03 64 54 59 0 6 0.68 6.9 12 59 59
SAV 03822 03-18-03 71 58 65 0 0 0.01 4.6 10 62 61
SAV 03822 03-19-03 72 58 65 0 0 1.18 9.4 17 64 63
SAV 03822 03-20-03 76 64 70 5 0 0.82 7.8 28 68 68
SAV 03822 03-21-03 82 58 70 5 0 0.01 4.5 15 62 56
SAV 03822 03-22-03 80 52 66 1 0 0 3.5 15 59 53
SAV 03822 03-23-03 74 53 64 0 1 0 2.4 12 57 53
SAV 03822 03-24-03 77 50 64 0 1 0 4.9 15 55 49
SAV 03822 03-25-03 78 47 63 0 2 0 3.4 16 55 50
SAV 03822 03-26-03 81 54 68 3 0 0 5.6 16 60 56
SAV 03822 03-27-03 73 61 67 2 0 0.09 8.4 23 63 61
SAV 03822 03-28-03 77 61 69 4 0 0.01 7.7 15 65 63
SAV 03822 03-29-03 60 0 3.9 12 66 63
SAV 03822 03-30-03 67 42 55 0 10 0.29 8.7 22 51 50
SAV 03822 03-31-03 57 36 0 8.3 20 0 0
SAV 03822 04-01-03 70 33 52 0 13 0 5.3 17 43 32
SAV 03822 04-02-03 77 49 63 0 2 0 6.6 14 53 45
SAV 03822 04-03-03 83 49 66 1 0 0 5.7 13 57 49
SAV 03822 04-04-03 82 56 69 4 0 0 6.8 17 62 57
SAV 03822 04-05-03 88 64 0.04 4.9 16 67 63
SAV 03822 04-06-03 82 64 73 8 0 0 7.3 22 68 65
SAV 03822 04-07-03 83 35 59 0 6 3.03 6.8 22 0 0
SAV 03822 04-08-03 71 56 64 0 1 0.81 7.8 13 0 0
SAV 03822 04-09-03 61 50 56 0 9 0.93 8.7 18 55 54
SAV 03822 04-10-03 51 44 0.37 7.6 15 47 47
SAV 03822 04-11-03 63 43 53 0 12 0.08 7 21 48 46
SAV 03822 04-12-03 77 44 61 0 4 0 3.9 12 55 50
SAV 03822 04-13-03 83 48 66 1 0 0 3.1 13 58 53
SAV 03822 04-14-03 79 52 66 1 0 0.01 5.4 15 61 57
SAV 03822 04-15-03 79 55 67 2 0 0 4.4 14 61 58
SAV 03822 04-16-03 77 52 65 0 0 0 3.9 13 61 58
SAV 03822 04-17-03 80 54 67 2 0 0 5.8 16 63 60
SAV 03822 04-18-03 79 66 73 8 0 0.12 7.9 17 68 66
SAV 03822 04-19-03 75 64 70 5 0 0 8.4 15 66 65
SAV 03822 04-20-03 74 60 67 2 0 0 5 12 64 62
SAV 03822 04-21-03 77 57 67 2 0 0 4.3 10 66 64
SAV 03822 04-22-03 80 56 68 3 0 6.9 17 62 56
SAV 03822 04-23-03 73 50 62 0 3 0 5.5 16 54 47
SAV 03822 04-24-03 74 47 61 0 4 0.01 4.2 16 57 54
SAV 03822 04-25-03 72 58 65 0 0 0.79 4.5 15 64 64
SAV 03822 04-26-03 80 59 70 5 0 0.04 6.2 13 64 61
SAV 03822 04-27-03 80 54 67 2 0 0 5.9 14 63 60
SAV 03822 04-28-03 77 58 68 3 0 0 5.3 14 64 61
SAV 03822 04-29-03 82 58 70 5 0 0 3.2 14 64 61
SAV 03822 04-30-03 83 58 71 6 0 0 5.9 17 67 64
SAV 03822 05-01-03 77 63 70 5 0 0.31 5.5 16 68 67
SAV 03822 05-02-03 88 60 74 9 0 0.2 4.9 32 68 65
SAV 03822 05-03-03 78 60 69 4 0 0.22 5.7 15 66 65
SAV 03822 05-04-03 85 60 73 8 0 0 5.5 18 68 66
SAV 03822 05-05-03 84 70 77 12 0 0 9.4 20 74 73
SAV 03822 05-06-03 89 71 80 15 0 0 6 16 75 73
SAV 03822 05-07-03 87 68 78 13 0 0 5.5 13 74 73
SAV 03822 05-08-03 87 72 80 15 0 0 4 10 75 73
SAV 03822 05-09-03 70 0 4.9 13 74 70
SAV 03822 05-10-03 92 68 80 15 0 0 5.2 14 73 70
SAV 03822 05-11-03 89 69 79 14 0 0.12 5.9 20 74 72
SAV 03822 05-12-03 85 65 75 10 0 0.02 7.8 17 64 57
SAV 03822 05-13-03 83 58 71 6 0 0 5.5 13 59 51
SAV 03822 05-14-03 78 58 3.8 10 63 59
SAV 03822 05-15-03 79 67 73 8 0 4.8 15 70 69
SAV 03822 05-16-03 88 66 77 12 0 0.61 3 14 71 70
SAV 03822 05-17-03 86 67 77 12 0 8.2 21 73 72
SAV 03822 05-18-03 84 67 76 11 0 0.16 7 24 74 73
SAV 03822 05-19-03 76 62 69 4 0 0.06 9.2 17 67 66
SAV 03822 05-20-03 78 62 70 5 0 0 7.9 14 66 63
SAV 03822 05-21-03 82 65 74 9 0 6.6 15 68 66
SAV 03822 05-22-03 80 66 73 8 0 0.59 5.2 26 70 68
SAV 03822 05-23-03 80 66 73 8 0 0.06 4.6 16 70 68
SAV 03822 05-24-03 81 63 72 7 0 0.01 4 13 69 68
SAV 03822 05-25-03 85 66 76 11 0 0.6 4.3 15 71 70
SAV 03822 05-26-03 86 67 77 12 0 2.6 13 73 71
SAV 03822 05-27-03 83 67 75 10 0 0.25 4.1 14 70 68
SAV 03822 05-28-03 83 60 72 7 0 0 3.3 10 65 60
SAV 03822 05-29-03 86 60 73 8 0 0 6.5 15 64 57
SAV 03822 05-30-03 82 57 70 5 0 0 3.7 15 62 57
SAV 03822 05-31-03 90 58 74 9 0 7.8 22 69 65
SAV 03822 06-01-03 84 62 73 8 0 0 5.3 14 66 61
SAV 03822 06-02-03 84 60 0 5 15 67 64
SAV 03822 06-03-03 86 70 78 13 0 1.07 8.1 17 73 72
SAV 03822 06-04-03 81 70 76 11 0 0.48 3.8 10 73 72
SAV 03822 06-05-03 88 70 79 14 0 0 3.1 12 73 71
SAV 03822 06-06-03 87 70 79 14 0 0.37 2.4 17 75 74
SAV 03822 06-07-03 84 73 79 14 0 0.2 4.9 20 75 75
SAV 03822 06-08-03 85 73 79 14 0 0.32 6.3 21 75 75
SAV 03822 06-09-03 89 72 81 16 0 0 4.6 13 75 72
SAV 03822 06-10-03 91 71 81 16 0 0 4.2 14 76 73
SAV 03822 06-11-03 91 73 82 17 0 5 16 77 76
SAV 03822 06-12-03 89 73 81 16 0 0.04 6.2 22 77 76
SAV 03822 06-13-03 91 71 81 16 0 0.24 5.9 21 74 73
SAV 03822 06-14-03 89 70 80 15 0 0.05 4.3 16 74 73
SAV 03822 06-15-03 71 82 17 0 0 3.6 13 77 75
SAV 03822 06-16-03 92 73 0.35 5.2 16 76 75
SAV 03822 06-17-03 85 73 79 14 0 0.13 3.6 16 75 75
SAV 03822 06-18-03 87 73 80 15 0 0.32 3.4 15 76 76
SAV 03822 06-19-03 89 73 81 16 0 0 4.6 10 76 75
SAV 03822 06-20-03 88 74 81 16 0 5.2 13 76 75
SAV 03822 06-21-03 85 67 76 11 0 0 4.9 16 71 68
SAV 03822 06-22-03 85 65 75 10 0 0 2.7 14 69 65
SAV 03822 06-23-03 88 66 77 12 0 2.4 10 70 66
SAV 03822 06-24-03 90 64 77 12 0 0 2.7 12 71 68
SAV 03822 06-25-03 90 65 78 13 0 0 2.2 10 71 68
SAV 03822 06-26-03 91 65 78 13 0 0 3.8 13 72 70
SAV 03822 06-27-03 92 70 81 16 0 0 4.3 16 74 72
SAV 03822 06-28-03 90 64 77 12 0 0.09 4.9 15 76 75
SAV 03822 06-29-03 87 72 80 15 0 0.03 3.9 22 74 73
SAV 03822 06-30-03 91 70 81 16 0 1.13 2.9 16 74 73
SAV 03822 07-01-03 86 72 79 14 0 7.5 18 77 76
SAV 03822 07-02-03 88 75 82 17 0 0.06 8.2 16 78 76
SAV 03822 07-03-03 92 71 82 17 0 0 5.5 10 76 74
SAV 03822 07-04-03 89 73 81 16 0 0.04 3.5 17 76 74
SAV 03822 07-05-03 90 72 81 16 0 0.19 3 17 77 76
SAV 03822 07-06-03 92 75 84 19 0 0 4.9 14 78 77
SAV 03822 07-07-03 94 75 85 20 0 0.59 4.6 15 78 77
SAV 03822 07-08-03 96 74 85 20 0 0 2.6 10 78 76
SAV 03822 07-09-03 96 77 0 5 13 79 76
SAV 03822 07-10-03 95 77 86 21 0 0 6.6 14 79 76
SAV 03822 07-11-03 95 76 86 21 0 0 6.5 14 78 75
SAV 03822 07-12-03 92 75 84 19 0 5.6 16 76 74
SAV 03822 07-13-03 85 73 79 14 0 0 4 20 75 73
SAV 03822 07-14-03 84 73 79 14 0 0.69 2.9 14 75 74
SAV 03822 07-15-03 86 73 80 15 0 3 10 75 74
SAV 03822 07-16-03 93 71 82 17 0 0.11 4.5 23 76 74
SAV 03822 07-17-03 93 72 83 18 0 0.43 4.7 16 76 74
SAV 03822 07-18-03 92 73 83 18 0 0 0 0 77 75
SAV 03822 07-19-03 90 71 81 16 0 0.96 7 26 75 74
SAV 03822 07-20-03 90 71 81 16 0 0 3.8 9 76 75
SAV 03822 07-21-03 93 74 84 19 0 0.07 4.9 22 77 75
SAV 03822 07-22-03 91 73 82 17 0 0.13 7.7 23 75 75
SAV 03822 07-23-03 87 73 80 15 0 1.2 6.6 18 74 74
SAV 03822 07-24-03 83 71 1.72 3.5 16 74 73
SAV 03822 07-25-03 88 70 79 14 0 0.04 4.2 23 74 73
SAV 03822 07-26-03 86 73 80 15 0 0.09 7 18 76 75
SAV 03822 07-27-03 90 74 82 17 0 0.02 3.6 15 77 76
SAV 03822 07-28-03 91 75 83 18 0 5.9 16 77 76
SAV 03822 07-29-03 92 73 83 18 0 0.04 6.2 18 77 75
SAV 03822 07-30-03 92 72 82 17 0 0 6.3 13 76 74
SAV 03822 07-31-03 90 73 82 17 0 0 5.2 18 76 75
SAV 03822 08-01-03 86 73 80 15 0 0.08 3.8 13 75 75
SAV 03822 08-02-03 88 73 81 16 0 0 4.2 13 76 75
SAV 03822 08-03-03 90 72 81 16 0 0.02 5 15 76 75
SAV 03822 08-04-03 91 72 82 17 0 0.04 4.2 18 76 74
SAV 03822 08-05-03 92 71 82 17 0 0.05 5.6 14 77 75
SAV 03822 08-06-03 90 75 83 18 0 0.73 5.8 14 77 76
SAV 03822 08-07-03 88 74 81 16 0 0.01 4.7 15 76 75
SAV 03822 08-08-03 87 74 81 16 0 5.5 17 76 75
SAV 03822 08-09-03 90 73 82 17 0 0 5.1 17 77 76
SAV 03822 08-10-03 88 71 80 15 0 0.41 6.8 20 76 74
SAV 03822 08-11-03 89 70 80 15 0 0.48 3.4 17 75 74
SAV 03822 08-12-03 87 71 0.04 2.4 14 76 76
SAV 03822 08-13-03 90 72 81 16 0 0 5.8 16 77 76
SAV 03822 08-14-03 89 76 83 18 0 0.05 8.5 16 79 77
SAV 03822 08-15-03 87 76 82 17 0 0.74 4.3 15 78 78
SAV 03822 08-16-03 91 73 82 17 0 0.09 5.4 30 77 75
SAV 03822 08-17-03 90 71 81 16 0 0 5.3 14 76 74
SAV 03822 08-18-03 92 75 84 19 0 0 5.8 14 77 75
SAV 03822 08-19-03 92 73 83 18 0 0 3.9 14 78 77
SAV 03822 08-20-03 89 75 82 17 0 0 3 14 78 77
SAV 03822 08-21-03 89 74 82 17 0 3.4 13 77 75
SAV 03822 08-22-03 88 74 81 16 0 0.05 3.3 10 76 75
SAV 03822 08-23-03 91 73 82 17 0 4.4 21 77 75
SAV 03822 08-24-03 94 75 85 20 0 0 4.4 13 78 76
SAV 03822 08-25-03 90 76 83 18 0 0.01 3.4 15 78 77
SAV 03822 08-26-03 93 73 83 18 0 0 3.1 14 77 75
SAV 03822 08-27-03 94 75 0.01 3.7 15 78 76
SAV 03822 08-29-03 91 73 82 17 0 0 3.8 14 78 77
SAV 03822 08-30-03 93 74 84 19 0 0 4.4 15 78 76
SAV 03822 08-31-03 92 74 83 18 0 0.01 5.7 15 78 76
SAV 03822 09-01-03 90 75 83 18 0 0.02 5.8 20 77 75
SAV 03822 09-02-03 91 75 83 18 0 0.12 4.6 16 77 75
SAV 03822 09-03-03 89 74 82 17 0 0.04 4.8 16 77 75
SAV 03822 09-04-03 92 73 4.6 18 77 76
SAV 03822 09-05-03 89 74 82 17 0 2.2 4.8 21 77 76
SAV 03822 09-06-03 77 68 73 8 0 0.55 12.8 21 71 71
SAV 03822 09-07-03 72 67 70 5 0 0.29 8.7 15 69 69
SAV 03822 09-08-03 76 69 73 8 0 8.2 17 70 70
SAV 03822 09-09-03 84 69 77 12 0 0.01 6.6 13 72 70
SAV 03822 09-10-03 80 67 74 9 0 0 7.6 14 69 68
SAV 03822 09-11-03 83 65 74 9 0 0 8.3 17 65 61
SAV 03822 09-12-03 85 66 76 11 0 0 6.9 14 69 67
SAV 03822 09-13-03 86 65 76 11 0 0 3.1 12 71 69
SAV 03822 09-14-03 88 67 78 13 0 0 3.6 12 72 70
SAV 03822 09-15-03 89 69 79 14 0 0 2.9 10 73 71
SAV 03822 09-16-03 89 69 79 14 0 0 7.8 16 73 71
SAV 03822 09-17-03 85 65 75 10 0 0 11.3 20 65 60
SAV 03822 09-18-03 87 64 76 11 0 0 8.9 15 67 63
SAV 03822 09-19-03 89 62 76 11 0 0 5 15 68 63
SAV 03822 09-20-03 89 62 76 11 0 0 3.5 15 69 66
SAV 03822 09-21-03 88 71 80 15 0 0 7.3 17 76 74
SAV 03822 09-22-03 89 70 80 15 0 0.01 7.6 21 76 74
SAV 03822 09-23-03 87 72 80 15 0 0.34 2.5 12 75 74
SAV 03822 09-24-03 84 65 75 10 0 0 6.5 14 69 66
SAV 03822 09-25-03 85 64 75 10 0 0 3.5 9 71 69
SAV 03822 09-26-03 84 70 77 12 0 0.03 6.8 14 73 72
SAV 03822 09-27-03 86 71 79 14 0 0 4.3 15 74 72
SAV 03822 09-28-03 86 64 75 10 0 0 6.9 15 69 65
SAV 03822 09-29-03 74 54 64 0 1 0 5.8 16 56 49
SAV 03822 09-30-03 76 50 0 7.6 17 56 50
SAV 03822 10-01-03 81 52 67 2 0 0 4.4 16 60 56
SAV 03822 10-02-03 76 57 67 2 0 0 7.7 15 60 55
SAV 03822 10-03-03 76 54 65 0 0 0 7.2 15 57 52
SAV 03822 10-04-03 84 56 70 5 0 0 4.3 13 64 60
SAV 03822 10-05-03 84 58 71 6 0 0 1.6 10 64 61
SAV 03822 10-06-03 83 60 72 7 0 0 3.8 12 67 64
SAV 03822 10-07-03 76 66 71 6 0 0.06 5 12 68 67
SAV 03822 10-08-03 80 66 73 8 0 5.9 17 69 68
SAV 03822 10-09-03 81 65 73 8 0 0.01 5.1 14 69 68
SAV 03822 10-10-03 82 64 73 8 0 0 5.8 15 67 65
SAV 03822 10-11-03 77 67 72 7 0 0.02 4.9 10 68 67
SAV 03822 10-12-03 79 66 73 8 0 0 7.2 15 67 65
SAV 03822 10-13-03 82 64 73 8 0 0.1 4.8 12 69 67
SAV 03822 10-14-03 83 69 6.1 24 73 71
SAV 03822 10-15-03 76 50 63 0 2 0 6.4 21 55 48
SAV 03822 10-16-03 78 47 63 0 2 0 4.2 14 56 51
SAV 03822 10-17-03 81 55 68 3 0 0.45 4.2 20 64 62
SAV 03822 10-18-03 76 57 67 2 0 5.4 15 62 60
SAV 03822 10-19-03 77 52 65 0 0 0.01 3.4 12 57 53
SAV 03822 10-20-03 80 51 66 1 0 0 3.1 10 60 57
SAV 03822 10-21-03 87 54 71 6 0 0 5.8 16 64 61
SAV 03822 10-22-03 86 60 73 8 0 0 9.2 18 61 52
SAV 03822 10-23-03 76 50 0 4 12 55 49
SAV 03822 10-24-03 82 53 68 3 0 0 5.1 15 61 58
SAV 03822 10-25-03 80 54 67 2 0 0.06 5.6 14 64 62
SAV 03822 10-26-03 83 67 75 10 0 4.6 13 66 60
SAV 03822 10-27-03 79 66 73 8 0 0.1 3.5 12 69 68
SAV 03822 10-28-03 70 64 67 2 0 2.17 5.7 16 67 67
SAV 03822 10-29-03 75 55 65 0 0 0.05 5.8 15 60 58
SAV 03822 10-30-03 78 51 65 0 0 0.01 4.9 17 60 56
SAV 03822 10-31-03 81 58 70 5 0 0 7 14 64 61
SAV 03822 11-01-03 82 56 69 4 0 0 3.9 13 60 56
SAV 03822 11-02-03 84 54 69 4 0 0 5.7 15 61 57
SAV 03822 11-03-03 79 64 72 7 0 0.11 8.8 16 69 68
SAV 03822 11-04-03 71 78 13 0 0.18 5.4 14 74 73
SAV 03822 11-05-03 85 70 78 13 0 0.27 5.1 16 75 74
SAV 03822 11-06-03 85 71 0 4.5 14 74 73
SAV 03822 11-07-03 84 68 76 11 0 0 4.3 13 73 71
SAV 03822 11-08-03 74 62 68 3 0 0.01 9.1 17 68 67
SAV 03822 11-09-03 62 53 58 0 7 0.26 14.7 23 51 47
SAV 03822 11-10-03 70 49 60 0 5 0 10.4 17 51 45
SAV 03822 11-11-03 78 49 64 0 1 0 3 8 57 55
SAV 03822 11-12-03 82 53 68 3 0 3.5 10 61 59
SAV 03822 11-13-03 73 45 59 0 6 0 11.7 26 53 41
SAV 03822 11-14-03 64 34 49 0 16 0 2 8 40 29
SAV 03822 11-15-03 72 40 56 0 9 0 1.5 10 44 33
SAV 03822 11-16-03 79 48 64 0 1 2.6 13 59 56
SAV 03822 11-17-03 81 52 67 2 0 0 3 13 62 59
SAV 03822 11-18-03 82 62 72 7 0 0.01 9.2 24 69 66
SAV 03822 11-19-03 75 56 66 1 0 0.42 10.9 30 63 60
SAV 03822 11-20-03 71 46 59 0 6 0 3.5 13 51 47
SAV 03822 11-21-03 74 42 58 0 7 0 0.6 8 51 48
SAV 03822 11-22-03 76 42 59 0 6 0 1.1 9 53 49
SAV 03822 11-23-03 76 46 61 0 4 0 3 13 57 55
SAV 03822 11-24-03 78 51 65 0 0 0.07 7.3 21 59 57
SAV 03822 11-25-03 62 38 50 0 15 0 5.1 15 45 39
SAV 03822 11-26-03 70 50 60 0 5 0 4.6 9 56 55
SAV 03822 11-27-03 79 51 65 0 0 0 3.6 13 61 60
SAV 03822 11-28-03 78 45 62 0 3 0.38 9.7 30 57 54
SAV 03822 11-29-03 51 32 0 10.2 26 36 28
SAV 03822 11-30-03 61 28 45 0 20 0 3.2 10 38 32
SAV 03822 12-01-03 68 38 53 0 12 0 6.5 14 45 37
SAV 03822 12-02-03 61 37 49 0 16 0 6.5 18 40 28
SAV 03822 12-03-03 54 49 52 0 13 22 43 37
SAV 03822 12-04-03 57 45 51 0 14 0.44 9.2 16 51 51
SAV 03822 12-05-03 50 45 48 0 17 7.1 14 47 46
SAV 03822 12-06-03 55 35 45 0 20 0 7.1 17 40 36
SAV 03822 12-07-03 56 30 43 0 22 0 2.2 13 38 34
SAV 03822 12-08-03 62 30 46 0 19 0.01 1.3 8 40 36
SAV 03822 12-09-03 66 34 50 0 15 0 2.6 10 47 44
SAV 03822 12-10-03 68 44 56 0 9 0.29 9 23 56 55
SAV 03822 12-11-03 53 36 45 0 20 0 9.3 22 40 36
SAV 03822 12-12-03 60 32 46 0 19 0 1.9 8 43 40
SAV 03822 12-13-03 60 42 51 0 14 0.05 7.9 16 51 49
SAV 03822 12-14-03 54 40 47 0 18 0.65 9.2 18 46 46
SAV 03822 12-15-03 60 34 47 0 18 0 3.5 10 42 39
SAV 03822 12-16-03 66 35 51 0 14 0 2.4 9 48 46
SAV 03822 12-17-03 63 40 52 0 13 0.02 11.3 24 46 41
SAV 03822 12-18-03 61 35 48 0 17 0 8.9 18 39 28
SAV 03822 12-19-03 54 41 48 0 17 0 10.8 24 39 29
SAV 03822 12-20-03 47 27 0 7.6 20 31 22
SAV 03822 12-21-03 53 24 39 0 26 0 1.8 9 32 25
SAV 03822 12-22-03 65 28 47 0 18 0 1.4 8 40 35
SAV 03822 12-23-03 38 55 0 10 5.4 15 53 51
SAV 03822 12-24-03 67 44 0.01 8.2 16 56 54
SAV 03822 12-25-03 50 31 41 0 24 0 3.7 12 37 31
SAV 03822 12-26-03 61 28 45 0 20 0 1.3 8 37 31
SAV 03822 12-27-03 64 29 47 0 18 0 0.8 7 37 30
SAV 03822 12-28-03 68 30 49 0 16 0 2.5 10 43 38
SAV 03822 12-29-03 65 40 53 0 12 0 4.1 10 52 50
SAV 03822 12-30-03 66 42 54 0 11 0.01 5.9 14 54 50
SAV 03822 12-31-03 67 35 51 0 14 0 3.1 9 43 37
SAV 03822 01-01-04 69 31 50 0 15 0 0.9 10 41 34
SAV 03822 01-02-04 69 36 53 0 12 0 1.3 7 47 43
SAV 03822 01-03-04 78 47 63 0 2 0 4.1 12 58 56
SAV 03822 01-04-04 80 60 70 5 0 0 6.8 14 64 62
SAV 03822 01-05-04 81 62 8.3 20 67 64
SAV 03822 01-06-04 67 41 54 0 11 0 11.9 21 45 40
SAV 03822 01-07-04 49 27 38 0 27 0 6.2 16 30 17
SAV 03822 01-08-04 57 25 41 0 24 0.1 2.7 9 35 27
SAV 03822 01-09-04 47 41 44 0 21 0.43 6.6 16 42 39
SAV 03822 01-10-04 47 32 40 0 25 0 11.8 20 35 29
SAV 03822 01-11-04 48 27 0 4.4 9 30 22
SAV 03822 01-12-04 62 27 45 0 20 0.01 6.9 17 38 28
SAV 03822 01-13-04 64 42 53 0 12 0 7.1 14 44 34
SAV 03822 01-14-04 67 34 51 0 14 0 5.4 14 45 38
SAV 03822 01-15-04 66 45 56 0 9 0 9 16 49 41
SAV 03822 01-16-04 59 34 47 0 18 0 4.9 15 38 28
SAV 03822 01-17-04 62 34 48 0 17 6.6 17 48 44
SAV 03822 01-18-04 72 58 65 0 0 0.02 10.2 21 59 55
SAV 03822 01-19-04 58 35 47 0 18 4.7 13 45 41
SAV 03822 01-20-04 52 31 42 0 23 0 4.9 15 34 26
SAV 03822 01-21-04 57 27 42 0 23 0 1.6 8 35 28
SAV 03822 01-22-04 61 29 45 0 20 0 7.1 22 38 27
SAV 03822 01-23-04 56 33 45 0 20 0 8.8 21 36 19
SAV 03822 01-24-04 69 36 53 0 12 0 7.5 21 44 33
SAV 03822 01-25-04 58 45 52 0 13 0.18 7.4 18 48 46
SAV 03822 01-26-04 53 37 45 0 20 1.29 8.1 22 42 40
SAV 03822 01-27-04 47 35 41 0 24 0.01 6.5 15 39 38
SAV 03822 01-28-04 49 28 39 0 26 0 8.8 21 32 22
SAV 03822 01-29-04 56 24 40 0 25 0 3.2 15 33 22
SAV 03822 01-30-04 60 30 45 0 20 0 6.1 17 40 32
SAV 03822 01-31-04 52 40 46 0 19 0 8.1 16 39 30
SAV 03822 02-01-04 47 40 44 0 21 13.2 20 37 28
SAV 03822 02-02-04 58 42 50 0 15 0.02 11.5 14 46 41
SAV 03822 02-03-04 60 37 49 0 16 0 7.1 17 46 43
SAV 03822 02-04-04 61 31 46 0 19 0 4.1 13 40 35
SAV 03822 02-05-04 66 44 55 0 10 0.01 9.4 17 51 49
SAV 03822 02-06-04 72 62 0.5 12.2 23 65 63
SAV 03822 02-07-04 67 38 53 0 12 12.7 23 45 36
SAV 03822 02-08-04 51 30 41 0 24 0 8.8 20 34 24
SAV 03822 02-09-04 57 41 49 0 16 5.3 13 44 38
SAV 03822 02-10-04 60 43 52 0 13 2.3 12 48 44
SAV 03822 02-11-04 60 47 54 0 11 0.07 4.6 10 50 47
SAV 03822 02-12-04 49 45 47 0 18 0.26 9.5 22 46 45
SAV 03822 02-13-04 59 43 51 0 14 6 13 45 41
SAV 03822 02-14-04 50 46 48 0 17 0.45 8.7 15 46 45
SAV 03822 02-15-04 64 45 55 0 10 0.02 8.3 20 48 44
SAV 03822 02-16-04 49 41 45 0 20 0 11.1 17 41 35
SAV 03822 02-17-04 44 37 41 0 24 0.08 10.5 17 38 35
SAV 03822 02-18-04 58 34 46 0 19 0 8.3 17 39 31
SAV 03822 02-19-04 67 29 48 0 17 0 5.4 14 40 30
SAV 03822 02-20-04 68 33 51 0 14 0 7.1 16 45 35
SAV 03822 02-21-04 76 44 60 0 5 0 9.5 21 53 43
SAV 03822 02-22-04 66 34 50 0 15 0 3.1 12 44 37
SAV 03822 02-23-04 68 38 53 0 12 5.7 14 49 45
SAV 03822 02-24-04 67 53 60 0 5 6.5 14 54 52
SAV 03822 02-25-04 56 41 49 0 16 0.14 15.7 25 45 42
SAV 03822 02-26-04 59 37 48 0 17 0.5 15.8 30 38 36
SAV 03822 02-27-04 41 36 12.4 20 0 0
SAV 03822 02-28-04 62 32 47 0 18 0 7.4 21 0 0
SAV 03822 02-29-04 68 31 50 0 15 0 4.3 15 0 0
SAV 03822 03-01-04 72 49 61 0 4 5.8 17 56 52
SAV 03822 03-02-04 79 48 64 0 1 0 6.1 15 58 53
SAV 03822 03-03-04 81 50 66 1 0 0 4.2 15 59 55
SAV 03822 03-04-04 80 55 68 3 0 0 5.8 20 61 58
SAV 03822 03-05-04 80 63 0 9.8 18 66 63
SAV 03822 03-06-04 81 57 69 4 0 8.1 28 63 59
SAV 03822 03-07-04 82 51 67 2 0 9.2 33 56 47
SAV 03822 03-08-04 65 38 52 0 13 0.03 11.2 35 43 26
SAV 03822 03-09-04 63 35 49 0 16 0.07 5.1 25 43 35
SAV 03822 03-10-04 57 38 48 0 17 0 8.7 20 43 38
SAV 03822 03-11-04 65 32 49 0 16 0 4 14 42 35
SAV 03822 03-12-04 74 46 60 0 5 0 6.6 18 47 35
SAV 03822 03-13-04 64 38 51 0 14 0 6.8 16 44 33
SAV 03822 03-14-04 74 46 60 0 5 0 6.5 16 55 52
SAV 03822 03-15-04 79 53 66 1 0 0 6.2 20 60 56
SAV 03822 03-16-04 72 62 67 2 0 0.01 6.2 17 62 60
SAV 03822 03-17-04 72 46 59 0 6 0 8.2 23 50 39
SAV 03822 03-18-04 78 40 59 0 6 0 7.2 22 51 41
SAV 03822 03-19-04 84 55 70 5 0 0 6.6 18 57 48
SAV 03822 03-20-04 74 54 64 0 1 0 9.7 18 60 56
SAV 03822 03-21-04 80 53 67 2 0 0 12.7 24 56 45
SAV 03822 03-22-04 58 39 49 0 16 0 11.2 22 38 22
SAV 03822 03-23-04 58 33 0 7.9 16 39 25
SAV 03822 03-24-04 66 34 50 0 15 0 6.5 16 43 31
SAV 03822 03-25-04 73 47 60 0 5 0 5.3 18 55 50
SAV 03822 03-26-04 75 50 63 0 2 0 5.3 20 57 53
SAV 03822 03-27-04 79 49 64 0 1 0 3.5 14 57 52
SAV 03822 03-28-04 50 68 3 0 0 6.7 24 59 54
SAV 03822 03-29-04 73 50 62 0 3 0 6.8 18 54 48
SAV 03822 03-30-04 65 48 57 0 8 0.01 3.9 12 55 54
SAV 03822 03-31-04 70 48 59 0 6 0 8.7 24 50 42
SAV 03822 04-01-04 65 41 53 0 12 0 10.3 23 45 35
SAV 03822 04-02-04 69 41 55 0 10 0 12.1 25 46 33
SAV 03822 04-03-04 74 43 59 0 6 0 7.4 17 49 38
SAV 03822 04-04-04 76 49 63 0 2 0 10.5 24 47 28
SAV 03822 04-05-04 70 40 55 0 10 0 4.7 14 44 31
SAV 03822 04-06-04 69 41 55 0 10 0 4.4 15 50 45
SAV 03822 04-07-04 77 46 62 0 3 0 5.2 14 57 53
SAV 03822 04-08-04 79 54 67 2 0 0.15 5.9 15 61 57
SAV 03822 04-09-04 82 55 69 4 0 0 4.8 15 59 53
SAV 03822 04-10-04 84 51 68 3 0 0 4.8 18 61 56
SAV 03822 04-11-04 85 57 71 6 0 0.89 7.8 20 66 63
SAV 03822 04-12-04 78 66 72 7 0 2.49 8.7 26 66 64
SAV 03822 04-13-04 74 48 61 0 4 0.46 12 24 59 53
SAV 03822 04-14-04 60 43 0 11.7 22 44 37
SAV 03822 04-15-04 74 39 57 0 8 0 5.2 20 47 36
SAV 03822 04-16-04 77 43 60 0 5 0 4.3 16 52 44
SAV 03822 04-17-04 80 47 64 0 1 0 5.1 17 56 51
SAV 03822 04-18-04 83 50 67 2 0 0 4.8 15 59 54
SAV 03822 04-19-04 81 51 66 1 0 0 4.9 15 60 56
SAV 03822 04-20-04 84 59 72 7 0 0 5.4 13 62 56
SAV 03822 04-21-04 81 60 71 6 0 0 5.1 17 62 57
SAV 03822 04-22-04 82 60 71 6 0 0 5.6 15 64 60
SAV 03822 04-23-04 85 59 72 7 0 0 4.6 15 66 62
SAV 03822 04-24-04 61 0 3.6 13 66 62
SAV 03822 04-25-04 80 58 69 4 0 0 4.6 15 65 61
SAV 03822 04-26-04 83 60 72 7 0 0.37 4.2 15 67 65
SAV 03822 04-27-04 75 55 65 0 0 8.2 18 58 52
SAV 03822 04-28-04 71 46 59 0 6 0 7.7 18 54 48
SAV 03822 04-29-04 77 55 66 1 0 0 8 18 62 58
SAV 03822 04-30-04 77 62 70 5 0 0.21 5.8 18 67 66
SAV 03822 05-01-04 83 65 74 9 0 3.9 13 69 68
SAV 03822 05-02-04 80 65 73 8 0 0.83 8.2 35 70 69
SAV 03822 05-03-04 76 54 65 0 0 0.09 7.7 21 59 53
SAV 03822 05-04-04 72 47 0 4.1 17 51 44
SAV 03822 05-05-04 80 47 64 0 1 0 3.7 12 57 52
SAV 03822 05-06-04 87 58 73 8 0 0 3 12 64 58
SAV 03822 05-07-04 91 59 75 10 0 0 3.5 13 66 59
SAV 03822 05-08-04 90 61 76 11 0 0 3.9 14 67 62
SAV 03822 05-09-04 82 61 72 7 0 0 4.5 16 65 61
SAV 03822 05-10-04 82 56 69 4 0 0 3.8 15 64 59
SAV 03822 05-11-04 77 48 63 0 2 0.18 3 14 69 67
SAV 03822 05-12-04 81 66 74 9 0 0.06 6.2 18 70 68
SAV 03822 05-13-04 83 62 73 8 0 0 6.9 17 68 66
SAV 03822 05-14-04 83 62 73 8 0 0 5.6 15 67 64
SAV 03822 05-15-04 83 62 73 8 0 0 3.4 16 67 63
SAV 03822 05-16-04 83 63 73 8 0 0 3.5 14 68 65
SAV 03822 05-17-04 84 63 74 9 0 0.02 4.9 17 68 65
SAV 03822 05-18-04 84 64 74 9 0 0.01 3.6 15 68 65
SAV 03822 05-19-04 85 62 74 9 0 0 3.6 14 68 65
SAV 03822 05-20-04 89 66 78 13 0 0 4.2 15 70 66
SAV 03822 05-21-04 89 67 78 13 0 0 4.7 15 70 66
SAV 03822 05-22-04 91 70 81 16 0 4.3 22 72 69
SAV 03822 05-23-04 91 68 80 15 0 0.48 3.1 21 72 69
SAV 03822 05-24-04 91 70 81 16 0 0 4.5 14 72 68
SAV 03822 05-25-04 92 68 80 15 0 0 3.9 15 71 67
SAV 03822 05-26-04 94 70 82 17 0 0 6.2 16 69 62
SAV 03822 05-27-04 92 71 82 17 0 0 6.8 16 69 63
SAV 03822 05-28-04 91 72 82 17 0 0 7.4 16 71 66
SAV 03822 05-29-04 89 72 81 16 0 0 4.4 13 73 69
SAV 03822 05-30-04 70 83 18 0 0 6.1 17 73 68
SAV 03822 05-31-04 92 75 8.3 25 73 69
SAV 03822 06-01-04 88 68 78 13 0 0.06 5.2 13 69 64
SAV 03822 06-02-04 91 69 80 15 0 0.01 3.4 12 71 67
SAV 03822 06-03-04 91 70 81 16 0 0.01 6.5 16 71 66
SAV 03822 06-04-04 86 70 78 13 0 5.6 13 71 68
SAV 03822 06-05-04 92 71 82 17 0 0 6.2 16 72 68
SAV 03822 06-06-04 89 69 79 14 0 0.06 6.6 33 72 69
SAV 03822 06-07-04 92 70 81 16 0 0 5.3 18 73 70
SAV 03822 06-08-04 90 68 79 14 0 0 4.1 17 73 70
SAV 03822 06-09-04 83 72 78 13 0 0.15 1.9 15 74 72
SAV 03822 06-10-04 91 69 80 15 0 0.01 3.6 17 74 72
SAV 03822 06-11-04 94 70 82 17 0 0 4.2 13 75 72
SAV 03822 06-12-04 75 0 7.4 18 76 73
SAV 03822 06-13-04 86 70 78 13 0 1.78 9.6 28 76 74
SAV 03822 06-14-04 84 72 78 13 0 1.96 4.7 17 76 75
SAV 03822 06-15-04 85 72 79 14 0 0.03 4.1 13 75 74
SAV 03822 06-16-04 87 73 80 15 0 0.52 2.7 14 75 74
SAV 03822 06-17-04 88 72 80 15 0 0 3.5 10 75 73
SAV 03822 06-18-04 92 74 83 18 0 0.29 4.2 16 76 73
SAV 03822 06-19-04 94 74 84 19 0 0 4.9 14 77 75
SAV 03822 06-20-04 92 76 84 19 0 6.4 15 76 74
SAV 03822 06-21-04 85 71 0.89 6.4 18 75 73
SAV 03822 06-22-04 89 72 81 16 0 0.08 4.3 15 74 73
SAV 03822 06-23-04 90 72 81 16 0 0.27 7.4 24 74 72
SAV 03822 06-24-04 91 71 81 16 0 1.13 5 25 74 72
SAV 03822 06-25-04 90 70 80 15 0 0.29 5.2 28 74 72
SAV 03822 06-26-04 89 72 81 16 0 5.9 16 73 70
SAV 03822 06-27-04 90 69 80 15 0 0.08 4.7 22 73 71
SAV 03822 06-28-04 90 70 80 15 0 0.02 5 18 73 70
SAV 03822 06-29-04 91 73 82 17 0 0 3.7 12 73 70
SAV 03822 06-30-04 88 72 80 15 0 0.87 2.5 22 73 72
SAV 03822 07-01-04 87 71 79 14 0 0.15 1.7 15 73 72
SAV 03822 07-02-04 86 71 79 14 0 0.76 2.3 18 74 72
SAV 03822 07-03-04 88 70 79 14 0 0 3.2 10 74 72
SAV 03822 07-04-04 91 73 82 17 0 0 4.8 12 76 73
SAV 03822 07-05-04 94 74 84 19 0 0 4.9 14 77 74
SAV 03822 07-06-04 77 4.5 14 77 74
SAV 03822 07-07-04 94 73 84 19 0 4.8 14 75 72
SAV 03822 07-08-04 92 70 81 16 0 0 2.2 12 74 71
SAV 03822 07-09-04 91 72 82 17 0 0.6 18 75 73
SAV 03822 07-10-04 93 73 83 18 0 0.31 1.7 22 75 73
SAV 03822 07-11-04 95 73 84 19 0 0.01 1.8 15 75 73
SAV 03822 07-12-04 92 74 83 18 0 0 1.7 12 76 73
SAV 03822 07-13-04 94 73 84 19 0 0 4.4 12 76 73
SAV 03822 07-14-04 96 76 86 21 0 0 8.1 18 77 74
SAV 03822 07-15-04 94 70 82 17 0 0.09 7.3 21 74 72
SAV 03822 07-16-04 90 68 79 14 0 0 5.8 14 71 67
SAV 03822 07-17-04 89 72 81 16 0 0.29 6.1 15 73 71
SAV 03822 07-18-04 87 72 80 15 0 0.59 5.8 18 74 72
SAV 03822 07-19-04 90 71 81 16 0 0.01 4.3 12 75 73
SAV 03822 07-20-04 93 71 82 17 0 0 3.8 16 74 70
SAV 03822 07-21-04 92 71 82 17 0 0 3.5 13 73 70
SAV 03822 07-22-04 92 70 81 16 0 0 3.1 13 73 70
SAV 03822 07-23-04 93 73 83 18 0 0 3.7 16 75 72
SAV 03822 07-24-04 92 75 84 19 0 0.14 2.8 21 77 75
SAV 03822 07-25-04 83 75 0.55 2.5 15 76 75
SAV 03822 07-26-04 89 72 81 16 0 3.1 15 75 74
SAV 03822 07-27-04 90 71 81 16 0 0 5.5 15 76 74
SAV 03822 07-28-04 91 73 82 17 0 0 4.6 16 76 74
SAV 03822 07-29-04 87 74 81 16 0 0.35 6.8 22 76 74
SAV 03822 07-30-04 90 73 82 17 0 0 7 15 75 72
SAV 03822 07-31-04 87 75 81 16 0 0.18 7.2 23 76 74
SAV 03822 08-01-04 90 74 82 17 0 0.07 9.6 29 76 75
SAV 03822 08-02-04 89 76 83 18 0 0.03 8.3 18 77 76
SAV 03822 08-03-04 92 75 84 19 0 0.04 5.7 13 77 75
SAV 03822 08-04-04 93 75 84 19 0 0 3.6 16 77 74
SAV 03822 08-05-04 75 0.01 3.6 15 76 73
SAV 03822 08-06-04 84 72 78 13 0 9.4 20 70 66
SAV 03822 08-07-04 82 62 0 8.6 17 62 55
SAV 03822 08-08-04 85 61 73 8 0 0 7 16 67 63
SAV 03822 08-09-04 86 65 76 11 0 0 5.8 13 69 65
SAV 03822 08-10-04 86 65 76 11 0 4 10 69 65
SAV 03822 08-11-04 80 72 76 11 0 0.15 4 12 73 72
SAV 03822 08-12-04 85 71 78 13 0 1.18 5.5 21 74 73
SAV 03822 08-13-04 76 72 74 9 0 0.5 4.6 13 73 72
SAV 03822 08-14-04 86 72 79 14 0 0.17 5.5 15 74 72
SAV 03822 08-15-04 86 72 79 14 0 0.01 4.1 17 75 73
SAV 03822 08-16-04 86 69 78 13 0 0 3.5 9 72 71
SAV 03822 08-17-04 86 70 78 13 0 0.01 3 13 74 73
SAV 03822 08-18-04 89 69 79 14 0 0 3.6 9 74 72
SAV 03822 08-19-04 91 72 82 17 0 0 4.6 12 75 73
SAV 03822 08-20-04 92 74 83 18 0 0 6.1 14 76 74
SAV 03822 08-21-04 87 73 80 15 0 6.9 18 74 72
SAV 03822 08-22-04 88 71 80 15 0 0.77 5.7 21 73 72
SAV 03822 08-23-04 87 71 79 14 0 0.6 3.9 23 73 72
SAV 03822 08-24-04 88 73 81 16 0 0 6 13 74 72
SAV 03822 08-25-04 88 72 80 15 0 0.01 7.9 23 73 70
SAV 03822 08-26-04 88 72 80 15 0 6.4 17 74 72
SAV 03822 08-27-04 88 72 80 15 0 0.13 6.8 14 72 69
SAV 03822 08-28-04 90 71 81 16 0 0.02 7.8 15 74 72
SAV 03822 08-29-04 92 74 83 18 0 0 8.9 17 74 71
SAV 03822 08-30-04 96 74 85 20 0 5.1 18 75 72
SAV 03822 08-31-04 94 74 84 19 0 0.01 4 16 74 71
SAV 03822 09-01-04 71 81 16 0 0.03 2.7 15 75 74
SAV 03822 09-02-04 86 73 80 15 0 0.44 6.4 15 75 74
SAV 03822 09-03-04 88 71 80 15 0 0 10.2 16 72 69
SAV 03822 09-04-04 87 70 79 14 0 11.1 20 73 71
SAV 03822 09-05-04 84 75 80 15 0 15.4 24 75 73
SAV 03822 09-06-04 82 72 77 12 0 2.03 18.2 32 71 69
SAV 03822 09-07-04 83 77 80 15 0 0.3 19.5 29 70 68
SAV 03822 09-08-04 89 75 82 17 0 0.04 9.2 21 75 72
SAV 03822 09-09-04 89 70 80 15 0 0 3.9 12 73 71
SAV 03822 09-10-04 83 74 79 14 0 0.03 4.6 13 75 74
SAV 03822 09-11-04 83 71 77 12 0 6.7 17 73 72
SAV 03822 09-12-04 84 68 76 11 0 0.01 8.1 16 71 70
SAV 03822 09-13-04 76 69 73 8 0 0.34 8.4 16 70 69
SAV 03822 09-14-04 80 69 75 10 0 0.05 8 15 71 70
SAV 03822 09-15-04 81 71 76 11 0 0.14 8.7 13 74 73
SAV 03822 09-16-04 85 77 81 16 0 0.17 12.9 23 77 76
SAV 03822 09-17-04 89 75 0.04 12.6 24 74 71
SAV 03822 09-18-04 86 66 76 11 0 0 7 13 68 64
SAV 03822 09-19-04 80 60 70 5 0 0 10.7 17 62 57
SAV 03822 09-20-04 76 59 0 14 21 60 55
SAV 03822 09-21-04 80 60 70 5 0 0 11.1 18 64 60
SAV 03822 09-22-04 84 62 73 8 0 0 7.2 15 64 58
SAV 03822 09-23-04 86 59 73 8 0 0 4.4 13 65 61
SAV 03822 09-24-04 85 63 74 9 0 0 9.6 20 67 63
SAV 03822 09-25-04 81 67 74 9 0 10.9 20 69 66
SAV 03822 09-26-04 77 72 75 10 0 0.43 15.3 24 0 70
SAV 03822 09-27-04 82 74 78 13 0 0.55 18.5 33 0 73
SAV 03822 09-28-04 88 71 80 15 0 0 10.2 18 71 67
SAV 03822 09-29-04 86 66 76 11 0 0 3.5 14 70 68
SAV 03822 09-30-04 86 70 78 13 0 0 2.2 8 73 71
SAV 03822 10-01-04 84 69 77 12 0 0.01 2.7 12 73 71
SAV 03822 10-02-04 87 68 78 13 0 0.01 2.3 14 72 71
SAV 03822 10-03-04 88 67 0 3.3 13 71 69
SAV 03822 10-04-04 86 66 76 11 0 0 3.7 10 67 62
SAV 03822 10-05-04 84 62 73 8 0 0.01 3.7 14 65 62
SAV 03822 10-06-04 82 63 73 8 0 0 7.2 16 66 63
SAV 03822 10-07-04 77 58 68 3 0 0 8.5 16 61 57
SAV 03822 10-08-04 70 58 64 0 1 0.72 8.8 18 62 60
SAV 03822 10-09-04 79 67 73 8 0 0.02 8 15 69 68
SAV 03822 10-10-04 77 69 73 8 0 1.36 6.1 15 69 68
SAV 03822 10-11-04 79 68 74 9 0 5.8 15 69 67
SAV 03822 10-12-04 80 69 75 10 0 0.02 4.2 12 70 68
SAV 03822 10-13-04 79 60 70 5 0 0 8.1 18 66 63
SAV 03822 10-14-04 75 56 66 1 0 0.01 7 17 60 56
SAV 03822 10-15-04 66 50 0.64 9 20 55 51
SAV 03822 10-16-04 75 46 61 0 4 0 5.6 16 54 49
SAV 03822 10-17-04 81 55 68 3 0 0 2.6 9 62 58
SAV 03822 10-18-04 77 60 69 4 0 0 4.3 14 67 65
SAV 03822 10-19-04 81 63 72 7 0 0.19 3.9 20 68 67
SAV 03822 10-20-04 76 65 71 6 0 0.01 4.8 13 68 67
SAV 03822 10-21-04 71 61 66 1 0 0 4.6 12 64 63
SAV 03822 10-22-04 73 60 67 2 0 0 8.4 16 61 58
SAV 03822 10-23-04 71 53 62 0 3 0 5.4 14 56 52
SAV 03822 10-24-04 67 51 59 0 6 0.04 1.1 9 59 57
SAV 03822 10-25-04 78 58 68 3 0 0 2.9 10 62 60
SAV 03822 10-26-04 73 56 65 0 0 0 4.1 12 61 59
SAV 03822 10-27-04 74 54 64 0 1 0 1.4 7 61 58
SAV 03822 10-28-04 75 62 69 4 0 0 4.9 10 66 64
SAV 03822 10-29-04 79 64 72 7 0 0 1.4 7 67 65
SAV 03822 11-01-04 83 65 74 9 0 0.01 4.2 13 69 67
SAV 03822 11-02-04 82 64 73 8 0 0 4.4 15 68 66
SAV 03822 11-03-04 65 0.01 3.4 10 69 67
SAV 03822 11-04-04 83 62 73 8 0 0.03 7.5 17 67 65
SAV 03822 11-05-04 69 47 58 0 7 0 6 15 54 49
SAV 03822 11-06-04 70 44 57 0 8 0.01 1.2 7 50 44
SAV 03822 11-07-04 72 41 57 0 8 0 2.9 10 50 45
SAV 03822 11-08-04 76 48 62 0 3 0 6.5 15 56 51
SAV 03822 11-09-04 63 48 56 0 9 0 11.1 21 48 38
SAV 03822 11-10-04 67 46 57 0 8 0 11.3 20 50 45
SAV 03822 11-11-04 74 55 65 0 0 6.1 13 60 58
SAV 03822 11-12-04 72 60 66 1 0 0.17 3.1 14 64 63
SAV 03822 11-13-04 64 53 59 0 6 0 11.3 21 56 54
SAV 03822 11-14-04 60 44 52 0 13 0 13.4 22 45 37
SAV 03822 11-15-04 62 38 50 0 15 0 7 14 42 33
SAV 03822 11-16-04 65 36 51 0 14 0 2.4 8 44 38
SAV 03822 11-17-04 69 37 53 0 12 0 2.5 10 45 38
SAV 03822 11-18-04 71 39 55 0 10 0 1.9 10 49 44
SAV 03822 11-19-04 74 47 61 0 4 0 2.8 14 57 54
SAV 03822 11-20-04 77 62 70 5 0 4.7 13 64 61
SAV 03822 11-21-04 72 64 68 3 0 0.01 1.8 9 66 65
SAV 03822 11-22-04 75 62 69 4 0 0.01 2.4 8 65 64
SAV 03822 11-23-04 77 62 70 5 0 0 4.3 12 64 62
SAV 03822 11-24-04 77 61 69 4 0 0.53 8.7 23 65 64
SAV 03822 11-25-04 69 43 56 0 9 12.1 25 52 47
SAV 03822 11-26-04 56 36 0 5.5 14 40 32
SAV 03822 11-27-04 60 44 52 0 13 0.34 7.4 14 49 47
SAV 03822 11-28-04 63 45 54 0 11 0 6.7 16 51 48
SAV 03822 11-29-04 65 43 54 0 11 0 6 12 50 47
SAV 03822 11-30-04 73 48 61 0 4 0 6.5 16 59 56
SAV 03822 12-01-04 67 40 54 0 11 0.01 8.1 20 53 48
SAV 03822 12-02-04 66 37 52 0 13 0 2.4 9 46 42
SAV 03822 12-03-04 62 36 49 0 16 0 4.6 12 43 36
SAV 03822 12-04-04 61 38 50 0 15 0 2.3 10 44 39
SAV 03822 12-05-04 64 35 50 0 15 0 1.5 9 46 41
SAV 03822 12-06-04 74 52 63 0 2 4.9 13 59 57
SAV 03822 12-07-04 77 57 67 2 0 0.01 8.1 18 65 63
SAV 03822 12-08-04 74 65 70 5 0 2.5 8 67 66
SAV 03822 12-09-04 63 0 8 16 67 65
SAV 03822 12-10-04 75 57 66 1 0 0.34 10.2 20 61 55
SAV 03822 12-11-04 57 43 50 0 15 0 10.5 22 44 36
SAV 03822 12-12-04 56 38 47 0 18 0 6.8 15 42 37
SAV 03822 12-13-04 65 44 55 0 10 0 8.1 20 46 38
SAV 03822 12-14-04 74 33 54 0 11 0 9.8 20 34 24
SAV 03822 12-15-04 47 27 37 0 28 0 7.1 20 30 19
SAV 03822 12-16-04 56 25 41 0 24 0 4.3 13 34 25
SAV 03822 12-17-04 61 42 52 0 13 0 2.8 10 43 36
SAV 03822 12-18-04 63 35 49 0 16 0 2.6 12 41 34
SAV 03822 12-19-04 59 32 46 0 19 10.6 28 39 30
SAV 03822 12-20-04 41 26 34 0 31 0 8.1 24 25 9
SAV 03822 12-21-04 60 24 42 0 23 0 2.3 10 35 27
SAV 03822 12-22-04 71 38 55 0 10 7.6 23 53 50
SAV 03822 12-23-04 76 44 60 0 5 0.05 12.3 21 59 56
SAV 03822 12-24-04 45 36 41 0 24 0.01 8.6 17 37 33
SAV 03822 12-25-04 41 34 38 0 27 0.29 11.4 21 34 27
SAV 03822 12-26-04 41 27 1.06 11.9 26 33 31
SAV 03822 12-27-04 50 26 38 0 27 0 6.5 15 33 26
SAV 03822 12-28-04 55 29 42 0 23 0 4.9 9 37 31
SAV 03822 12-29-04 64 32 48 0 17 0 2.3 12 43 40
SAV 03822 12-30-04 66 35 51 0 14 0 1.7 9 45 41
SAV 03822 12-31-04 68 42 55 0 10 0 0.6 6 50 46
SAV 03822 01-01-05 69 44 57 0 8 0 2.3 9 52 50
SAV 03822 01-02-05 73 47 60 0 5 0 2.9 14 56 54
SAV 03822 01-03-05 74 50 62 0 3 0 2.2 9 56 51
SAV 03822 01-04-05 75 50 63 0 2 0 1.9 8 56 54
SAV 03822 01-05-05 75 47 61 0 4 0.01 4 13 57 55
SAV 03822 01-06-05 77 56 67 2 0 0 7 20 61 57
SAV 03822 01-07-05 75 53 64 0 1 0 2.8 12 60 58
SAV 03822 01-08-05 58 0 5.6 14 63 61
SAV 03822 01-09-05 71 51 61 0 4 2.7 10 61 59
SAV 03822 01-10-05 72 51 62 0 3 0.01 3.8 13 55 52
SAV 03822 01-11-05 70 48 59 0 6 0 2.7 9 54 52
SAV 03822 01-12-05 77 51 64 0 1 0.01 4.4 14 59 58
SAV 03822 01-13-05 74 53 64 0 1 0.05 12.6 28 64 63
SAV 03822 01-14-05 70 47 59 0 6 0.64 12.4 25 55 52
SAV 03822 01-15-05 49 41 45 0 20 0 13.8 22 39 31
SAV 03822 01-16-05 54 34 44 0 21 10.1 21 38 30
SAV 03822 01-17-05 45 28 37 0 28 0 10 21 31 21
SAV 03822 01-18-05 41 26 0 6.9 15 26 13
SAV 03822 01-19-05 49 23 36 0 29 0 4.3 12 31 19
SAV 03822 01-20-05 59 35 47 0 18 0 5.3 13 38 28
SAV 03822 01-21-05 69 38 54 0 11 0 7.8 17 46 39
SAV 03822 01-22-05 66 45 56 0 9 9.5 36 51 47
SAV 03822 01-23-05 51 27 39 0 26 0 16 32 28 12
SAV 03822 01-24-05 48 21 35 0 30 0 5.4 10 27 10
SAV 03822 01-25-05 60 34 47 0 18 0 5.6 12 36 21
SAV 03822 01-26-05 67 39 53 0 12 8 18 50 44
SAV 03822 01-27-05 58 42 50 0 15 0 10.2 23 45 40
SAV 03822 01-28-05 42 33 38 0 27 0 15.8 23 29 14
SAV 03822 01-29-05 41 31 36 0 29 0.52 9.4 18 35 32
SAV 03822 01-30-05 53 38 46 0 19 0.21 8.6 16 42 40
SAV 03822 01-31-05 55 38 47 0 18 0 7.9 15 40 33
SAV 03822 02-01-05 48 42 45 0 20 9 15 40 33
SAV 03822 02-02-05 46 41 44 0 21 0.15 10 16 40 37
SAV 03822 02-03-05 46 42 44 0 21 0.3 8.6 20 43 42
SAV 03822 02-04-05 56 36 46 0 19 0 8.5 22 41 36
SAV 03822 02-05-05 62 33 48 0 17 0 5.1 17 41 35
SAV 03822 02-06-05 63 36 50 0 15 0 5.9 14 44 38
SAV 03822 02-07-05 66 40 53 0 12 0 3.8 9 43 35
SAV 03822 02-08-05 73 35 54 0 11 0 2.4 12 45 39
SAV 03822 02-09-05 68 48 58 0 7 0.15 3.9 13 54 51
SAV 03822 02-10-05 59 39 49 0 16 0.01 14.2 28 45 37
SAV 03822 02-11-05 55 30 0 9.4 23 34 21
SAV 03822 02-12-05 64 28 46 0 19 0 7.1 22 39 26
SAV 03822 02-13-05 67 35 51 0 14 0 3.7 13 43 35
SAV 03822 02-14-05 69 43 56 0 9 0.03 4.6 20 53 50
SAV 03822 02-15-05 62 48 55 0 10 0.01 2.2 8 53 53
SAV 03822 02-16-05 73 51 62 0 3 0.01 6.3 17 58 56
SAV 03822 02-17-05 64 47 56 0 9 0 10 21 50 42
SAV 03822 02-18-05 58 34 46 0 19 0 6.7 17 36 21
SAV 03822 02-19-05 64 28 46 0 19 0 1.9 15 39 28
SAV 03822 02-20-05 68 41 55 0 10 0 4.3 18 49 45
SAV 03822 02-21-05 77 55 66 1 0 8.2 16 60 55
SAV 03822 02-22-05 56 0 4.3 14 61 57
SAV 03822 02-23-05 79 52 66 1 0 4.6 16 57 53
SAV 03822 02-24-05 74 51 63 0 2 0.11 8.1 17 59 57
SAV 03822 02-25-05 51 44 48 0 17 0.03 8.8 15 45 42
SAV 03822 02-26-05 60 39 50 0 15 8.5 17 44 36
SAV 03822 02-27-05 55 47 51 0 14 1.16 13 31 49 48
SAV 03822 02-28-05 59 47 53 0 12 0.02 9 17 49 47
SAV 03822 03-01-05 57 38 48 0 17 0 13.2 26 41 30
SAV 03822 03-02-05 55 30 43 0 22 0 8.4 20 34 19
SAV 03822 03-03-05 53 31 42 0 23 0 2.9 10 37 26
SAV 03822 03-04-05 63 30 47 0 18 0 4.4 15 40 30
SAV 03822 03-05-05 74 39 57 0 8 0.02 9.7 28 48 39
SAV 03822 03-06-05 67 35 51 0 14 0 4.4 14 45 37
SAV 03822 03-07-05 75 37 56 0 9 8.5 17 49 41
SAV 03822 03-08-05 64 43 54 0 11 0.33 14 36 47 38
SAV 03822 03-09-05 47 35 0 2.8 13 37 29
SAV 03822 03-10-05 60 37 49 0 16 0 7.1 17 41 32
SAV 03822 03-11-05 67 40 54 0 11 9.5 25 45 34
SAV 03822 03-12-05 76 40 58 0 7 0 11.3 25 46 29
SAV 03822 03-13-05 81 56 69 4 0 0 11.2 18 55 45
SAV 03822 03-14-05 78 53 66 1 0 0.14 9 20 60 56
SAV 03822 03-15-05 61 49 55 0 10 10.1 16 48 42
SAV 03822 03-16-05 55 44 50 0 15 1.22 9.6 20 50 49
SAV 03822 03-17-05 44 40 42 0 23 0.02 10.4 16 41 40
SAV 03822 03-18-05 50 39 45 0 20 6.1 15 42 39
SAV 03822 03-19-05 66 35 51 0 14 0 4.1 13 46 40
SAV 03822 03-20-05 71 38 55 0 10 0 5 17 49 43
SAV 03822 03-21-05 72 53 63 0 2 0 6.1 15 55 51
SAV 03822 03-22-05 69 58 64 0 1 1.33 8.9 20 61 59
SAV 03822 03-23-05 80 60 0.03 9.8 17 61 56
SAV 03822 03-24-05 76 50 63 0 2 0 6.6 15 55 48
SAV 03822 03-25-05 71 50 61 0 4 1.21 3.9 14 59 57
SAV 03822 03-26-05 70 60 65 0 0 0.17 7.4 16 62 61
SAV 03822 03-27-05 67 62 65 0 0 2.57 10.5 24 63 63
SAV 03822 03-28-05 69 50 60 0 5 14.3 25 55 50
SAV 03822 03-29-05 76 51 64 0 1 0 7.3 16 54 47
SAV 03822 03-30-05 49 66 1 0 0 4.6 17 56 50
SAV 03822 03-31-05 76 55 66 1 0 0.02 4.9 25 61 58
SAV 03822 04-01-05 72 59 66 1 0 0.65 7.1 30 62 60
SAV 03822 04-02-05 64 52 58 0 7 0.27 15.4 31 51 41
SAV 03822 04-03-05 70 45 58 0 7 0 10.3 21 47 35
SAV 03822 04-04-05 80 44 62 0 3 0 4.9 15 52 42
SAV 03822 04-05-05 82 47 65 0 0 0 4.5 16 55 47
SAV 03822 04-06-05 77 50 64 0 1 0 9.2 23 60 56
SAV 03822 04-07-05 71 61 66 1 0 0.92 9.9 23 62 61
SAV 03822 04-08-05 70 57 64 0 1 0.01 4.3 9 60 59
SAV 03822 04-09-05 71 53 62 0 3 0 7.6 18 59 56
SAV 03822 04-10-05 76 51 64 0 1 0 5 14 54 47
SAV 03822 04-11-05 75 45 60 0 5 0 3.8 14 53 47
SAV 03822 04-12-05 74 51 63 0 2 0.07 7.1 23 61 59
SAV 03822 04-13-05 76 56 66 1 0 8.3 18 60 56
SAV 03822 04-14-05 61 47 54 0 11 10.3 21 48 44
SAV 03822 04-15-05 71 45 58 0 7 0 11.5 26 47 35
SAV 03822 04-16-05 68 43 56 0 9 0 10.7 24 43 28
SAV 03822 04-17-05 72 39 56 0 9 0 6.1 16 45 33
SAV 03822 04-18-05 79 38 59 0 6 0 4.6 15 49 40
SAV 03822 04-19-05 82 46 64 0 1 0 5.3 15 55 46
SAV 03822 04-20-05 81 50 66 1 0 0 5.8 15 58 52
SAV 03822 04-21-05 83 52 68 3 0 0 5.1 16 59 53
SAV 03822 04-22-05 55 70 5 0 0.73 7.8 24 61 58
SAV 03822 04-23-05 74 52 63 0 2 0.01 11 24 57 51
SAV 03822 04-24-05 61 42 0 11.2 26 43 33
SAV 03822 04-25-05 68 39 54 0 11 5.7 15 46 36
SAV 03822 04-26-05 68 53 61 0 4 0.01 5.9 16 58 55
SAV 03822 04-27-05 76 57 67 2 0 0.03 10.6 24 57 48
SAV 03822 04-28-05 72 43 58 0 7 0 3.9 15 50 43
SAV 03822 04-29-05 81 48 65 0 0 0 8.9 18 59 55
SAV 03822 04-30-05 78 63 0.26 8.5 25 64 63
SAV 03822 05-01-05 75 60 68 3 0 0.02 4.8 14 62 60
SAV 03822 05-02-05 79 54 67 2 0 0 3 14 59 54
SAV 03822 05-03-05 78 48 63 0 2 0 3.9 13 56 50
SAV 03822 05-04-05 77 54 66 1 0 0 7.6 18 60 56
SAV 03822 05-05-05 66 58 62 0 3 1.21 13.5 25 60 59
SAV 03822 05-06-05 71 51 61 0 4 0.05 8.1 21 56 53
SAV 03822 05-07-05 79 48 64 0 1 0 4.8 15 56 51
SAV 03822 05-08-05 85 52 69 4 0 0 5 10 60 54
SAV 03822 05-09-05 85 57 71 6 0 0 5.8 12 63 57
SAV 03822 05-10-05 85 60 73 8 0 0.02 5.5 18 64 60
SAV 03822 05-11-05 82 59 71 6 0 0 3.3 12 64 60
SAV 03822 05-12-05 85 58 72 7 0 0 3.1 13 65 62
SAV 03822 05-13-05 84 60 72 7 0 0 4.6 16 66 63
SAV 03822 05-14-05 83 62 73 8 0 0 5.2 15 67 64
SAV 03822 05-15-05 86 60 73 8 0 6.9 15 66 62
SAV 03822 05-16-05 86 61 74 9 0 0.04 5.1 14 67 64
SAV 03822 05-17-05 85 65 75 10 0 0.21 5.4 21 68 66
SAV 03822 05-18-05 79 64 72 7 0 0.77 6 15 68 66
SAV 03822 05-19-05 84 61 73 8 0 0 4.4 16 66 63
SAV 03822 05-20-05 87 64 76 11 0 0.83 5.5 38 67 65
SAV 03822 05-21-05 67 55 0.12 8.1 18 60 58
SAV 03822 05-22-05 80 51 66 1 0 0 5.4 15 61 57
SAV 03822 05-23-05 65 77 12 0 0.04 9.2 18 69 64
SAV 03822 05-24-05 89 66 10.5 21 66 58
SAV 03822 05-25-05 76 55 66 1 0 0 7.2 18 56 49
SAV 03822 05-26-05 82 52 67 2 0 0 4.6 13 59 53
SAV 03822 05-27-05 85 58 72 7 0 0 7.7 15 63 57
SAV 03822 05-28-05 89 64 77 12 0 0 5.7 13 68 64
SAV 03822 05-29-05 84 67 76 11 0 0.03 6.4 15 69 65
SAV 03822 05-30-05 84 69 77 12 0 0.04 4.8 15 71 69
SAV 03822 05-31-05 73 68 71 6 0 0.5 8.8 15 68 67
SAV 03822 06-01-05 81 70 76 11 0 0.01 9.8 18 72 70
SAV 03822 06-02-05 86 69 78 13 0 0.55 6.5 18 73 71
SAV 03822 06-03-05 82 69 76 11 0 0.29 6.7 17 72 71
SAV 03822 06-04-05 85 72 79 14 0 0.03 5.5 15 73 71
SAV 03822 06-05-05 87 72 80 15 0 0.03 3.7 14 73 71
SAV 03822 06-06-05 89 70 80 15 0 1.37 3 29 73 71
SAV 03822 06-07-05 88 68 78 13 0 0 3.5 12 73 71
SAV 03822 06-08-05 87 73 80 15 0 4.3 14 74 72
SAV 03822 06-09-05 88 71 80 15 0 6 17 74 72
SAV 03822 06-10-05 83 72 78 13 0 0.31 7.8 21 73 71
SAV 03822 06-11-05 83 74 79 14 0 0.23 12.2 23 74 72
SAV 03822 06-12-05 83 76 80 15 0 0.24 11.3 20 75 74
SAV 03822 06-13-05 87 73 80 15 0 6.2 14 75 74
SAV 03822 06-14-05 92 73 83 18 0 0 4.1 16 75 73
SAV 03822 06-15-05 73 0 5.9 12 76 73
SAV 03822 06-16-05 93 70 82 17 0 0 5.7 18 72 67
SAV 03822 06-17-05 93 67 80 15 0 0 3.7 12 71 66
SAV 03822 06-18-05 86 69 78 13 0 0.35 4.6 18 71 69
SAV 03822 06-19-05 84 65 75 10 0 0.01 6.7 22 67 65
SAV 03822 06-20-05 84 65 75 10 0 0 8 15 67 63
SAV 03822 06-21-05 83 63 0 5.3 14 67 64
SAV 03822 06-22-05 90 64 77 12 0 0 3.8 14 69 65
SAV 03822 06-23-05 92 69 81 16 0 0 4.7 17 71 67
SAV 03822 06-24-05 87 68 78 13 0 0 8.1 17 72 69
SAV 03822 06-25-05 77 71 74 9 0 0.62 10.9 18 72 71
SAV 03822 06-26-05 89 71 80 15 0 0.01 5.1 13 75 73
SAV 03822 06-27-05 88 75 82 17 0 0.2 5.1 18 77 75
SAV 03822 06-28-05 82 74 78 13 0 1.9 3.8 14 75 75
SAV 03822 06-29-05 81 74 78 13 0 0.45 2.5 13 75 74
SAV 03822 06-30-05 91 73 82 17 0 4.4 13 75 73
SAV 03822 07-01-05 94 75 85 20 0 0.02 5.8 13 77 75
SAV 03822 07-02-05 93 73 83 18 0 0.01 4.4 13 76 73
SAV 03822 07-03-05 93 73 83 18 0 0.01 4.8 17 76 74
SAV 03822 07-04-05 90 73 82 17 0 0.02 4.3 16 77 75
SAV 03822 07-05-05 91 74 83 18 0 0.25 3.7 18 76 74
SAV 03822 07-06-05 95 72 84 19 0 0 4.8 10 76 73
SAV 03822 07-07-05 94 75 85 20 0 0.18 8.7 23 77 74
SAV 03822 07-08-05 91 71 81 16 0 0 3.1 12 75 72
SAV 03822 07-09-05 87 76 82 17 0 0.34 6.8 20 76 75
SAV 03822 07-10-05 86 78 82 17 0 0.02 10.5 20 78 76
SAV 03822 07-11-05 90 76 83 18 0 0.06 9.1 17 77 75
SAV 03822 07-12-05 93 73 83 18 0 0 4.3 12 76 74
SAV 03822 07-13-05 93 72 83 18 0 1.07 6.6 26 75 73
SAV 03822 07-14-05 91 72 82 17 0 0.02 3.5 21 74 72
SAV 03822 07-15-05 91 72 82 17 0 0 4 14 75 72
SAV 03822 07-16-05 92 72 82 17 0 0.89 2.9 17 75 72
SAV 03822 07-17-05 92 73 83 18 0 0 2.8 14 76 74
SAV 03822 07-18-05 92 74 83 18 0 0 3.9 15 76 74
SAV 03822 07-19-05 93 72 83 18 0 0 3.8 14 75 73
SAV 03822 07-20-05 94 74 84 19 0 0 4.6 14 76 74
SAV 03822 07-21-05 95 75 85 20 0 0 2.9 16 77 75
SAV 03822 07-22-05 95 74 85 20 0 0 4.2 17 76 74
SAV 03822 07-23-05 95 74 85 20 0 0.02 6 15 77 74
SAV 03822 07-24-05 93 73 83 18 0 0 4.8 15 75 73
SAV 03822 07-25-05 91 72 82 17 0 0 2.6 7 74 71
SAV 03822 07-26-05 96 74 85 20 0 0 5.1 9 76 73
SAV 03822 07-27-05 75 0.37 4.5 20 77 74
SAV 03822 07-28-05 96 76 86 21 0 0.31 3.7 24 77 75
SAV 03822 07-29-05 91 75 83 18 0 0 5.9 16 76 74
SAV 03822 07-30-05 91 72 82 17 0 3.7 16 75 73
SAV 03822 07-31-05 89 73 0.29 4.7 13 74 73
SAV 03822 08-01-05 86 73 80 15 0 0.02 6.8 14 74 72
SAV 03822 08-02-05 88 73 81 16 0 4.7 20 74 72
SAV 03822 08-03-05 91 72 82 17 0 0 5.4 14 73 70
SAV 03822 08-04-05 90 69 80 15 0 0 4.6 13 73 70
SAV 03822 08-05-05 90 73 82 17 0 0 6.6 17 74 71
SAV 03822 08-06-05 86 74 80 15 0 0.8 6.3 16 74 73
SAV 03822 08-07-05 87 74 81 16 0 0 6.8 17 75 73
SAV 03822 08-08-05 86 74 80 15 0 0.85 4.7 14 75 74
SAV 03822 08-09-05 87 74 81 16 0 0 3.5 13 75 73
SAV 03822 08-10-05 89 73 81 16 0 2.1 13 75 74
SAV 03822 08-11-05 90 74 82 17 0 3.5 9 76 74
SAV 03822 08-12-05 91 74 83 18 0 0.69 1 14 77 75
SAV 03822 08-13-05 91 75 83 18 0 0.17 3 21 77 75
SAV 03822 08-14-05 91 74 83 18 0 3.9 10 76 74
SAV 03822 08-15-05 96 74 85 20 0 0 2.6 15 77 75
SAV 03822 08-16-05 94 75 85 20 0 0 3.8 13 78 75
SAV 03822 08-17-05 95 76 86 21 0 0 3.6 9 78 75
SAV 03822 08-18-05 95 75 85 20 0 0.04 4.5 14 77 74
SAV 03822 08-19-05 0 74 83 18 0 0.01 3.7 13 77 75
SAV 03822 08-20-05 97 74 86 21 0 0 4.4 13 77 75
SAV 03822 08-21-05 77 0 4.4 12 79 77
SAV 03822 08-22-05 95 75 85 20 0 1.74 4.3 23 76 75
SAV 03822 08-23-05 91 74 83 18 0 0 2.3 17 76 74
SAV 03822 08-24-05 92 73 83 18 0 0.09 4.3 29 76 74
SAV 03822 08-25-05 86 73 80 15 0 11.5 23 73 71
SAV 03822 08-26-05 82 73 0.1 9.5 15 73 72
SAV 03822 08-27-05 86 75 81 16 0 0.08 2.5 15 76 75
SAV 03822 08-28-05 90 74 82 17 0 0.01 4.5 12 76 74
SAV 03822 08-29-05 90 74 82 17 0 0.06 6.2 15 77 76
SAV 03822 08-30-05 92 76 84 19 0 0.24 7.2 23 78 76
SAV 03822 08-31-05 90 76 83 18 0 0.42 4.5 17 77 75
SAV 03822 09-01-05 92 75 84 19 0 0 2.4 7 75 73
SAV 03822 09-02-05 91 70 81 16 0 0 4.8 13 72 68
SAV 03822 09-03-05 90 68 79 14 0 0 4.4 15 70 66
SAV 03822 09-04-05 90 67 79 14 0 6.9 18 70 65
SAV 03822 09-05-05 85 68 77 12 0 11 20 68 63
SAV 03822 09-06-05 84 69 77 12 0 13.6 22 69 66
SAV 03822 09-07-05 84 67 76 11 0 14 22 70 67
SAV 03822 09-08-05 86 71 79 14 0 0 12.2 22 69 65
SAV 03822 09-09-05 89 68 79 14 0 0 12.2 22 69 65
SAV 03822 09-10-05 89 63 76 11 0 0 8.6 17 65 60
SAV 03822 09-11-05 89 61 0 10 23 67 62
SAV 03822 09-12-05 88 69 79 14 0 0 11.8 18 69 64
SAV 03822 09-13-05 90 70 80 15 0 0 11.5 21 70 64
SAV 03822 09-14-05 94 71 83 18 0 0 7.5 21 72 67
SAV 03822 09-15-05 95 69 82 17 0 0 3.1 10 71 66
SAV 03822 09-16-05 70 84 19 0 4.4 14 73 69
SAV 03822 09-17-05 95 72 84 19 0 3.2 12 75 72
SAV 03822 09-18-05 95 73 0.3 3.2 15 76 74
SAV 03822 09-19-05 91 70 81 16 0 0 3.3 14 74 72
SAV 03822 09-20-05 88 70 79 14 0 0 5.4 13 73 71
SAV 03822 09-21-05 88 71 80 15 0 0.02 7.5 22 74 72
SAV 03822 09-22-05 88 70 79 14 0 0 6.4 17 73 71
SAV 03822 09-23-05 90 69 80 15 0 0 4.9 13 74 71
SAV 03822 09-24-05 88 69 79 14 0 0 4.7 14 72 69
SAV 03822 09-25-05 88 67 78 13 0 0 4.9 15 71 69
SAV 03822 09-26-05 91 65 78 13 0 0 4 12 71 68
SAV 03822 09-27-05 82 72 77 12 0 2.4 10 73 71
SAV 03822 09-28-05 87 69 78 13 0 0 6.7 16 71 69
SAV 03822 09-29-05 91 65 78 13 0 0 4 13 71 68
SAV 03822 09-30-05 87 68 78 13 0 0.16 6.2 17 72 71
SAV 03822 10-01-05 68 78 13 0 10.1 18 71 69
SAV 03822 10-02-05 86 70 78 13 0 0.16 11.2 23 73 71
SAV 03822 10-03-05 85 68 77 12 0 10 17 71 68
SAV 03822 10-04-05 82 73 78 13 0 12.5 21 72 70
SAV 03822 10-05-05 76 71 74 9 0 3.35 15.8 30 72 71
SAV 03822 10-06-05 87 75 1.59 10.7 28 76 75
SAV 03822 10-07-05 80 74 77 12 0 1.22 5.4 26 75 74
SAV 03822 10-08-05 81 69 75 10 0 0 3.7 9 72 71
SAV 03822 10-09-05 83 67 75 10 0 0.01 1.8 8 72 71
SAV 03822 10-10-05 76 70 73 8 0 0 7.7 12 71 70
SAV 03822 10-11-05 78 68 73 8 0 7.9 12 69 67
SAV 03822 10-12-05 74 68 71 6 0 0.01 10.4 16 68 67
SAV 03822 10-13-05 76 62 69 4 0 6.5 16 64 62
SAV 03822 10-14-05 82 60 71 6 0 0 4.6 15 64 61
SAV 03822 10-15-05 81 57 69 4 0 0 4.2 14 61 57
SAV 03822 10-16-05 81 54 68 3 0 0 2.8 13 59 55
SAV 03822 10-17-05 79 51 65 0 0 0 2.6 10 56 51
SAV 03822 10-18-05 82 50 66 1 0 0 2.7 10 59 55
SAV 03822 10-19-05 86 53 70 5 0 0 2.9 8 62 57
SAV 03822 10-20-05 84 55 70 5 0 0 2.3 10 64 61
SAV 03822 10-21-05 87 61 74 9 0 0.44 4 18 70 68
SAV 03822 10-22-05 84 61 73 8 0 0 5.3 15 67 64
SAV 03822 10-23-05 71 55 63 0 2 7.6 14 56 50
SAV 03822 10-24-05 67 48 58 0 7 0.36 10.7 24 52 47
SAV 03822 10-25-05 61 40 0 9.8 22 44 37
SAV 03822 10-26-05 66 38 52 0 13 0 2.3 9 45 40
SAV 03822 10-27-05 68 41 55 0 10 0 3 10 50 46
SAV 03822 10-28-05 68 45 57 0 8 0 5.5 15 51 46
SAV 03822 10-29-05 65 41 53 0 12 0 4 15 46 40
SAV 03822 10-30-05 69 38 54 0 11 0 2.1 12 46 40
SAV 03822 10-31-05 75 38 57 0 8 0 3.4 9 51 47
SAV 03822 11-01-05 79 54 67 2 0 3.3 10 0 0
SAV 03822 11-02-05 77 51 64 0 1 0 3.9 16 58 55
SAV 03822 11-03-05 75 45 60 0 5 0 2.8 9 53 49
SAV 03822 11-04-05 76 46 61 0 4 0 2.3 9 54 50
SAV 03822 11-05-05 77 47 62 0 3 0 1.4 8 56 53
SAV 03822 11-06-05 80 50 65 0 0 0 1.2 9 59 57
SAV 03822 11-07-05 84 56 70 5 0 0.01 1.8 8 63 60
SAV 03822 11-08-05 83 54 69 4 0 0 1.2 7 60 57
SAV 03822 11-09-05 82 51 67 2 0 0 3.8 8 61 58
SAV 03822 11-10-05 79 45 62 0 3 0 8 17 56 49
SAV 03822 11-11-05 67 41 54 0 11 0 5.6 14 44 35
SAV 03822 11-12-05 72 39 56 0 9 0 5 14 52 47
SAV 03822 11-13-05 79 50 65 0 0 0 3.6 12 58 55
SAV 03822 11-14-05 78 51 65 0 0 5.3 14 62 60
SAV 03822 11-15-05 81 61 0 5.7 14 66 64
SAV 03822 11-16-05 83 53 68 3 0 7.7 17 65 62
SAV 03822 11-17-05 63 38 51 0 14 0 10.1 17 44 34
SAV 03822 11-18-05 58 37 48 0 17 0 10.5 16 38 26
SAV 03822 11-19-05 63 33 48 0 17 8.3 14 46 41
SAV 03822 11-20-05 65 52 59 0 6 0.82 7.8 14 56 55
SAV 03822 11-21-05 63 48 56 0 9 1.93 9.6 22 57 56
SAV 03822 11-22-05 60 41 51 0 14 0 13.8 25 43 34
SAV 03822 11-23-05 58 36 0 7.5 15 40 30
SAV 03822 11-24-05 74 48 61 0 4 0 8.7 18 52 45
SAV 03822 11-25-05 65 46 56 0 9 0 5.7 12 48 41
SAV 03822 11-26-05 62 41 52 0 13 6.9 13 48 43
SAV 03822 11-27-05 72 54 63 0 2 0 5.6 13 58 56
SAV 03822 11-28-05 74 57 66 1 0 0.08 7.5 17 64 63
SAV 03822 11-29-05 80 59 70 5 0 9 17 64 61
SAV 03822 11-30-05 62 40 51 0 14 0 5.4 12 45 39
SAV 03822 12-01-05 63 37 50 0 15 0 6.7 15 41 31
SAV 03822 12-02-05 57 33 45 0 20 0 6.4 17 39 31
SAV 03822 12-03-05 63 30 47 0 18 0 3.4 13 43 39
SAV 03822 12-04-05 68 53 61 0 4 0.25 6.7 12 55 52
SAV 03822 12-05-05 70 52 0.42 25 58 57
SAV 03822 12-06-05 57 38 48 0 17 6.9 21 43 39
SAV 03822 12-07-05 57 39 48 0 17 8.4 17 44 39
SAV 03822 12-08-05 60 49 55 0 10 0.77 10.5 18 54 53
SAV 03822 12-09-05 60 41 51 0 14 0.07 9.3 20 48 44
SAV 03822 12-10-05 62 35 49 0 16 0 4.5 13 44 39
SAV 03822 12-11-05 54 37 46 0 19 0 6.9 15 42 36
SAV 03822 12-12-05 62 36 49 0 16 0 6.3 16 42 34
SAV 03822 12-13-05 57 35 46 0 19 0 5 12 39 32
SAV 03822 12-14-05 53 36 45 0 20 0 10.2 16 40 34
SAV 03822 12-15-05 62 44 53 0 12 0.13 8.1 21 51 49
SAV 03822 12-16-05 57 35 46 0 19 0 5.4 16 40 34
SAV 03822 12-17-05 49 34 42 0 23 0.64 7.5 17 42 39
SAV 03822 12-18-05 49 42 46 0 19 0.19 10.3 17 44 42
SAV 03822 12-19-05 60 39 50 0 15 0 5.1 14 43 40
SAV 03822 12-20-05 59 36 48 0 17 0 2.8 10 42 39
SAV 03822 12-21-05 54 30 42 0 23 0 4.8 12 36 29
SAV 03822 12-22-05 54 26 0 2.8 13 32 24
SAV 03822 12-23-05 59 22 41 0 24 0 1.6 9 33 26
SAV 03822 12-24-05 62 25 44 0 21 0 2.5 12 40 35
SAV 03822 12-25-05 69 47 58 0 7 0.02 10.7 23 53 47
SAV 03822 12-26-05 56 33 45 0 20 0 9.9 24 43 36
SAV 03822 12-27-05 63 31 47 0 18 0 3.9 12 40 35
SAV 03822 12-28-05 65 34 50 0 15 0.01 8.7 20 48 45
SAV 03822 12-29-05 63 44 54 0 11 0.2 8.6 21 50 45
SAV 03822 12-30-05 63 34 49 0 16 0 4.5 13 44 39
SAV 03822 12-31-05 44 57 0 8 5.4 15 54 52
SAV 03822 01-01-06 64 48 56 0 9 0.09 3.3 9 51 46
SAV 03822 01-02-06 65 54 60 0 5 1.01 8.4 20 61 61
SAV 03822 01-03-06 68 47 58 0 7 0 8.8 21 56 51
SAV 03822 01-04-06 66 39 53 0 12 0 2.4 9 48 45
SAV 03822 01-05-06 72 44 58 0 7 0 6.5 21 52 48
SAV 03822 01-06-06 54 38 46 0 19 0 9.2 17 40 31
SAV 03822 01-07-06 50 31 0 6.8 15 35 26
SAV 03822 01-08-06 64 29 47 0 18 0 5.8 13 41 36
SAV 03822 01-09-06 71 42 57 0 8 0 5.3 12 50 45
SAV 03822 01-10-06 73 38 56 0 9 0 3.8 14 51 46
SAV 03822 01-11-06 76 52 64 0 1 0 3.8 13 58 56
SAV 03822 01-12-06 75 47 61 0 4 0 3.4 12 57 54
SAV 03822 01-13-06 71 50 61 0 4 0.39 7.9 25 58 56
SAV 03822 01-14-06 54 37 46 0 19 17.9 29 39 28
SAV 03822 01-15-06 60 31 46 0 19 0 5.5 15 37 26
SAV 03822 01-16-06 63 46 55 0 10 0 4.9 10 45 35
SAV 03822 01-17-06 72 49 61 0 4 0.04 11 23 55 51
SAV 03822 01-18-06 56 32 44 0 21 0.1 11.3 29 40 31
SAV 03822 01-19-06 61 29 45 0 20 0 2.4 14 38 30
SAV 03822 01-20-06 70 35 53 0 12 0 3.3 12 48 43
SAV 03822 01-21-06 48 63 0 2 0 3.2 15 59 57
SAV 03822 01-22-06 65 56 61 0 4 0 5.8 14 59 59
SAV 03822 01-23-06 74 54 0.73 16 61 60
SAV 03822 01-24-06 70 51 61 0 4 0.02 7.5 17 56 51
SAV 03822 01-25-06 62 44 53 0 12 0 10.6 23 41 26
SAV 03822 01-26-06 59 31 45 0 20 0 4.5 12 36 24
SAV 03822 01-27-06 55 34 45 0 20 0 6.9 13 39 30
SAV 03822 01-28-06 65 37 51 0 14 0 5.3 14 47 43
SAV 03822 01-29-06 65 45 55 0 10 6.9 15 56 54
SAV 03822 01-30-06 69 56 63 0 2 0.53 6.9 17 60 58
SAV 03822 01-31-06 63 39 51 0 14 0.03 9.7 26 44 35
SAV 03822 02-01-06 65 32 49 0 16 0 2.8 12 41 33
SAV 03822 02-02-06 64 38 51 0 14 2.07 6.7 20 51 49
SAV 03822 02-03-06 64 57 61 0 4 0.03 5 22 58 57
SAV 03822 02-04-06 67 45 56 0 9 0.05 13.1 22 54 48
SAV 03822 02-05-06 54 38 46 0 19 0 10.2 22 36 22
SAV 03822 02-06-06 61 29 45 0 20 0 4.7 14 40 31
SAV 03822 02-07-06 58 37 48 0 17 0.02 7.1 16 46 42
SAV 03822 02-08-06 57 29 43 0 22 0 5.8 17 36 25
SAV 03822 02-09-06 56 30 43 0 22 0 8.2 24 37 28
SAV 03822 02-10-06 60 26 43 0 22 0 3.4 14 39 33
SAV 03822 02-11-06 54 40 47 0 18 0.24 9 23 47 44
SAV 03822 02-12-06 49 33 41 0 24 0 11.5 22 34 24
SAV 03822 02-13-06 48 28 0 7.4 17 31 20
SAV 03822 02-14-06 60 26 43 0 22 0 5.7 13 36 25
SAV 03822 02-15-06 67 29 48 0 17 0 4.1 14 40 31
SAV 03822 02-16-06 70 36 53 0 12 0 3.6 15 48 44
SAV 03822 02-17-06 46 62 0 3 0 3.8 13 56 52
SAV 03822 02-18-06 74 46 60 0 5 0.2 6.7 18 53 50
SAV 03822 02-19-06 53 41 47 0 18 8.7 16 41 35
SAV 03822 02-20-06 56 44 50 0 15 0 3.8 8 47 44
SAV 03822 02-21-06 67 50 59 0 6 0.05 4.7 13 55 53
SAV 03822 02-22-06 77 49 0 6.2 14 60 57
SAV 03822 02-23-06 68 54 61 0 4 7 17 57 54
SAV 03822 02-24-06 68 41 55 0 10 0 4.2 15 44 31
SAV 03822 02-25-06 58 42 50 0 15 1.1 5.9 17 50 49
SAV 03822 02-26-06 58 34 46 0 19 0.15 11.3 23 44 37
SAV 03822 02-27-06 61 30 46 0 19 0 5.1 14 38 27
SAV 03822 02-28-06 73 36 55 0 10 0 7.6 18 45 31
SAV 03822 03-01-06 77 47 62 0 3 0 7.1 16 53 45
SAV 03822 03-02-06 76 53 65 0 0 0 10 24 59 54
SAV 03822 03-03-06 75 47 61 0 4 0 7.5 15 53 45
SAV 03822 03-04-06 62 37 50 0 15 0 6.9 17 40 26
SAV 03822 03-05-06 64 33 49 0 16 0 3.7 13 42 34
SAV 03822 03-06-06 75 46 61 0 4 8.7 21 52 43
SAV 03822 03-07-06 63 39 51 0 14 0 8.7 32 44 32
SAV 03822 03-08-06 65 32 49 0 16 0 3.8 14 42 34
SAV 03822 03-09-06 73 41 57 0 8 0 11.3 26 54 50
SAV 03822 03-10-06 79 58 69 4 0 0 9.1 21 61 57
SAV 03822 03-11-06 83 57 70 5 0 0 5 16 62 58
SAV 03822 03-12-06 82 56 69 4 0 0 7.9 21 64 61
SAV 03822 03-13-06 57 0 7.9 16 64 60
SAV 03822 03-14-06 78 52 65 0 0 0.12 11 23 57 46
SAV 03822 03-15-06 69 39 54 0 11 0 6.7 16 42 24
SAV 03822 03-16-06 70 36 53 0 12 0 2.6 13 45 34
SAV 03822 03-17-06 79 47 63 0 2 0 8.4 18 52 41
SAV 03822 03-18-06 65 41 53 0 12 0 6.7 16 46 36
SAV 03822 03-19-06 56 38 47 0 18 4.3 14 45 38
SAV 03822 03-20-06 60 52 56 0 9 7.2 15 50 45
SAV 03822 03-21-06 67 49 58 0 7 0.03 6.6 21 54 51
SAV 03822 03-22-06 66 44 55 0 10 0 5.8 16 47 41
SAV 03822 03-23-06 55 40 48 0 17 0.17 5.6 14 45 42
SAV 03822 03-24-06 57 42 50 0 15 6.9 17 45 40
SAV 03822 03-25-06 61 35 48 0 17 0 9.5 20 40 27
SAV 03822 03-26-06 60 34 0 6.4 16 38 26
SAV 03822 03-27-06 66 30 48 0 17 0 4.4 16 40 31
SAV 03822 03-28-06 73 36 55 0 10 0 6 16 48 41
SAV 03822 03-29-06 75 53 64 0 1 3.9 10 55 49
SAV 03822 03-30-06 71 53 62 0 3 8 20 57 53
SAV 03822 03-31-06 78 51 65 0 0 0 7.3 17 59 55
SAV 03822 04-01-06 82 60 71 6 0 7.9 16 63 57
SAV 03822 04-02-06 89 63 76 11 0 0 6 14 65 58
SAV 03822 04-03-06 86 63 75 10 0 0 8 21 65 59
SAV 03822 04-04-06 76 52 64 0 1 0 7.7 18 53 42
SAV 03822 04-05-06 80 41 61 0 4 0 4.8 17 48 32
SAV 03822 04-06-06 83 39 61 0 4 0 3.6 17 50 38
SAV 03822 04-07-06 87 52 70 5 0 0 8.8 20 60 54
SAV 03822 04-08-06 85 60 73 8 0 0.93 8.3 26 62 59
SAV 03822 04-09-06 70 47 59 0 6 0 9.2 22 52 46
SAV 03822 04-10-06 70 43 0 7.9 16 49 41
SAV 03822 04-11-06 75 46 61 0 4 0 8 17 55 49
SAV 03822 04-12-06 77 51 64 0 1 0 6.1 16 58 53
SAV 03822 04-13-06 81 50 66 1 0 0 4.2 15 58 53
SAV 03822 04-14-06 88 57 73 8 0 0 7.2 14 61 54
SAV 03822 04-15-06 62 77 12 0 0 9.1 20 62 52
SAV 03822 04-16-06 88 64 76 11 0 0 8.6 17 64 56
SAV 03822 04-17-06 84 66 75 10 0 0 10.6 20 67 63
SAV 03822 04-18-06 75 53 64 0 1 7.9 15 59 54
SAV 03822 04-19-06 74 50 62 0 3 0.23 4.2 31 60 58
SAV 03822 04-20-06 79 60 70 5 0 0 5.7 13 63 59
SAV 03822 04-21-06 83 56 70 5 0 0 7 18 65 61
SAV 03822 04-22-06 79 63 71 6 0 0.01 6.6 18 66 63
SAV 03822 04-23-06 87 58 73 8 0 0 3.9 13 63 57
SAV 03822 04-24-06 89 58 74 9 0 0 7 15 64 58
SAV 03822 04-25-06 89 64 0 7 17 66 59
SAV 03822 04-26-06 86 63 75 10 0 0.61 7 24 67 64
SAV 03822 04-27-06 77 60 69 4 0 0.13 9.5 20 62 57
SAV 03822 04-28-06 77 48 63 0 2 0 4.2 14 53 44
SAV 03822 04-29-06 73 48 61 0 4 0 8.1 20 54 48
SAV 03822 04-30-06 69 50 60 0 5 6.8 17 51 41
SAV 03822 05-01-06 74 47 6.4 17 50 39
SAV 03822 05-02-06 82 43 63 0 2 0 4.2 14 54 46
SAV 03822 05-03-06 89 56 73 8 0 0 9.5 21 63 55
SAV 03822 05-04-06 84 60 72 7 0 0 5.5 13 64 58
SAV 03822 05-05-06 89 64 77 12 0 0 6 21 66 61
SAV 03822 05-06-06 83 64 74 9 0 0 5.8 13 66 63
SAV 03822 05-07-06 86 65 76 11 0 5 20 67 64
SAV 03822 05-08-06 71 64 68 3 0 6.1 12 64 62
SAV 03822 05-09-06 75 57 66 1 0 0 7.5 16 59 55
SAV 03822 05-10-06 76 57 67 2 0 0.22 5 17 64 62
SAV 03822 05-11-06 79 56 68 3 0 0.02 8.4 20 64 60
SAV 03822 05-12-06 77 47 62 0 3 0 6.3 18 54 45
SAV 03822 05-13-06 81 46 64 0 1 0 5.6 18 55 46
SAV 03822 05-14-06 83 57 70 5 0 0.19 6.4 20 64 60
SAV 03822 05-15-06 76 59 68 3 0 0.14 6.5 18 63 61
SAV 03822 05-16-06 74 51 63 0 2 0 5.1 14 55 49
SAV 03822 05-17-06 79 48 64 0 1 0 5.3 15 56 50
SAV 03822 05-18-06 84 55 70 5 0 0 9.5 20 59 50
SAV 03822 05-19-06 86 59 73 8 0 0 9.1 23 60 49
SAV 03822 05-20-06 96 58 77 12 0 0 9.9 21 65 55
SAV 03822 05-21-06 67 82 17 0 0 8.5 18 67 59
SAV 03822 05-22-06 93 63 78 13 0 0 6 17 67 61
SAV 03822 05-23-06 89 63 76 11 0 0.01 5.6 16 69 67
SAV 03822 05-24-06 87 64 76 11 0 0.02 7.2 18 71 68
SAV 03822 05-25-06 96 67 82 17 0 0 6.1 18 71 67
SAV 03822 05-26-06 94 70 82 17 0 0 9.3 18 70 64
SAV 03822 05-27-06 96 72 7.4 22 71 66
SAV 03822 05-28-06 93 68 81 16 0 0 6.4 17 71 66
SAV 03822 05-29-06 91 65 78 13 0 0 6 14 68 63
SAV 03822 05-30-06 90 62 76 11 0 0 6.4 20 68 62
SAV 03822 05-31-06 86 66 76 11 0 0.05 8.5 18 70 67
SAV 03822 06-01-06 87 68 78 13 0 0.03 6.9 15 71 67
SAV 03822 06-02-06 88 64 76 11 0 8.3 20 71 68
SAV 03822 06-03-06 87 68 78 13 0 0 5.7 16 70 66
SAV 03822 06-04-06 87 64 76 11 0 0.66 6 23 68 63
SAV 03822 06-05-06 87 64 76 11 0 0.02 7.8 25 64 58
SAV 03822 06-06-06 84 55 70 5 0 0 6.3 20 60 52
SAV 03822 06-07-06 90 38 0 6.2 16 63 55
SAV 03822 06-08-06 92 70 81 16 0 0 9.4 16 67 60
SAV 03822 06-09-06 93 67 80 15 0 0 5.6 14 68 61
SAV 03822 06-10-06 97 64 81 16 0 0 5.7 15 70 64
SAV 03822 06-11-06 71 0 10.2 22 72 65
SAV 03822 06-12-06 88 70 79 14 0 0 7.4 21 70 66
SAV 03822 06-13-06 80 71 76 11 0 3.28 11.9 32 71 69
SAV 03822 06-14-06 84 70 77 12 0 0.01 9.3 22 71 68
SAV 03822 06-15-06 93 69 81 16 0 0 6.6 16 72 68
SAV 03822 06-16-06 87 66 77 12 0 0 6.3 20 68 63
SAV 03822 06-17-06 85 62 74 9 0 0 6 20 66 61
SAV 03822 06-18-06 84 61 73 8 0 0 5.8 15 66 62
SAV 03822 06-19-06 86 63 75 10 0 0 4.3 15 70 67
SAV 03822 06-20-06 93 69 81 16 0 0 4.8 14 73 69
SAV 03822 06-21-06 94 70 82 17 0 0 5.2 16 74 71
SAV 03822 06-22-06 92 70 81 16 0 0 3.5 14 73 70
SAV 03822 06-23-06 90 68 79 14 0 0 4.7 15 73 69
SAV 03822 06-24-06 90 72 81 16 0 7.3 15 74 71
SAV 03822 06-25-06 84 72 78 13 0 0.93 4.8 15 73 72
SAV 03822 06-26-06 87 72 80 15 0 0.11 8.4 22 74 71
SAV 03822 06-27-06 90 71 81 16 0 0 5 13 74 71
SAV 03822 06-28-06 93 70 82 17 0 1.27 4.3 35 71 68
SAV 03822 06-29-06 91 67 79 14 0 0.01 3.3 12 71 68
SAV 03822 06-30-06 93 66 80 15 0 0 2.9 12 71 66
SAV 03822 07-01-06 94 68 81 16 0 0 3.6 14 71 67
SAV 03822 07-02-06 92 69 81 16 0 0 3.3 13 73 70
SAV 03822 07-03-06 93 69 81 16 0 0 3.5 12 73 69
SAV 03822 07-04-06 92 67 80 15 0 0 4 14 72 68
SAV 03822 07-05-06 91 68 80 15 0 0 4.1 14 72 69
SAV 03822 07-06-06 96 71 84 19 0 0.07 6.7 23 73 71
SAV 03822 07-07-06 87 70 79 14 0 0 10.5 16 69 65
SAV 03822 07-08-06 86 62 0 6.1 18 64 58
SAV 03822 07-09-06 87 62 75 10 0 0 5.7 14 65 60
SAV 03822 07-10-06 90 63 77 12 0 0 4.8 14 69 65
SAV 03822 07-11-06 89 68 79 14 0 0.09 5.1 20 73 70
SAV 03822 07-12-06 87 70 79 14 0 0.15 4.9 20 74 72
SAV 03822 07-13-06 91 70 81 16 0 0 5.3 16 74 71
SAV 03822 07-14-06 94 69 82 17 0 0 5.8 18 74 71
SAV 03822 07-15-06 100 76 0 6.5 15 76 72
SAV 03822 07-16-06 96 76 86 21 0 0.08 5.1 24 76 73
SAV 03822 07-17-06 93 73 83 18 0 0 4.8 16 74 71
SAV 03822 07-18-06 95 70 83 18 0 0 3.9 15 72 67
SAV 03822 07-19-06 95 69 82 17 0 0 4.1 16 73 68
SAV 03822 07-20-06 93 70 82 17 0 0 5.8 15 73 70
SAV 03822 07-21-06 92 71 82 17 0 5.7 17 74 71
SAV 03822 07-22-06 93 73 83 18 0 0 7.3 21 74 71
SAV 03822 07-23-06 95 72 84 19 0 0.01 5.8 21 74 70
SAV 03822 07-24-06 94 67 81 16 0 1.07 5.5 21 74 72
SAV 03822 07-25-06 92 72 82 17 0 5.2 12 74 71
SAV 03822 07-26-06 96 74 85 20 0 0 4.4 15 75 71
SAV 03822 07-27-06 98 74 86 21 0 0.32 5.1 26 75 71
SAV 03822 07-28-06 96 74 85 20 0 0 5.4 17 76 73
SAV 03822 07-29-06 95 72 84 19 0 1.19 5.9 26 74 71
SAV 03822 07-30-06 86 73 80 15 0 6.1 15 73 71
SAV 03822 08-01-06 97 74 86 21 0 0 5.3 13 76 73
SAV 03822 08-02-06 98 76 87 22 0 0.09 5.3 23 76 73
SAV 03822 08-03-06 97 76 87 22 0 0 5.1 14 77 73
SAV 03822 08-04-06 74 0.35 5.3 20 75 72
SAV 03822 08-05-06 94 70 82 17 0 0 3.4 12 74 70
SAV 03822 08-06-06 96 75 86 21 0 0 3.8 14 76 73
SAV 03822 08-07-06 95 72 84 19 0 0 2.8 12 75 71
SAV 03822 08-08-06 96 75 86 21 0 0.46 4.9 17 76 74
SAV 03822 08-09-06 93 72 83 18 0 0.16 3.9 35 75 72
SAV 03822 08-10-06 95 74 85 20 0 0.14 5.9 18 76 74
SAV 03822 08-11-06 94 76 85 20 0 0.05 5.8 16 76 74
SAV 03822 08-12-06 91 71 81 16 0 0.29 3 20 75 73
SAV 03822 08-13-06 85 70 0 7.9 14 73 71
SAV 03822 08-14-06 89 70 80 15 0 0 6.2 13 72 68
SAV 03822 08-15-06 90 68 79 14 0 0 2.3 13 72 68
SAV 03822 08-16-06 92 70 81 16 0 0 3.5 17 72 69
SAV 03822 08-17-06 93 73 83 18 0 0.42 7.9 18 74 70
SAV 03822 08-18-06 90 73 82 17 0 0.01 9.3 17 75 72
SAV 03822 08-19-06 90 75 83 18 0 8.7 18 76 73
SAV 03822 08-20-06 90 75 83 18 0 6.6 16 76 73
SAV 03822 08-21-06 95 75 85 20 0 0 6.5 17 75 72
SAV 03822 08-22-06 95 74 85 20 0 0.14 6.7 17 75 72
SAV 03822 08-23-06 94 74 84 19 0 0.83 4.3 20 75 73
SAV 03822 08-24-06 88 72 80 15 0 0.68 4.8 21 74 73
SAV 03822 08-25-06 88 72 80 15 0 0.13 4.3 13 74 72
SAV 03822 08-26-06 90 74 82 17 0 6.8 16 75 73
SAV 03822 08-27-06 89 75 82 17 0 0 7 17 76 73
SAV 03822 08-28-06 89 74 82 17 0 0.02 4 13 77 74
SAV 03822 08-29-06 94 76 85 20 0 0.01 6.1 15 77 74
SAV 03822 08-30-06 90 75 83 18 0 0.17 5.9 15 76 74
SAV 03822 08-31-06 83 74 79 14 0 0.41 9.4 18 74 73
SAV 03822 09-01-06 90 71 81 16 0 0.25 5.1 15 74 71
SAV 03822 09-02-06 87 71 79 14 0 0.99 6.7 18 73 71
SAV 03822 09-03-06 91 73 4.1 15 75 72
SAV 03822 09-04-06 91 71 81 16 0 0 3.6 18 74 71
SAV 03822 09-05-06 90 72 81 16 0 1.36 7.4 18 74 71
SAV 03822 09-06-06 87 72 80 15 0 6.7 16 73 70
SAV 03822 09-07-06 82 71 77 12 0 0.54 9.5 16 71 70
SAV 03822 09-08-06 86 69 78 13 0 7 12 71 68
SAV 03822 09-09-06 87 70 79 14 0 0 5.9 14 70 66
SAV 03822 09-10-06 85 70 78 13 0 0 6.3 14 70 67
SAV 03822 09-11-06 86 69 78 13 0 0 8.5 15 69 65
SAV 03822 09-12-06 82 69 76 11 0 0 9.7 17 68 64
SAV 03822 09-13-06 78 71 75 10 0 0.21 5.1 18 72 70
SAV 03822 09-14-06 86 65 76 11 0 0.03 5.5 15 70 67
SAV 03822 09-15-06 87 61 74 9 0 0 2.3 12 66 62
SAV 03822 09-16-06 87 64 76 11 0 0 2.6 12 67 64
SAV 03822 09-17-06 88 64 76 11 0 0 3.2 12 68 64
SAV 03822 09-18-06 88 65 77 12 0 0 5.1 16 71 68
SAV 03822 09-19-06 71 81 16 0 1.21 6.9 32 73 71
SAV 03822 09-20-06 82 59 71 6 0 0 6 14 63 58
SAV 03822 09-21-06 84 57 71 6 0 0 5.1 14 64 60
SAV 03822 09-22-06 86 65 76 11 0 0 5.4 17 69 65
SAV 03822 09-23-06 90 66 78 13 0 0 5.5 16 72 69
SAV 03822 09-24-06 90 72 81 16 0 0 6.6 13 73 69
SAV 03822 09-25-06 86 65 76 11 0 0 5.1 15 70 67
SAV 03822 09-26-06 84 63 74 9 0 0 5.4 15 66 63
SAV 03822 09-27-06 87 62 75 10 0 5.8 16 66 62
SAV 03822 09-28-06 85 67 76 11 0 0.63 6 18 67 63
SAV 03822 09-29-06 78 56 0 5.2 14 58 52
SAV 03822 09-30-06 83 54 69 4 0 0 2.2 13 60 56
SAV 03822 10-01-06 87 57 72 7 0 0 2.9 12 65 61
SAV 03822 10-02-06 85 64 75 10 0 0.02 5.2 14 67 64
SAV 03822 10-03-06 85 62 74 9 0 0 4.3 14 65 61
SAV 03822 10-04-06 84 58 71 6 0 0 4 13 65 62
SAV 03822 10-05-06 87 59 73 8 0 0 1.8 9 64 61
SAV 03822 10-06-06 61 75 10 0 0.43 7.3 29 66 63
SAV 03822 10-07-06 72 56 64 0 1 0 8.7 17 56 50
SAV 03822 10-08-06 72 52 62 0 3 0.06 5.4 17 56 52
SAV 03822 10-09-06 69 60 65 0 0 0 8.5 16 61 59
SAV 03822 10-10-06 77 60 69 4 0 0 4.1 13 63 61
SAV 03822 10-11-06 81 58 70 5 0 0 3.4 10 64 62
SAV 03822 10-12-06 83 55 69 4 0 6.4 15 62 56
SAV 03822 10-13-06 76 51 64 0 1 3.9 16 56 50
SAV 03822 10-14-06 72 39 56 0 9 0 4.6 16 47 38
SAV 03822 10-15-06 75 42 59 0 6 0 2.6 10 48 38
SAV 03822 10-16-06 78 44 61 0 4 5.2 16 57 52
SAV 03822 10-17-06 80 66 73 8 0 9.5 23 69 66
SAV 03822 10-18-06 82 70 76 11 0 0.13 2 9 71 70
SAV 03822 10-19-06 85 70 0 3.6 13 71 70
SAV 03822 10-20-06 85 57 71 6 0 0 7 17 67 63
SAV 03822 10-21-06 80 50 65 0 0 0 2 10 57 51
SAV 03822 10-22-06 75 57 66 1 0 0.01 4.7 24 63 61
SAV 03822 10-23-06 64 45 55 0 10 0 11.4 21 47 38
SAV 03822 10-24-06 66 37 52 0 13 0 6.2 20 43 33
SAV 03822 10-25-06 61 39 0 4.5 13 42 35
SAV 03822 10-26-06 70 44 57 0 8 0 3.6 12 51 45
SAV 03822 10-27-06 77 58 68 3 0 0.38 9.1 23 64 61
SAV 03822 10-28-06 69 52 61 0 4 0.01 11.9 23 56 50
SAV 03822 10-29-06 75 43 59 0 6 0 3.4 10 50 43
SAV 03822 10-30-06 78 41 60 0 5 0 1.9 13 51 44
SAV 03822 10-31-06 80 47 64 0 1 2.6 10 58 55
SAV 03822 11-01-06 54 68 3 0 0 2.4 10 61 57
SAV 03822 11-02-06 78 55 67 2 0 0 6.8 20 61 56
SAV 03822 11-03-06 64 39 52 0 13 0 12.4 24 42 26
SAV 03822 11-04-06 61 35 48 0 17 0 9.8 23 41 30
SAV 03822 11-05-06 61 42 52 0 13 0 9.3 15 46 38
SAV 03822 11-06-06 72 50 61 0 4 0.01 9.5 16 54 49
SAV 03822 11-07-06 67 60 64 0 1 0.31 4.6 14 62 62
SAV 03822 11-08-06 62 54 58 0 7 0 8.8 18 55 52
SAV 03822 11-09-06 74 48 61 0 4 0 4.8 10 54 50
SAV 03822 11-10-06 81 44 63 0 2 0 1.5 8 55 52
SAV 03822 11-11-06 80 54 67 2 0 0 6.1 16 60 57
SAV 03822 11-12-06 67 42 55 0 10 9.2 21 47 41
SAV 03822 11-13-06 72 35 54 0 11 0 2.9 9 47 41
SAV 03822 11-14-06 74 39 57 0 8 0 3.1 10 49 43
SAV 03822 11-15-06 77 49 63 0 2 0.08 10.3 33 61 59
SAV 03822 11-16-06 71 50 61 0 4 0.76 13.6 30 55 50
SAV 03822 11-17-06 58 39 49 0 16 0 6.2 16 44 39
SAV 03822 11-18-06 64 37 51 0 14 0 2.3 10 44 39
SAV 03822 11-19-06 66 33 50 0 15 0 3.3 13 43 37
SAV 03822 11-20-06 62 38 50 0 15 0 8.8 20 44 37
SAV 03822 11-21-06 47 36 0.27 16.1 25 38 34
SAV 03822 11-22-06 50 40 45 0 20 0.22 10.3 17 44 43
SAV 03822 11-23-06 61 42 52 0 13 0 4.8 15 46 43
SAV 03822 11-24-06 70 37 54 0 11 0 2.2 10 47 43
SAV 03822 11-25-06 71 36 54 0 11 0 2.7 13 44 35
SAV 03822 11-26-06 71 34 53 0 12 0 4.7 14 46 40
SAV 03822 11-27-06 76 52 64 0 1 0 4.7 13 57 53
SAV 03822 11-28-06 77 54 66 1 0 0 4.7 15 61 59
SAV 03822 11-29-06 79 60 0 6 17 63 60
SAV 03822 11-30-06 73 61 67 2 0 0.38 7.3 17 66 64
SAV 03822 12-01-06 78 59 69 4 0 0.01 9.7 24 66 64
SAV 03822 12-02-06 68 45 57 0 8 0 5.3 14 48 41
SAV 03822 12-03-06 55 47 51 0 14 0.05 7.6 12 48 46
SAV 03822 12-04-06 59 35 47 0 18 0 6 15 43 38
SAV 03822 12-05-06 61 28 45 0 20 0 1.7 8 37 30
SAV 03822 12-06-06 70 32 51 0 14 0 2.7 13 47 43
SAV 03822 12-07-06 63 43 53 0 12 8.4 22 46 36
SAV 03822 12-08-06 44 23 0 9.5 21 28 12
SAV 03822 12-09-06 55 21 38 0 27 0 3.4 13 31 21
SAV 03822 12-10-06 64 27 46 0 19 0 2.6 8 0 0
SAV 03822 12-11-06 70 41 56 0 9 0 3.8 10 0 0
SAV 03822 12-12-06 70 40 55 0 10 0 4.6 14 50 44
SAV 03822 12-13-06 63 57 60 0 5 0.13 1.7 7 59 58
SAV 03822 12-14-06 66 57 62 0 3 0 2.6 8 59 58
SAV 03822 12-15-06 69 48 59 0 6 0 3.6 13 57 54
SAV 03822 12-16-06 71 40 56 0 9 0 3.7 13 51 47
SAV 03822 12-17-06 77 49 63 0 2 0 3 13 56 53
SAV 03822 12-18-06 77 48 63 0 2 0 0.8 7 55 53
SAV 03822 12-19-06 44 61 0 4 0 2.2 12 53 49
SAV 03822 12-20-06 69 46 58 0 7 0 10.1 21 54 50
SAV 03822 12-21-06 73 56 65 0 0 0 7.7 15 58 54
SAV 03822 12-22-06 70 64 67 2 0 1.19 10.7 20 65 63
SAV 03822 12-23-06 74 58 66 1 0 0.06 5.2 14 63 61
SAV 03822 12-24-06 69 49 59 0 6 0.01 3.3 12 53 48
SAV 03822 12-25-06 70 56 63 0 2 1.15 9.7 25 63 62
SAV 03822 12-26-06 61 42 52 0 13 12.5 23 45 39
SAV 03822 12-27-06 56 34 45 0 20 0 4.4 13 39 33
SAV 03822 12-28-06 66 32 49 0 16 0 4.5 12 45 41
SAV 03822 12-29-06 69 52 61 0 4 9.1 15 55 50
SAV 03822 12-30-06 73 59 66 1 0 0.14 8.2 18 62 60
SAV 03822 12-31-06 75 62 0.05 8.7 20 66 64
SAV 03822 01-01-07 71 53 62 0 3 0.12 9.2 25 61 59
SAV 03822 01-02-07 56 40 48 0 17 0 7.9 15 44 38
SAV 03822 01-03-07 71 45 58 0 7 0 6.6 12 53 49
SAV 03822 01-04-07 73 59 66 1 0 4 9 64 62
SAV 03822 01-05-07 77 60 0.88 8.2 21 65 64
SAV 03822 01-06-07 76 58 67 2 0 0 5.8 13 60 56
SAV 03822 01-07-07 78 57 68 3 0 6.2 15 64 62
SAV 03822 01-08-07 70 44 57 0 8 0.24 8.7 20 54 48
SAV 03822 01-09-07 63 32 48 0 17 0 8.1 25 39 28
SAV 03822 01-10-07 55 32 44 0 21 0 4.3 14 36 27
SAV 03822 01-11-07 62 33 48 0 17 0 7.3 16 44 39
SAV 03822 01-12-07 75 47 61 0 4 0 4.6 14 53 49
SAV 03822 01-13-07 76 46 61 0 4 0 2 13 55 52
SAV 03822 01-14-07 78 56 67 2 0 0 4.6 14 61 58
SAV 03822 01-15-07 53 66 1 0 0 6.5 17 59 55
SAV 03822 01-16-07 70 49 60 0 5 0 7.7 18 56 51
SAV 03822 01-17-07 49 37 43 0 22 0.22 14 21 39 29
SAV 03822 01-18-07 41 36 39 0 26 0.37 9.7 17 37 36
SAV 03822 01-19-07 56 40 48 0 17 7.3 15 43 39
SAV 03822 01-20-07 57 36 47 0 18 0 4.9 15 39 29
SAV 03822 01-21-07 68 34 51 0 14 8.2 20 52 47
SAV 03822 01-22-07 65 51 58 0 7 0.26 6.6 15 56 55
SAV 03822 01-23-07 51 44 48 0 17 0 5.8 14 43 39
SAV 03822 01-24-07 51 43 47 0 18 0 4.9 10 42 36
SAV 03822 01-25-07 58 41 50 0 15 0 7.6 18 41 31
SAV 03822 01-26-07 55 27 41 0 24 0 4.3 12 35 24
SAV 03822 01-27-07 63 28 46 0 19 0.06 4.7 10 39 30
SAV 03822 01-28-07 56 39 48 0 17 0.57 11.5 26 44 37
SAV 03822 01-29-07 46 25 0 7 24 28 13
SAV 03822 01-30-07 52 27 40 0 25 0 4.6 14 32 20
SAV 03822 01-31-07 51 32 42 0 23 0 5.4 18 34 23
SAV 03822 02-01-07 63 31 47 0 18 1.21 5.8 22 45 43
SAV 03822 02-02-07 57 45 51 0 14 0.04 6.9 15 48 46
SAV 03822 02-03-07 47 36 42 0 23 0 7.7 15 35 26
SAV 03822 02-04-07 58 33 46 0 19 0 5.2 15 37 25
SAV 03822 02-05-07 51 35 43 0 22 0 7.2 17 34 21
SAV 03822 02-06-07 56 31 44 0 21 0 5.8 12 35 22
SAV 03822 02-07-07 71 39 55 0 10 0 8.1 17 47 40
SAV 03822 02-08-07 68 42 55 0 10 0 6.1 15 47 39
SAV 03822 02-09-07 61 44 53 0 12 0.1 5.5 13 44 36
SAV 03822 02-10-07 56 33 45 0 20 5.2 16 40 33
SAV 03822 02-11-07 61 29 45 0 20 0 2.7 14 40 34
SAV 03822 02-12-07 72 39 56 0 9 0 4.2 16 50 47
SAV 03822 02-13-07 70 46 58 0 7 0.2 5.4 15 56 54
SAV 03822 02-14-07 59 37 48 0 17 0 9.3 23 48 44
SAV 03822 02-15-07 51 32 42 0 23 0 5 14 36 29
SAV 03822 02-16-07 50 28 39 0 26 0 5.9 17 33 22
SAV 03822 02-17-07 54 23 0 5 16 32 20
SAV 03822 02-18-07 53 34 44 0 21 0 12.8 24 36 21
SAV 03822 02-19-07 59 27 43 0 22 0 4.5 15 36 25
SAV 03822 02-20-07 66 34 50 0 15 0.02 6.8 17 46 39
SAV 03822 02-21-07 68 54 61 0 4 0.17 6.9 15 56 54
SAV 03822 02-22-07 76 52 0 10.4 24 53 42
SAV 03822 02-23-07 69 38 54 0 11 0 6.5 14 42 24
SAV 03822 02-24-07 64 32 48 0 17 0 6.8 17 44 38
SAV 03822 02-25-07 74 49 62 0 3 0.26 10.2 26 59 56
SAV 03822 02-26-07 74 50 62 0 3 0 6.7 15 53 46
SAV 03822 02-27-07 42 60 0 5 0 2.6 15 50 42
SAV 03822 02-28-07 73 40 57 0 8 0 5.8 13 49 41
SAV 03822 03-01-07 68 54 61 0 4 1.46 10.5 23 60 58
SAV 03822 03-02-07 69 40 55 0 10 0.24 8 22 52 44
SAV 03822 03-03-07 69 39 54 0 11 0 5.9 20 45 33
SAV 03822 03-04-07 59 41 50 0 15 0 9.7 25 40 24
SAV 03822 03-05-07 64 28 0 4.2 13 37 22
SAV 03822 03-06-07 72 34 53 0 12 0 4.4 15 43 33
SAV 03822 03-07-07 75 39 57 0 8 0 4.2 16 47 39
SAV 03822 03-08-07 75 41 58 0 7 0 7.1 20 50 43
SAV 03822 03-09-07 68 52 60 0 5 0 10.6 22 54 50
SAV 03822 03-10-07 74 51 63 0 2 7.3 15 55 51
SAV 03822 03-11-07 78 46 62 0 3 0 3 13 54 48
SAV 03822 03-12-07 81 47 64 0 1 0 3.9 15 56 50
SAV 03822 03-13-07 85 49 67 2 0 0 4.1 15 58 51
SAV 03822 03-14-07 82 58 70 5 0 0 7.1 16 60 53
SAV 03822 03-15-07 80 57 69 4 0 0 9.1 20 63 59
SAV 03822 03-16-07 76 55 66 1 0 0.15 11 22 61 56
SAV 03822 03-17-07 60 39 50 0 15 0 9.8 23 41 28
SAV 03822 03-18-07 62 35 49 0 16 0 4.9 14 39 26
SAV 03822 03-19-07 68 35 52 0 13 0 5.6 17 46 37
SAV 03822 03-20-07 78 41 60 0 5 0 3.1 14 50 42
SAV 03822 03-21-07 74 48 61 0 4 6.7 18 56 52
SAV 03822 03-22-07 75 55 65 0 0 0.03 5.5 14 60 57
SAV 03822 03-23-07 80 49 65 0 0 0 3.4 15 59 54
SAV 03822 03-24-07 85 50 68 3 0 0 3.7 14 59 53
SAV 03822 03-25-07 53 0 5.6 16 61 55
SAV 03822 03-26-07 77 59 68 3 0 0 9.4 16 63 59
SAV 03822 03-27-07 82 55 69 4 0 0 3.4 14 61 56
SAV 03822 03-28-07 85 51 68 3 0 0 3.8 15 60 55
SAV 03822 03-29-07 78 52 65 0 0 0 7.8 21 59 55
SAV 03822 03-30-07 70 54 62 0 3 0 8.6 15 53 47
SAV 03822 03-31-07 77 52 65 0 0 0 6 16 59 55
SAV 03822 04-01-07 80 55 68 3 0 0 7.7 20 61 57
SAV 03822 04-02-07 87 62 75 10 0 0 5.2 14 64 58
SAV 03822 04-03-07 88 63 76 11 0 0 5.5 16 66 61
SAV 03822 04-04-07 88 65 77 12 0 0 8.3 21 62 53
SAV 03822 04-05-07 71 52 62 0 3 0 8.4 20 48 31
SAV 03822 04-06-07 68 44 56 0 9 0 7.2 16 45 34
SAV 03822 04-07-07 56 38 47 0 18 0 10.8 24 36 16
SAV 03822 04-08-07 59 28 0 4.3 16 35 19
SAV 03822 04-09-07 65 31 48 0 17 0 2.9 13 40 25
SAV 03822 04-10-07 68 48 58 0 7 7.6 16 48 36
SAV 03822 04-11-07 81 59 70 5 0 7.2 15 62 58
SAV 03822 04-12-07 83 58 71 6 0 0 9.2 21 57 44
SAV 03822 04-13-07 84 45 65 0 0 0 4.6 14 51 39
SAV 03822 04-14-07 81 48 65 0 0 0 10.8 23 62 58
SAV 03822 04-15-07 75 46 61 0 4 0.06 17.5 30 56 50
SAV 03822 04-16-07 72 43 58 0 7 0 13.3 28 46 32
SAV 03822 04-17-07 83 45 64 0 1 0 6.2 18 51 35
SAV 03822 04-18-07 73 44 59 0 6 0 6 17 50 40
SAV 03822 04-19-07 73 50 62 0 3 7.5 17 57 53
SAV 03822 04-20-07 69 49 59 0 6 0.27 9.4 23 54 50
SAV 03822 04-21-07 75 44 60 0 5 0 4.1 14 51 43
SAV 03822 04-22-07 79 43 61 0 4 0 5.4 15 54 47
SAV 03822 04-23-07 79 50 65 0 0 0 5.9 18 57 50
SAV 03822 04-24-07 85 51 68 3 0 0 5.3 14 59 53
SAV 03822 04-25-07 87 59 73 8 0 0 8.1 18 64 58
SAV 03822 04-26-07 88 64 76 11 0 0 10.2 22 66 61
SAV 03822 04-27-07 67 8.5 20 66 59
SAV 03822 04-28-07 83 60 72 7 0 0 8 17 58 47
SAV 03822 04-29-07 87 52 70 5 0 0 6 16 57 46
SAV 03822 04-30-07 88 53 71 6 0 0 4.6 18 59 49
SAV 03822 05-01-07 90 58 74 9 0 0 6.8 18 63 57
SAV 03822 05-02-07 92 61 77 12 0 0 4.8 14 65 59
SAV 03822 05-03-07 91 61 76 11 0 0 4.3 15 65 59
SAV 03822 05-04-07 84 64 74 9 0 0 8.6 18 68 65
SAV 03822 05-05-07 80 67 74 9 0 0.02 6 14 66 63
SAV 03822 05-06-07 76 59 68 3 0 0.13 10.2 22 62 58
SAV 03822 05-07-07 75 50 0 15.1 25 49 32
SAV 03822 05-08-07 80 58 69 4 0 18.3 31 57 46
SAV 03822 05-09-07 79 67 73 8 0 0.32 18.6 30 65 61
SAV 03822 05-10-07 85 65 75 10 0 0 11.8 23 66 61
SAV 03822 05-11-07 85 64 75 10 0 0 7 15 67 63
SAV 03822 05-12-07 87 63 75 10 0 0 5.2 17 67 63
SAV 03822 05-13-07 88 65 77 12 0 0.12 7.1 28 67 63
SAV 03822 05-14-07 80 61 71 6 0 0 10.1 18 62 56
SAV 03822 05-15-07 61 71 6 0 0 7.4 16 63 58
SAV 03822 05-16-07 87 55 71 6 0 0 5.7 16 62 55
SAV 03822 05-17-07 82 64 73 8 0 0.93 3.8 22 66 63
SAV 03822 05-18-07 79 62 71 6 0 0 8 16 62 58
SAV 03822 05-19-07 78 54 66 1 0 0 7.6 16 55 46
SAV 03822 05-20-07 83 50 67 2 0 0 3.9 17 57 48
SAV 03822 05-21-07 86 53 70 5 0 0 3.9 15 61 55
SAV 03822 05-22-07 84 58 71 6 0 0 6.2 17 65 61
SAV 03822 05-23-07 82 67 75 10 0 0 11 25 66 62
SAV 03822 05-24-07 81 64 73 8 0 0 10.9 21 66 61
SAV 03822 05-25-07 82 63 73 8 0 0 8.2 17 65 61
SAV 03822 05-26-07 83 61 72 7 0 0 6.6 17 65 61
SAV 03822 05-27-07 82 62 72 7 0 0 6.6 17 65 61
SAV 03822 05-28-07 83 63 73 8 0 0 7.5 18 67 63
SAV 03822 05-29-07 87 63 75 10 0 0 5.8 18 68 63
SAV 03822 05-30-07 88 62 75 10 0 0 4.9 17 67 62
SAV 03822 05-31-07 87 67 0 6.7 18 70 66
SAV 03822 06-01-07 84 68 76 11 0 0 6.7 17 68 64
SAV 03822 06-02-07 75 66 4.8 12.1 26 68 68
SAV 03822 06-03-07 86 64 75 10 0 0.41 13.1 26 68 65
SAV 03822 06-04-07 88 71 80 15 0 0.1 8.9 20 72 69
SAV 03822 06-05-07 87 68 78 13 0 0.12 8.1 16 71 69
SAV 03822 06-06-07 92 66 79 14 0 0 6.4 14 71 68
SAV 03822 06-07-07 91 72 82 17 0 0.02 5 21 74 72
SAV 03822 06-08-07 95 72 84 19 0 0 6.1 15 74 71
SAV 03822 06-09-07 73 0 4.7 13 75 70
SAV 03822 06-10-07 95 73 84 19 0 0 7.2 21 76 73
SAV 03822 06-11-07 86 67 77 12 0 1.5 10 35 75 72
SAV 03822 06-12-07 84 65 75 10 0 0.25 7.4 26 71 68
SAV 03822 06-13-07 81 64 73 8 0 0.49 5.9 23 66 65
SAV 03822 06-14-07 82 65 74 9 0 0 9.9 17 67 64
SAV 03822 06-15-07 82 65 74 9 0 0.14 5.1 17 69 67
SAV 03822 06-16-07 84 67 76 11 0 0 5.3 14 71 68
SAV 03822 06-17-07 89 67 78 13 0 0 5.4 16 72 70
SAV 03822 06-18-07 94 70 82 17 0 0 5 15 73 70
SAV 03822 06-19-07 91 72 82 17 0 0.46 6.9 22 73 70
SAV 03822 06-20-07 85 70 78 13 0 0.39 5.2 15 72 71
SAV 03822 06-21-07 82 70 76 11 0 0.01 10.4 20 72 71
SAV 03822 06-22-07 89 67 78 13 0 0 4.5 12 69 64
SAV 03822 06-23-07 97 67 82 17 0 0 5.3 14 73 69
SAV 03822 06-24-07 96 72 84 19 0 0 4.2 14 75 71
SAV 03822 06-25-07 89 73 81 16 0 0 5.1 15 76 73
SAV 03822 06-26-07 89 72 81 16 0 0 6.5 16 74 72
SAV 03822 06-27-07 88 73 81 16 0 0 5.6 17 74 71
SAV 03822 06-28-07 88 71 80 15 0 0.08 4.3 17 74 72
SAV 03822 06-29-07 90 71 81 16 0 0.03 5.3 23 74 72
SAV 03822 06-30-07 92 71 82 17 0 0.18 3.4 26 75 72
SAV 03822 07-01-07 93 72 83 18 0 0.2 3.4 18 75 73
SAV 03822 07-02-07 81 72 77 12 0 1.19 7.9 18 73 72
SAV 03822 07-03-07 82 70 76 11 0 0.01 9.8 21 70 65
SAV 03822 07-04-07 85 68 77 12 0 0 7.7 18 69 65
SAV 03822 07-05-07 88 69 79 14 0 0.01 4.8 14 73 71
SAV 03822 07-06-07 91 71 81 16 0 0 2.7 9 75 73
SAV 03822 07-07-07 92 74 83 18 0 0.05 3.5 13 75 74
SAV 03822 07-08-07 91 74 83 18 0 0.02 3.5 17 76 74
SAV 03822 07-09-07 92 73 83 18 0 0.01 5.8 15 77 75
SAV 03822 07-10-07 96 75 86 21 0 0 7.3 13 77 73
SAV 03822 07-11-07 96 75 86 21 0 7.4 26 76 73
SAV 03822 07-12-07 95 73 84 19 0 0 4.9 13 76 72
SAV 03822 07-13-07 97 75 86 21 0 0.08 3.7 12 74 69
SAV 03822 07-14-07 91 71 81 16 0 1.21 3.4 28 73 71
SAV 03822 07-15-07 90 70 80 15 0 0 3.6 16 74 72
SAV 03822 07-16-07 94 72 83 18 0 0.03 3.9 15 75 73
SAV 03822 07-17-07 93 73 83 18 0 0 5.7 16 76 73
SAV 03822 07-18-07 96 74 85 20 0 0 5.9 14 76 72
SAV 03822 07-19-07 97 74 86 21 0 6.5 29 75 71
SAV 03822 07-20-07 97 73 85 20 0 0.02 8 23 74 70
SAV 03822 07-21-07 89 71 80 15 0 0.04 7.2 16 72 69
SAV 03822 07-22-07 87 66 77 12 0 0 7 17 68 62
SAV 03822 07-23-07 87 64 76 11 0 0 5.4 15 67 61
SAV 03822 07-24-07 88 64 76 11 0 0 5.4 16 69 64
SAV 03822 07-25-07 85 72 79 14 0 1.09 4.4 16 74 72
SAV 03822 07-26-07 91 72 82 17 0 0.17 3.8 18 74 72
SAV 03822 07-27-07 92 71 82 17 0 4.3 13 75 72
SAV 03822 07-28-07 91 72 82 17 0 0.42 4.5 20 74 73
SAV 03822 07-29-07 88 72 80 15 0 0.02 3.1 15 74 73
SAV 03822 07-30-07 92 73 83 18 0 2.74 4.7 21 76 74
SAV 03822 07-31-07 88 73 81 16 0 0 6.1 16 75 73
SAV 03822 08-01-07 90 73 82 17 0 0 5.9 15 75 72
SAV 03822 08-02-07 89 74 82 17 0 0.32 8.3 25 75 72
SAV 03822 08-03-07 77 72 75 10 0 0.61 4 14 74 74
SAV 03822 08-04-07 87 72 80 15 0 0.04 4.9 10 74 73
SAV 03822 08-05-07 95 73 84 19 0 0 4.3 10 77 75
SAV 03822 08-06-07 97 75 86 21 0 0 4.4 9 78 76
SAV 03822 08-07-07 98 78 88 23 0 0.04 2.6 16 79 77
SAV 03822 08-08-07 98 79 89 24 0 0 3.9 10 81 78
SAV 03822 08-09-07 99 76 88 23 0 0.86 5.4 23 80 78
SAV 03822 08-10-07 98 77 88 23 0 0 6.7 10 81 79
SAV 03822 08-11-07 92 75 84 19 0 0.29 7.2 22 79 77
SAV 03822 08-12-07 90 75 83 18 0 0.01 5.9 15 77 76
SAV 03822 08-13-07 94 75 85 20 0 2.7 14 77 74
SAV 03822 08-14-07 97 73 85 20 0 0 3.6 10 76 74
SAV 03822 08-15-07 95 76 86 21 0 0 4.2 15 78 76
SAV 03822 08-16-07 93 75 84 19 0 0 5 16 78 75
SAV 03822 08-17-07 92 76 84 19 0 0.04 6.6 12 77 75
SAV 03822 08-18-07 92 74 83 18 0 0.03 3.7 13 76 73
SAV 03822 08-19-07 93 72 83 18 0 0 4.4 14 75 72
SAV 03822 08-20-07 95 73 84 19 0 0 4.9 15 77 74
SAV 03822 08-21-07 97 74 86 21 0 0 5.5 15 77 74
SAV 03822 08-22-07 98 75 87 22 0 3.6 15 77 74
SAV 03822 08-23-07 92 76 84 19 0 0 5.9 17 77 74
SAV 03822 08-24-07 90 76 83 18 0 0.08 3.2 15 78 76
SAV 03822 08-25-07 89 76 83 18 0 0.05 4 15 77 76
SAV 03822 08-26-07 92 72 82 17 0 0.3 2.6 18 76 74
SAV 03822 08-27-07 92 74 83 18 0 0.01 2.5 16 76 75
SAV 03822 08-28-07 89 76 83 18 0 0 4.2 12 77 75
SAV 03822 08-29-07 92 77 85 20 0 0 3.3 12 77 75
SAV 03822 08-30-07 93 74 84 19 0 0.59 4.8 23 76 74
SAV 03822 08-31-07 80 73 77 12 0 1.08 5.5 17 75 74
SAV 03822 09-01-07 80 73 77 12 0 1.66 9 17 75 74
SAV 03822 09-02-07 81 73 77 12 0 2.73 10 20 74 73
SAV 03822 09-03-07 89 71 80 15 0 0 7.8 20 72 69
SAV 03822 09-04-07 91 69 80 15 0 0 4.1 14 71 68
SAV 03822 09-05-07 90 67 79 14 0 0 4.8 15 72 68
SAV 03822 09-06-07 90 73 82 17 0 0 8 17 74 72
SAV 03822 09-07-07 88 68 78 13 0 0.02 7.6 18 72 69
SAV 03822 09-08-07 87 67 77 12 0 0.02 4.8 14 70 66
SAV 03822 09-09-07 89 67 78 13 0 0 3.5 12 71 68
SAV 03822 09-10-07 91 70 81 16 0 0 4 14 75 72
SAV 03822 09-11-07 91 73 82 17 0 0.01 7 15 74 72
SAV 03822 09-12-07 91 73 82 17 0 0.33 5.4 22 74 73
SAV 03822 09-13-07 88 73 81 16 0 0.02 2.9 15 75 74
SAV 03822 09-14-07 89 72 81 16 0 1.06 5.4 15 76 74
SAV 03822 09-15-07 85 72 79 14 0 0.03 3.9 13 75 73
SAV 03822 09-16-07 82 69 76 11 0 0 9.9 17 71 69
SAV 03822 09-17-07 81 66 74 9 0 0 10.9 22 63 57
SAV 03822 09-18-07 82 62 72 7 0 0 10 22 64 58
SAV 03822 09-19-07 79 63 71 6 0 0 13.6 23 66 63
SAV 03822 09-20-07 77 70 74 9 0 0.77 12.8 20 71 71
SAV 03822 09-21-07 83 70 77 12 0 0.57 8.2 15 73 73
SAV 03822 09-22-07 85 71 78 13 0 0.07 4.1 12 75 74
SAV 03822 09-23-07 88 72 80 15 0 0 2.9 13 74 73
SAV 03822 09-24-07 89 71 80 15 0 0 5.7 14 73 71
SAV 03822 09-25-07 86 68 77 12 0 0 7.9 15 72 70
SAV 03822 09-26-07 85 72 79 14 0 0.2 3.5 16 74 72
SAV 03822 09-27-07 89 69 79 14 0 0 3.2 12 73 70
SAV 03822 09-28-07 90 71 81 16 0 0.02 4.3 15 72 69
SAV 03822 09-29-07 82 63 73 8 0 0.03 9.5 20 63 55
SAV 03822 09-30-07
SAV 03822 10-01-07 84 64 74 9 0 0 11.6 22 66 62
SAV 03822 10-02-07 81 67 74 9 0 0.15 12.6 22 70 69
SAV 03822 10-03-07 79 73 76 11 0 0.96 8.5 20 74 74
SAV 03822 10-04-07 76 74 75 10 0 1.09 7.5 14 74 74
SAV 03822 10-05-07 86 72 79 14 0 0.21 9.5 18 75 73
SAV 03822 10-06-07 84 73 79 14 0 0.05 6.7 14 74 73
SAV 03822 10-07-07 84 73 79 14 0 0.09 6 16 74 73
SAV 03822 10-08-07 85 70 78 13 0 4.1 13 73 71
SAV 03822 10-09-07 88 68 78 13 0 0 1.7 8 72 70
SAV 03822 10-10-07 88 67 78 13 0 0 4.6 12 71 68
SAV 03822 10-11-07 78 55 67 2 0 0 6.3 17 58 51
SAV 03822 10-12-07 76 52 64 0 1 0.01 3.4 12 55 49
SAV 03822 10-13-07 78 50 64 0 1 0.01 2.7 12 57 53
SAV 03822 10-14-07 80 54 67 2 0 0 3.7 14 61 57
SAV 03822 10-15-07 81 58 70 5 0 0 7 16 65 62
SAV 03822 10-16-07 84 66 75 10 0 5.7 14 69 67
SAV 03822 10-17-07 85 68 77 12 0 0 5.8 12 71 68
SAV 03822 10-18-07 89 70 80 15 0 0.13 2.7 8 74 72
SAV 03822 10-19-07 81 68 75 10 0 0.03 5.9 14 71 70
SAV 03822 10-20-07 81 57 69 4 0 0.02 5 13 62 58
SAV 03822 10-21-07 81 55 68 3 0 0.01 3.4 15 64 62
SAV 03822 10-22-07 83 69 76 11 0 0 6 17 71 69
SAV 03822 10-23-07 87 70 79 14 0 0 8.9 20 75 73
SAV 03822 10-24-07 78 64 71 6 0 0.75 4.8 13 67 67
SAV 03822 10-25-07 72 62 67 2 0 0.01 1.3 9 62 59
SAV 03822 10-26-07 66 62 64 0 1 0.83 4.1 12 62 62
SAV 03822 10-27-07 75 62 69 4 0 0.01 3.2 12 64 62
SAV 03822 10-28-07 67 59 63 0 2 0 12.1 18 57 53
SAV 03822 10-29-07 64 52 58 0 7 0 13.7 21 51 45
SAV 03822 10-30-07 74 51 63 0 2 0.01 11.2 21 57 53
SAV 03822 10-31-07
SAV 03822 11-01-07 82 62 72 7 0 0 10.5 20 65 61
SAV 03822 11-02-07 73 55 64 0 1 0 12.3 21 56 50
SAV 03822 11-03-07 71 46 59 0 6 0 5.7 16 49 43
SAV 03822 11-04-07 73 42 58 0 7 0 3 14 48 42
SAV 03822 11-05-07 73 42 58 0 7 0 1.4 8 49 44
SAV 03822 11-06-07 76 47 62 0 3 0 7.7 15 53 45
SAV 03822 11-07-07 59 35 47 0 18 0 6 17 39 28
SAV 03822 11-08-07 64 34 49 0 16 0 2 12 42 36
SAV 03822 11-09-07 67 35 51 0 14 0.01 2.2 8 44 36
SAV 03822 11-10-07 70 45 58 0 7 0 5.1 13 49 42
SAV 03822 11-11-07 65 42 54 0 11 0 4.7 12 47 41
SAV 03822 11-12-07 72 41 57 0 8 0 1.2 9 50 46
SAV 03822 11-13-07 74 46 60 0 5 0 1.9 12 54 51
SAV 03822 11-14-07 78 50 64 0 1 0 3.5 13 58 55
SAV 03822 11-15-07 69 45 57 0 8 11.8 26 52 42
SAV 03822 11-16-07 58 34 46 0 19 0 4.5 13 37 28
SAV 03822 11-17-07 66 30 48 0 17 0.01 2.1 9 41 34
SAV 03822 11-18-07 70 42 56 0 9 0 1.1 7 51 46
SAV 03822 11-19-07 75 49 62 0 3 1.7 10 55 51
SAV 03822 11-20-07 78 45 62 0 3 0 2.1 12 55 51
SAV 03822 11-21-07 79 51 65 0 0 0 4.7 15 59 55
SAV 03822 11-22-07 76 60 68 3 0 6.8 17 62 59
SAV 03822 11-23-07 61 43 52 0 13 0 10.3 20 45 37
SAV 03822 11-24-07 57 40 49 0 16 0 11.7 18 43 36
SAV 03822 11-25-07 61 51 56 0 9 7.3 14 52 48
SAV 03822 11-26-07 81 56 69 4 0 0.05 5.5 17 64 63
SAV 03822 11-27-07 67 52 60 0 5 8.5 17 56 51
SAV 03822 11-28-07 66 45 56 0 9 0 8.5 15 50 44
SAV 03822 11-29-07 63 52 58 0 7 2.6 12 54 52
SAV 03822 11-30-07 70 49 60 0 5 0 2.7 10 54 51
SAV 03822 12-01-07 67 41 54 0 11 0 6.9 17 46 37
SAV 03822 12-02-07 77 49 63 0 2 3.9 9 58 55
SAV 03822 12-03-07 73 46 60 0 5 0.02 10.2 25 56 48
SAV 03822 12-04-07 62 34 48 0 17 0 3.9 14 38 27
SAV 03822 12-05-07 67 35 51 0 14 0 5.5 15 43 30
SAV 03822 12-06-07 57 42 50 0 15 0 7.5 15 44 38
SAV 03822 12-07-07 66 48 57 0 8 0 4.2 13 51 48
SAV 03822 12-08-07 76 46 61 0 4 0 1.1 9 55 53
SAV 03822 12-09-07 77 49 63 0 2 0 1.2 9 57 55
SAV 03822 12-10-07 80 50 65 0 0 0 0.9 7 59 57
SAV 03822 12-11-07 79 51 65 0 0 0 2.4 13 60 59
SAV 03822 12-12-07 81 54 68 3 0 0 2.3 12 61 59
SAV 03822 12-13-07 80 52 66 1 0 0 4.5 14 61 58
SAV 03822 12-14-07 80 54 67 2 0 0 2.1 10 61 59
SAV 03822 12-15-07 74 52 63 0 2 0.08 6.7 17 62 61
SAV 03822 12-16-07 70 38 54 0 11 0.55 15.2 29 51 45
SAV 03822 12-17-07 51 29 40 0 25 0 4.6 15 33 24
SAV 03822 12-18-07 56 26 41 0 24 0 2.9 13 38 33
SAV 03822 12-19-07 67 38 53 0 12 0 2.3 12 47 43
SAV 03822 12-20-07 67 44 56 0 9 0.18 5.2 8 53 50
SAV 03822 12-21-07 61 50 56 0 9 7.12 14.8 32 54 53
SAV 03822 12-22-07 62 47 55 0 10 0.12 9.6 16 53 51
SAV 03822 12-23-07 73 49 61 0 4 0.05 6.3 17 61 59
SAV 03822 12-24-07 59 37 48 0 17 0 1.8 13 41 35
SAV 03822 12-25-07 57 38 48 0 17 0.09 5.5 20 45 42
SAV 03822 12-26-07 48 38 43 0 22 6.1 17 43 41
SAV 03822 12-27-07 62 41 52 0 13 0 2.3 12 50 49
SAV 03822 12-28-07 76 51 64 0 1 0.01 7 20 62 61
SAV 03822 12-29-07 74 63 69 4 0 0.95 4.8 12 65 65
SAV 03822 12-30-07 76 64 70 5 0 0.27 7.1 18 66 65
SAV 03822 12-31-07 66 49 58 0 7 0 4.5 15 50 44
SAV 03822 01-01-08 60 40 50 0 15 0 10.6 25 43 31
SAV 03822 01-02-08 40 30 35 0 30 0 13.8 26 28 13
SAV 03822 01-03-08 42 25 34 0 31 0 7.4 20 26 13
SAV 03822 01-04-08 52 23 38 0 27 0 2.3 12 32 24
SAV 03822 01-05-08 62 31 47 0 18 0 2.2 9 42 37
SAV 03822 01-06-08 72 44 58 0 7 0 1.1 10 52 49
SAV 03822 01-07-08 74 44 59 0 6 0 2.3 12 54 52
SAV 03822 01-08-08 70 50 60 0 5 0.02 3.2 15 58 57
SAV 03822 01-09-08 77 51 64 0 1 0 2.7 13 59 57
SAV 03822 01-10-08 77 52 65 0 0 4.8 15 59 56
SAV 03822 01-11-08 75 62 69 4 0 0.39 6.4 15 63 62
SAV 03822 01-12-08 62 56 59 0 6 0.14 2.6 8 57 56
SAV 03822 01-13-08 69 46 58 0 7 3.3 13 56 53
SAV 03822 01-14-08 58 40 49 0 16 0 7.3 20 41 33
SAV 03822 01-15-08 56 37 47 0 18 0 8.1 20 38 28
SAV 03822 01-16-08 48 37 43 0 22 0.42 10.5 20 39 34
SAV 03822 01-17-08 49 42 46 0 19 0.84 8.2 18 46 45
SAV 03822 01-18-08 59 39 49 0 16 0 5.7 15 45 42
SAV 03822 01-19-08 48 40 44 0 21 0.95 7.6 21 44 43
SAV 03822 01-20-08 45 32 39 0 26 0 9.5 18 33 25
SAV 03822 01-21-08 48 28 38 0 27 0 11.4 21 32 20
SAV 03822 01-22-08 66 38 52 0 13 0.06 5.1 13 46 42
SAV 03822 01-23-08 65 50 58 0 7 0.01 3.6 14 52 50
SAV 03822 01-24-08 59 39 49 0 16 0.01 8.3 22 47 42
SAV 03822 01-25-08 45 30 38 0 27 0 9.2 18 32 20
SAV 03822 01-26-08 47 36 42 0 23 0.02 2.8 9 39 34
SAV 03822 01-27-08 61 35 48 0 17 0 5.6 17 41 34
SAV 03822 01-28-08 61 32 47 0 18 0 3.4 13 38 31
SAV 03822 01-29-08 67 33 50 0 15 0 5.8 16 45 39
SAV 03822 01-30-08 61 36 49 0 16 0.06 7.7 22 47 39
SAV 03822 01-31-08 57 32 45 0 20 0.01 7.5 16 44 41
SAV 03822 02-01-08 70 46 58 0 7 0.11 9.5 22 53 47
SAV 03822 02-02-08 63 33 48 0 17 0 2.3 12 42 37
SAV 03822 02-03-08 71 37 54 0 11 0 2.1 13 49 45
SAV 03822 02-04-08 79 50 65 0 0 0 4.5 12 60 57
SAV 03822 02-05-08 82 59 71 6 0 0 6.1 15 64 62
SAV 03822 02-06-08 82 61 72 7 0 0.06 9.6 23 65 61
SAV 03822 02-07-08 68 50 59 0 6 0.01 6 17 50 40
SAV 03822 02-08-08 67 40 54 0 11 0 5.2 13 46 37
SAV 03822 02-09-08 72 42 57 0 8 0 6.3 17 51 44
SAV 03822 02-10-08 70 38 54 0 11 0 7.8 21 44 25
SAV 03822 02-11-08 70 36 53 0 12 0 3.4 14 44 34
SAV 03822 02-12-08 75 39 57 0 8 0.81 6.3 22 56 53
SAV 03822